<?xml version="1.0" encoding="UTF-8" standalone="no" ?>
<gpx xmlns="http://www.topografix.com/GPX/1/1" xmlns:xsi="http://www.w3.org/2001/XMLSchema-instance" xsi:schemaLocation="http://www.topografix.com/GPX/1/1 http://www.topografix.com/GPX/1/1/gpx.xsd" version="1.1" creator="VisuGPX - https://www.visugpx.com">
  <metadata>
    <name>45 km 2022 journée mobilité</name>
    <desc><![CDATA[grand circuit journées de la mobilité]]></desc>
  </metadata>
  <trk>
    <name><![CDATA[45 km 2022 journée mobilité]]></name>
    <trkseg>
      <trkpt lat="47.60248" lon="1.1419">
        <ele>149.56226666156</ele>
        <time>2022-04-28T19:10:19.000Z</time>
      </trkpt>
      <trkpt lat="47.60251" lon="1.14163">
        <ele>150.42497849986</ele>
        <time>2022-04-28T19:10:19.004Z</time>
      </trkpt>
      <trkpt lat="47.60246" lon="1.14137">
        <ele>151.4625244634</ele>
        <time>2022-04-28T19:10:19.011Z</time>
      </trkpt>
      <trkpt lat="47.60239" lon="1.14104">
        <ele>152.91185003086</ele>
        <time>2022-04-28T19:10:19.023Z</time>
      </trkpt>
      <trkpt lat="47.60223" lon="1.14017">
        <ele>155.26739689519</ele>
        <time>2022-04-28T19:10:19.047Z</time>
      </trkpt>
      <trkpt lat="47.60218" lon="1.13991">
        <ele>156.85617981684</ele>
        <time>2022-04-28T19:10:19.075Z</time>
      </trkpt>
      <trkpt lat="47.60212" lon="1.13982">
        <ele>158.08701317765</ele>
        <time>2022-04-28T19:10:19.105Z</time>
      </trkpt>
      <trkpt lat="47.60198" lon="1.13966">
        <ele>159.08238785356</ele>
        <time>2022-04-28T19:10:19.138Z</time>
      </trkpt>
      <trkpt lat="47.60189" lon="1.13959">
        <ele>159.72475438573</ele>
        <time>2022-04-28T19:10:19.173Z</time>
      </trkpt>
      <trkpt lat="47.60167" lon="1.1395">
        <ele>160.15345716938</ele>
        <time>2022-04-28T19:10:19.213Z</time>
      </trkpt>
      <trkpt lat="47.60148" lon="1.13945">
        <ele>160.38080802127</ele>
        <time>2022-04-28T19:10:19.257Z</time>
      </trkpt>
      <trkpt lat="47.60134" lon="1.13946">
        <ele>160.39932070068</ele>
        <time>2022-04-28T19:10:19.303Z</time>
      </trkpt>
      <trkpt lat="47.60117" lon="1.13951">
        <ele>160.28412573081</ele>
        <time>2022-04-28T19:10:19.353Z</time>
      </trkpt>
      <trkpt lat="47.601" lon="1.13959">
        <ele>160.09553572376</ele>
        <time>2022-04-28T19:10:19.406Z</time>
      </trkpt>
      <trkpt lat="47.60072" lon="1.13986">
        <ele>159.80612584296</ele>
        <time>2022-04-28T19:10:19.466Z</time>
      </trkpt>
      <trkpt lat="47.60052" lon="1.14009">
        <ele>159.44194167737</ele>
        <time>2022-04-28T19:10:19.531Z</time>
      </trkpt>
      <trkpt lat="47.60035" lon="1.14037">
        <ele>159.09150980013</ele>
        <time>2022-04-28T19:10:19.601Z</time>
      </trkpt>
      <trkpt lat="47.60026" lon="1.14054">
        <ele>158.70495881955</ele>
        <time>2022-04-28T19:10:19.674Z</time>
      </trkpt>
      <trkpt lat="47.60025" lon="1.14055">
        <ele>158.15123798895</ele>
        <time>2022-04-28T19:10:19.747Z</time>
      </trkpt>
      <trkpt lat="47.60002" lon="1.14103">
        <ele>157.73451742564</ele>
        <time>2022-04-28T19:10:19.828Z</time>
      </trkpt>
      <trkpt lat="47.59989" lon="1.14145">
        <ele>157.65855681007</ele>
        <time>2022-04-28T19:10:19.916Z</time>
      </trkpt>
      <trkpt lat="47.59981" lon="1.14196">
        <ele>157.73254274648</ele>
        <time>2022-04-28T19:10:20.011Z</time>
      </trkpt>
      <trkpt lat="47.5998" lon="1.14267">
        <ele>157.61006187176</ele>
        <time>2022-04-28T19:10:20.115Z</time>
      </trkpt>
      <trkpt lat="47.59989" lon="1.14328">
        <ele>157.65763829762</ele>
        <time>2022-04-28T19:10:20.228Z</time>
      </trkpt>
      <trkpt lat="47.59994" lon="1.14354">
        <ele>157.72546021382</ele>
        <time>2022-04-28T19:10:20.344Z</time>
      </trkpt>
      <trkpt lat="47.60004" lon="1.14389">
        <ele>157.83311766165</ele>
        <time>2022-04-28T19:10:20.466Z</time>
      </trkpt>
      <trkpt lat="47.60012" lon="1.14408">
        <ele>157.92167754269</ele>
        <time>2022-04-28T19:10:20.591Z</time>
      </trkpt>
      <trkpt lat="47.60024" lon="1.14428">
        <ele>158.06304048708</ele>
        <time>2022-04-28T19:10:20.719Z</time>
      </trkpt>
      <trkpt lat="47.60047" lon="1.14459">
        <ele>158.14334077302</ele>
        <time>2022-04-28T19:10:20.854Z</time>
      </trkpt>
      <trkpt lat="47.60089" lon="1.14507">
        <ele>158.33077805213</ele>
        <time>2022-04-28T19:10:20.999Z</time>
      </trkpt>
      <trkpt lat="47.60132" lon="1.14543">
        <ele>158.55337140552</ele>
        <time>2022-04-28T19:10:21.154Z</time>
      </trkpt>
      <trkpt lat="47.60176" lon="1.14572">
        <ele>158.68086457703</ele>
        <time>2022-04-28T19:10:21.319Z</time>
      </trkpt>
      <trkpt lat="47.602" lon="1.14584">
        <ele>158.79055686857</ele>
        <time>2022-04-28T19:10:21.489Z</time>
      </trkpt>
      <trkpt lat="47.60201" lon="1.14584">
        <ele>158.97014133664</ele>
        <time>2022-04-28T19:10:21.659Z</time>
      </trkpt>
      <trkpt lat="47.60192" lon="1.14581">
        <ele>159.04939822389</ele>
        <time>2022-04-28T19:10:21.831Z</time>
      </trkpt>
      <trkpt lat="47.60176" lon="1.14572">
        <ele>158.68086457703</ele>
        <time>2022-04-28T19:10:22.006Z</time>
      </trkpt>
      <trkpt lat="47.60179" lon="1.14577">
        <ele>159.1010576712</ele>
        <time>2022-04-28T19:10:22.182Z</time>
      </trkpt>
      <trkpt lat="47.60184" lon="1.14594">
        <ele>159.0879547977</ele>
        <time>2022-04-28T19:10:22.361Z</time>
      </trkpt>
      <trkpt lat="47.60192" lon="1.14626">
        <ele>159.04867728804</ele>
        <time>2022-04-28T19:10:22.544Z</time>
      </trkpt>
      <trkpt lat="47.60195" lon="1.14652">
        <ele>158.92081231067</ele>
        <time>2022-04-28T19:10:22.731Z</time>
      </trkpt>
      <trkpt lat="47.60186" lon="1.14723">
        <ele>158.65703950571</ele>
        <time>2022-04-28T19:10:22.928Z</time>
      </trkpt>
      <trkpt lat="47.60174" lon="1.14817">
        <ele>158.58366657942</ele>
        <time>2022-04-28T19:10:23.138Z</time>
      </trkpt>
      <trkpt lat="47.60168" lon="1.14858">
        <ele>158.33707733337</ele>
        <time>2022-04-28T19:10:23.353Z</time>
      </trkpt>
      <trkpt lat="47.60151" lon="1.14974">
        <ele>158.0166423943</ele>
        <time>2022-04-28T19:10:23.584Z</time>
      </trkpt>
      <trkpt lat="47.6015" lon="1.14978">
        <ele>157.5909834366</ele>
        <time>2022-04-28T19:10:23.816Z</time>
      </trkpt>
      <trkpt lat="47.60118" lon="1.15191">
        <ele>157.14337334781</ele>
        <time>2022-04-28T19:10:24.077Z</time>
      </trkpt>
      <trkpt lat="47.60117" lon="1.15195">
        <ele>156.53367253293</ele>
        <time>2022-04-28T19:10:24.339Z</time>
      </trkpt>
      <trkpt lat="47.60116" lon="1.15198">
        <ele>156.19990137577</ele>
        <time>2022-04-28T19:10:24.601Z</time>
      </trkpt>
      <trkpt lat="47.60097" lon="1.15184">
        <ele>155.80103835674</ele>
        <time>2022-04-28T19:10:24.868Z</time>
      </trkpt>
      <trkpt lat="47.60049" lon="1.1515">
        <ele>155.34328628978</ele>
        <time>2022-04-28T19:10:25.145Z</time>
      </trkpt>
      <trkpt lat="47.6" lon="1.15115">
        <ele>154.97713462744</ele>
        <time>2022-04-28T19:10:25.433Z</time>
      </trkpt>
      <trkpt lat="47.59886" lon="1.15036">
        <ele>154.64066665379</ele>
        <time>2022-04-28T19:10:25.746Z</time>
      </trkpt>
      <trkpt lat="47.59779" lon="1.14958">
        <ele>154.18495627212</ele>
        <time>2022-04-28T19:10:26.083Z</time>
      </trkpt>
      <trkpt lat="47.59679" lon="1.14887">
        <ele>153.49977558901</ele>
        <time>2022-04-28T19:10:26.442Z</time>
      </trkpt>
      <trkpt lat="47.59649" lon="1.14866">
        <ele>152.85252584103</ele>
        <time>2022-04-28T19:10:26.808Z</time>
      </trkpt>
      <trkpt lat="47.596" lon="1.14831">
        <ele>152.08027394541</ele>
        <time>2022-04-28T19:10:27.185Z</time>
      </trkpt>
      <trkpt lat="47.59601" lon="1.1483">
        <ele>151.34056449338</ele>
        <time>2022-04-28T19:10:27.562Z</time>
      </trkpt>
      <trkpt lat="47.59604" lon="1.14828">
        <ele>149.7053157988</ele>
        <time>2022-04-28T19:10:27.940Z</time>
      </trkpt>
      <trkpt lat="47.59548" lon="1.14876">
        <ele>148.82625964123</ele>
        <time>2022-04-28T19:10:28.331Z</time>
      </trkpt>
      <trkpt lat="47.59445" lon="1.14977">
        <ele>147.60723052089</ele>
        <time>2022-04-28T19:10:28.747Z</time>
      </trkpt>
      <trkpt lat="47.59284" lon="1.15137">
        <ele>146.34896471416</ele>
        <time>2022-04-28T19:10:29.201Z</time>
      </trkpt>
      <trkpt lat="47.59151" lon="1.15274">
        <ele>145.2160520242</ele>
        <time>2022-04-28T19:10:29.688Z</time>
      </trkpt>
      <trkpt lat="47.59061" lon="1.15363">
        <ele>143.92398731952</ele>
        <time>2022-04-28T19:10:30.197Z</time>
      </trkpt>
      <trkpt lat="47.59048" lon="1.15339">
        <ele>142.84389663177</ele>
        <time>2022-04-28T19:10:30.710Z</time>
      </trkpt>
      <trkpt lat="47.59042" lon="1.15319">
        <ele>141.77723220901</ele>
        <time>2022-04-28T19:10:31.226Z</time>
      </trkpt>
      <trkpt lat="47.59021" lon="1.15245">
        <ele>140.79295869979</ele>
        <time>2022-04-28T19:10:31.753Z</time>
      </trkpt>
      <trkpt lat="47.59004" lon="1.15187">
        <ele>139.55639333124</ele>
        <time>2022-04-28T19:10:32.288Z</time>
      </trkpt>
      <trkpt lat="47.58987" lon="1.15122">
        <ele>138.29077764742</ele>
        <time>2022-04-28T19:10:32.833Z</time>
      </trkpt>
      <trkpt lat="47.58983" lon="1.15111">
        <ele>137.13203473123</ele>
        <time>2022-04-28T19:10:33.379Z</time>
      </trkpt>
      <trkpt lat="47.58974" lon="1.15123">
        <ele>136.00492254246</ele>
        <time>2022-04-28T19:10:33.928Z</time>
      </trkpt>
      <trkpt lat="47.58939" lon="1.15168">
        <ele>134.84467038721</ele>
        <time>2022-04-28T19:10:34.486Z</time>
      </trkpt>
      <trkpt lat="47.58909" lon="1.15207">
        <ele>133.66846570109</ele>
        <time>2022-04-28T19:10:35.052Z</time>
      </trkpt>
      <trkpt lat="47.58906" lon="1.15211">
        <ele>131.46328898953</ele>
        <time>2022-04-28T19:10:35.619Z</time>
      </trkpt>
      <trkpt lat="47.58818" lon="1.15319">
        <ele>130.38734118571</ele>
        <time>2022-04-28T19:10:36.209Z</time>
      </trkpt>
      <trkpt lat="47.58759" lon="1.15388">
        <ele>129.31569470664</ele>
        <time>2022-04-28T19:10:36.814Z</time>
      </trkpt>
      <trkpt lat="47.58572" lon="1.15598">
        <ele>127.84679802409</ele>
        <time>2022-04-28T19:10:37.466Z</time>
      </trkpt>
      <trkpt lat="47.58546" lon="1.15632">
        <ele>126.68104208</ele>
        <time>2022-04-28T19:10:38.125Z</time>
      </trkpt>
      <trkpt lat="47.58532" lon="1.15653">
        <ele>125.52449217184</ele>
        <time>2022-04-28T19:10:38.788Z</time>
      </trkpt>
      <trkpt lat="47.58502" lon="1.15707">
        <ele>124.49700000044</ele>
        <time>2022-04-28T19:10:39.460Z</time>
      </trkpt>
      <trkpt lat="47.58484" lon="1.15693">
        <ele>123.32680733541</ele>
        <time>2022-04-28T19:10:40.136Z</time>
      </trkpt>
      <trkpt lat="47.58412" lon="1.15643">
        <ele>122.23303226368</ele>
        <time>2022-04-28T19:10:40.828Z</time>
      </trkpt>
      <trkpt lat="47.58394" lon="1.15633">
        <ele>121.28568708178</ele>
        <time>2022-04-28T19:10:41.524Z</time>
      </trkpt>
      <trkpt lat="47.58378" lon="1.1563">
        <ele>120.36606237231</ele>
        <time>2022-04-28T19:10:42.223Z</time>
      </trkpt>
      <trkpt lat="47.58355" lon="1.1563">
        <ele>119.47459081605</ele>
        <time>2022-04-28T19:10:42.927Z</time>
      </trkpt>
      <trkpt lat="47.58295" lon="1.15635">
        <ele>118.48334545998</ele>
        <time>2022-04-28T19:10:43.643Z</time>
      </trkpt>
      <trkpt lat="47.5825" lon="1.15642">
        <ele>117.54110170894</ele>
        <time>2022-04-28T19:10:44.368Z</time>
      </trkpt>
      <trkpt lat="47.58179" lon="1.15654">
        <ele>116.78745888195</ele>
        <time>2022-04-28T19:10:45.107Z</time>
      </trkpt>
      <trkpt lat="47.58137" lon="1.15663">
        <ele>116.19136153972</ele>
        <time>2022-04-28T19:10:45.855Z</time>
      </trkpt>
      <trkpt lat="47.5806" lon="1.15681">
        <ele>115.46901009026</ele>
        <time>2022-04-28T19:10:46.618Z</time>
      </trkpt>
      <trkpt lat="47.58027" lon="1.15687">
        <ele>114.98790054596</ele>
        <time>2022-04-28T19:10:47.388Z</time>
      </trkpt>
      <trkpt lat="47.58015" lon="1.15674">
        <ele>114.50396845446</ele>
        <time>2022-04-28T19:10:48.161Z</time>
      </trkpt>
      <trkpt lat="47.57989" lon="1.15633">
        <ele>114.05146645712</ele>
        <time>2022-04-28T19:10:48.941Z</time>
      </trkpt>
      <trkpt lat="47.57973" lon="1.15605">
        <ele>113.7418660095</ele>
        <time>2022-04-28T19:10:49.726Z</time>
      </trkpt>
      <trkpt lat="47.57953" lon="1.1555">
        <ele>113.4453931197</ele>
        <time>2022-04-28T19:10:50.520Z</time>
      </trkpt>
      <trkpt lat="47.57929" lon="1.1546">
        <ele>113.23748107408</ele>
        <time>2022-04-28T19:10:51.327Z</time>
      </trkpt>
      <trkpt lat="47.57912" lon="1.1537">
        <ele>113.16087222425</ele>
        <time>2022-04-28T19:10:52.147Z</time>
      </trkpt>
      <trkpt lat="47.579" lon="1.1529">
        <ele>113.02420147842</ele>
        <time>2022-04-28T19:10:52.978Z</time>
      </trkpt>
      <trkpt lat="47.57888" lon="1.15173">
        <ele>112.95598897086</ele>
        <time>2022-04-28T19:10:53.825Z</time>
      </trkpt>
      <trkpt lat="47.57834" lon="1.1518">
        <ele>112.91959867203</ele>
        <time>2022-04-28T19:10:54.683Z</time>
      </trkpt>
      <trkpt lat="47.5783" lon="1.15183">
        <ele>113.04323053699</ele>
        <time>2022-04-28T19:10:55.541Z</time>
      </trkpt>
      <trkpt lat="47.57818" lon="1.15206">
        <ele>113.21770461859</ele>
        <time>2022-04-28T19:10:56.403Z</time>
      </trkpt>
      <trkpt lat="47.57808" lon="1.15223">
        <ele>113.42782037739</ele>
        <time>2022-04-28T19:10:57.268Z</time>
      </trkpt>
      <trkpt lat="47.57805" lon="1.15229">
        <ele>114.01613166249</ele>
        <time>2022-04-28T19:10:58.134Z</time>
      </trkpt>
      <trkpt lat="47.57732" lon="1.15328">
        <ele>114.76407717639</ele>
        <time>2022-04-28T19:10:59.020Z</time>
      </trkpt>
      <trkpt lat="47.57703" lon="1.15359">
        <ele>115.13797016642</ele>
        <time>2022-04-28T19:10:59.913Z</time>
      </trkpt>
      <trkpt lat="47.57686" lon="1.1537">
        <ele>115.5346385184</ele>
        <time>2022-04-28T19:11:00.810Z</time>
      </trkpt>
      <trkpt lat="47.57667" lon="1.15379">
        <ele>115.96608228043</ele>
        <time>2022-04-28T19:11:01.711Z</time>
      </trkpt>
      <trkpt lat="47.57608" lon="1.15407">
        <ele>116.04704934156</ele>
        <time>2022-04-28T19:11:02.625Z</time>
      </trkpt>
      <trkpt lat="47.57563" lon="1.15429">
        <ele>116.42480281492</ele>
        <time>2022-04-28T19:11:03.548Z</time>
      </trkpt>
      <trkpt lat="47.57446" lon="1.1548">
        <ele>116.97230588481</ele>
        <time>2022-04-28T19:11:04.495Z</time>
      </trkpt>
      <trkpt lat="47.57411" lon="1.15495">
        <ele>117.39570427504</ele>
        <time>2022-04-28T19:11:05.450Z</time>
      </trkpt>
      <trkpt lat="47.57423" lon="1.15541">
        <ele>117.67341860015</ele>
        <time>2022-04-28T19:11:06.411Z</time>
      </trkpt>
      <trkpt lat="47.57425" lon="1.15571">
        <ele>117.9918160137</ele>
        <time>2022-04-28T19:11:07.377Z</time>
      </trkpt>
      <trkpt lat="47.57421" lon="1.15603">
        <ele>118.27636363513</ele>
        <time>2022-04-28T19:11:08.347Z</time>
      </trkpt>
      <trkpt lat="47.57418" lon="1.1562">
        <ele>118.48282518275</ele>
        <time>2022-04-28T19:11:09.319Z</time>
      </trkpt>
      <trkpt lat="47.57418" lon="1.15647">
        <ele>118.66581309482</ele>
        <time>2022-04-28T19:11:10.295Z</time>
      </trkpt>
      <trkpt lat="47.57438" lon="1.15762">
        <ele>118.88136974752</ele>
        <time>2022-04-28T19:11:11.287Z</time>
      </trkpt>
      <trkpt lat="47.57452" lon="1.15839">
        <ele>119.03487343841</ele>
        <time>2022-04-28T19:11:12.290Z</time>
      </trkpt>
      <trkpt lat="47.57457" lon="1.15872">
        <ele>119.12185882981</ele>
        <time>2022-04-28T19:11:13.297Z</time>
      </trkpt>
      <trkpt lat="47.57432" lon="1.15879">
        <ele>119.22591621636</ele>
        <time>2022-04-28T19:11:14.310Z</time>
      </trkpt>
      <trkpt lat="47.57402" lon="1.15881">
        <ele>119.2417767535</ele>
        <time>2022-04-28T19:11:15.329Z</time>
      </trkpt>
      <trkpt lat="47.57396" lon="1.15881">
        <ele>119.26274300189</ele>
        <time>2022-04-28T19:11:16.349Z</time>
      </trkpt>
      <trkpt lat="47.5739" lon="1.1588">
        <ele>119.26536569132</ele>
        <time>2022-04-28T19:11:17.370Z</time>
      </trkpt>
      <trkpt lat="47.57315" lon="1.15872">
        <ele>119.23577279858</ele>
        <time>2022-04-28T19:11:18.406Z</time>
      </trkpt>
      <trkpt lat="47.57277" lon="1.15869">
        <ele>119.25313462549</ele>
        <time>2022-04-28T19:11:19.450Z</time>
      </trkpt>
      <trkpt lat="47.57216" lon="1.1586">
        <ele>119.20549247389</ele>
        <time>2022-04-28T19:11:20.506Z</time>
      </trkpt>
      <trkpt lat="47.57188" lon="1.15851">
        <ele>119.19946854043</ele>
        <time>2022-04-28T19:11:21.568Z</time>
      </trkpt>
      <trkpt lat="47.57156" lon="1.1584">
        <ele>119.24283314792</ele>
        <time>2022-04-28T19:11:22.636Z</time>
      </trkpt>
      <trkpt lat="47.5712" lon="1.15842">
        <ele>119.19854511297</ele>
        <time>2022-04-28T19:11:23.711Z</time>
      </trkpt>
      <trkpt lat="47.57085" lon="1.15851">
        <ele>119.07685364369</ele>
        <time>2022-04-28T19:11:24.793Z</time>
      </trkpt>
      <trkpt lat="47.57022" lon="1.15868">
        <ele>118.92972068631</ele>
        <time>2022-04-28T19:11:25.888Z</time>
      </trkpt>
      <trkpt lat="47.56993" lon="1.15876">
        <ele>118.88188260336</ele>
        <time>2022-04-28T19:11:26.989Z</time>
      </trkpt>
      <trkpt lat="47.56981" lon="1.15878">
        <ele>118.93188642451</ele>
        <time>2022-04-28T19:11:28.093Z</time>
      </trkpt>
      <trkpt lat="47.56961" lon="1.15875">
        <ele>118.99058047086</ele>
        <time>2022-04-28T19:11:29.201Z</time>
      </trkpt>
      <trkpt lat="47.56941" lon="1.15869">
        <ele>119.08939041352</ele>
        <time>2022-04-28T19:11:30.313Z</time>
      </trkpt>
      <trkpt lat="47.56918" lon="1.1587">
        <ele>119.26626170243</ele>
        <time>2022-04-28T19:11:31.429Z</time>
      </trkpt>
      <trkpt lat="47.56901" lon="1.15877">
        <ele>119.53507434787</ele>
        <time>2022-04-28T19:11:32.549Z</time>
      </trkpt>
      <trkpt lat="47.56877" lon="1.15895">
        <ele>119.87157740962</ele>
        <time>2022-04-28T19:11:33.674Z</time>
      </trkpt>
      <trkpt lat="47.56865" lon="1.15908">
        <ele>120.09862003265</ele>
        <time>2022-04-28T19:11:34.802Z</time>
      </trkpt>
      <trkpt lat="47.56854" lon="1.15928">
        <ele>120.25058342169</ele>
        <time>2022-04-28T19:11:35.934Z</time>
      </trkpt>
      <trkpt lat="47.56844" lon="1.15943">
        <ele>120.3662544395</ele>
        <time>2022-04-28T19:11:37.069Z</time>
      </trkpt>
      <trkpt lat="47.56826" lon="1.15963">
        <ele>120.51306164275</ele>
        <time>2022-04-28T19:11:38.208Z</time>
      </trkpt>
      <trkpt lat="47.56792" lon="1.15992">
        <ele>120.59363276409</ele>
        <time>2022-04-28T19:11:39.355Z</time>
      </trkpt>
      <trkpt lat="47.56761" lon="1.16019">
        <ele>120.53502813384</ele>
        <time>2022-04-28T19:11:40.509Z</time>
      </trkpt>
      <trkpt lat="47.56713" lon="1.16054">
        <ele>120.38398197333</ele>
        <time>2022-04-28T19:11:41.674Z</time>
      </trkpt>
      <trkpt lat="47.56693" lon="1.16008">
        <ele>120.52107682002</ele>
        <time>2022-04-28T19:11:42.846Z</time>
      </trkpt>
      <trkpt lat="47.56686" lon="1.15983">
        <ele>120.49194211752</ele>
        <time>2022-04-28T19:11:44.022Z</time>
      </trkpt>
      <trkpt lat="47.5668" lon="1.15949">
        <ele>120.29942304288</ele>
        <time>2022-04-28T19:11:45.203Z</time>
      </trkpt>
      <trkpt lat="47.56678" lon="1.1593">
        <ele>120.03739423459</ele>
        <time>2022-04-28T19:11:46.386Z</time>
      </trkpt>
      <trkpt lat="47.56677" lon="1.15921">
        <ele>119.35932606839</ele>
        <time>2022-04-28T19:11:47.571Z</time>
      </trkpt>
      <trkpt lat="47.5667" lon="1.15863">
        <ele>118.84320849063</ele>
        <time>2022-04-28T19:11:48.764Z</time>
      </trkpt>
      <trkpt lat="47.56663" lon="1.15834">
        <ele>118.37954327161</ele>
        <time>2022-04-28T19:11:49.961Z</time>
      </trkpt>
      <trkpt lat="47.56632" lon="1.15747">
        <ele>117.80268650401</ele>
        <time>2022-04-28T19:11:51.171Z</time>
      </trkpt>
      <trkpt lat="47.56626" lon="1.15732">
        <ele>117.23502468674</ele>
        <time>2022-04-28T19:11:52.383Z</time>
      </trkpt>
      <trkpt lat="47.56619" lon="1.15739">
        <ele>116.72457149666</ele>
        <time>2022-04-28T19:11:53.597Z</time>
      </trkpt>
      <trkpt lat="47.56595" lon="1.15761">
        <ele>116.16464614101</ele>
        <time>2022-04-28T19:11:54.817Z</time>
      </trkpt>
      <trkpt lat="47.56547" lon="1.15801">
        <ele>115.50567465906</ele>
        <time>2022-04-28T19:11:56.048Z</time>
      </trkpt>
      <trkpt lat="47.56497" lon="1.1584">
        <ele>114.86973061465</ele>
        <time>2022-04-28T19:11:57.290Z</time>
      </trkpt>
      <trkpt lat="47.56416" lon="1.15908">
        <ele>114.19127695394</ele>
        <time>2022-04-28T19:11:58.551Z</time>
      </trkpt>
      <trkpt lat="47.564" lon="1.15921">
        <ele>113.60585535858</ele>
        <time>2022-04-28T19:11:59.815Z</time>
      </trkpt>
      <trkpt lat="47.5639" lon="1.15923">
        <ele>113.09605902881</ele>
        <time>2022-04-28T19:12:01.081Z</time>
      </trkpt>
      <trkpt lat="47.56381" lon="1.15919">
        <ele>112.63326448386</ele>
        <time>2022-04-28T19:12:02.349Z</time>
      </trkpt>
      <trkpt lat="47.56371" lon="1.15909">
        <ele>112.20373345721</ele>
        <time>2022-04-28T19:12:03.620Z</time>
      </trkpt>
      <trkpt lat="47.56343" lon="1.15884">
        <ele>111.97115785943</ele>
        <time>2022-04-28T19:12:04.897Z</time>
      </trkpt>
      <trkpt lat="47.56314" lon="1.15864">
        <ele>111.81008154613</ele>
        <time>2022-04-28T19:12:06.181Z</time>
      </trkpt>
      <trkpt lat="47.56302" lon="1.15863">
        <ele>111.60347711172</ele>
        <time>2022-04-28T19:12:07.467Z</time>
      </trkpt>
      <trkpt lat="47.56275" lon="1.15866">
        <ele>111.41342407997</ele>
        <time>2022-04-28T19:12:08.758Z</time>
      </trkpt>
      <trkpt lat="47.56239" lon="1.15877">
        <ele>111.15971581487</ele>
        <time>2022-04-28T19:12:10.057Z</time>
      </trkpt>
      <trkpt lat="47.56222" lon="1.15883">
        <ele>111.03657836541</ele>
        <time>2022-04-28T19:12:11.359Z</time>
      </trkpt>
      <trkpt lat="47.56205" lon="1.15885">
        <ele>110.98402158637</ele>
        <time>2022-04-28T19:12:12.665Z</time>
      </trkpt>
      <trkpt lat="47.56204" lon="1.15885">
        <ele>111.08143672562</ele>
        <time>2022-04-28T19:12:13.971Z</time>
      </trkpt>
      <trkpt lat="47.56197" lon="1.15885">
        <ele>111.52178741456</ele>
        <time>2022-04-28T19:12:15.278Z</time>
      </trkpt>
      <trkpt lat="47.56186" lon="1.15886">
        <ele>111.86317503669</ele>
        <time>2022-04-28T19:12:16.588Z</time>
      </trkpt>
      <trkpt lat="47.56172" lon="1.15886">
        <ele>112.28529598091</ele>
        <time>2022-04-28T19:12:17.900Z</time>
      </trkpt>
      <trkpt lat="47.56169" lon="1.15891">
        <ele>112.82994227898</ele>
        <time>2022-04-28T19:12:19.213Z</time>
      </trkpt>
      <trkpt lat="47.56151" lon="1.15927">
        <ele>113.49389860049</ele>
        <time>2022-04-28T19:12:20.532Z</time>
      </trkpt>
      <trkpt lat="47.56146" lon="1.15939">
        <ele>114.21376273765</ele>
        <time>2022-04-28T19:12:21.853Z</time>
      </trkpt>
      <trkpt lat="47.56115" lon="1.15977">
        <ele>114.9801750294</ele>
        <time>2022-04-28T19:12:23.182Z</time>
      </trkpt>
      <trkpt lat="47.561" lon="1.16">
        <ele>115.85220207678</ele>
        <time>2022-04-28T19:12:24.516Z</time>
      </trkpt>
      <trkpt lat="47.56091" lon="1.16012">
        <ele>116.7642290707</ele>
        <time>2022-04-28T19:12:25.852Z</time>
      </trkpt>
      <trkpt lat="47.56079" lon="1.16047">
        <ele>117.84717227496</ele>
        <time>2022-04-28T19:12:27.193Z</time>
      </trkpt>
      <trkpt lat="47.56067" lon="1.16082">
        <ele>118.94962584555</ele>
        <time>2022-04-28T19:12:28.540Z</time>
      </trkpt>
      <trkpt lat="47.56047" lon="1.16124">
        <ele>120.04491155343</ele>
        <time>2022-04-28T19:12:29.894Z</time>
      </trkpt>
      <trkpt lat="47.56016" lon="1.16177">
        <ele>121.17422542098</ele>
        <time>2022-04-28T19:12:31.257Z</time>
      </trkpt>
      <trkpt lat="47.55993" lon="1.16217">
        <ele>122.24493518631</ele>
        <time>2022-04-28T19:12:32.627Z</time>
      </trkpt>
      <trkpt lat="47.55954" lon="1.16273">
        <ele>123.22738214401</ele>
        <time>2022-04-28T19:12:34.008Z</time>
      </trkpt>
      <trkpt lat="47.55886" lon="1.16396">
        <ele>124.00468576623</ele>
        <time>2022-04-28T19:12:35.411Z</time>
      </trkpt>
      <trkpt lat="47.55872" lon="1.16434">
        <ele>124.72925116141</ele>
        <time>2022-04-28T19:12:36.819Z</time>
      </trkpt>
      <trkpt lat="47.55868" lon="1.16408">
        <ele>125.43430472471</ele>
        <time>2022-04-28T19:12:38.231Z</time>
      </trkpt>
      <trkpt lat="47.55852" lon="1.1635">
        <ele>126.03717069459</ele>
        <time>2022-04-28T19:12:39.652Z</time>
      </trkpt>
      <trkpt lat="47.5584" lon="1.16314">
        <ele>126.52492402376</ele>
        <time>2022-04-28T19:12:41.078Z</time>
      </trkpt>
      <trkpt lat="47.55817" lon="1.16265">
        <ele>126.81500598263</ele>
        <time>2022-04-28T19:12:42.512Z</time>
      </trkpt>
      <trkpt lat="47.55814" lon="1.1626">
        <ele>127.07779224427</ele>
        <time>2022-04-28T19:12:43.947Z</time>
      </trkpt>
      <trkpt lat="47.55812" lon="1.16256">
        <ele>127.0352569093</ele>
        <time>2022-04-28T19:12:45.383Z</time>
      </trkpt>
      <trkpt lat="47.55755" lon="1.16156">
        <ele>126.71371965556</ele>
        <time>2022-04-28T19:12:46.836Z</time>
      </trkpt>
      <trkpt lat="47.5573" lon="1.16112">
        <ele>126.42857477848</ele>
        <time>2022-04-28T19:12:48.297Z</time>
      </trkpt>
      <trkpt lat="47.55719" lon="1.16071">
        <ele>126.10298267042</ele>
        <time>2022-04-28T19:12:49.764Z</time>
      </trkpt>
      <trkpt lat="47.55685" lon="1.15974">
        <ele>125.58892556985</ele>
        <time>2022-04-28T19:12:51.246Z</time>
      </trkpt>
      <trkpt lat="47.55654" lon="1.15884">
        <ele>125.21832303659</ele>
        <time>2022-04-28T19:12:52.742Z</time>
      </trkpt>
      <trkpt lat="47.5563" lon="1.15802">
        <ele>124.70038976858</ele>
        <time>2022-04-28T19:12:54.250Z</time>
      </trkpt>
      <trkpt lat="47.556" lon="1.15715">
        <ele>124.11231823429</ele>
        <time>2022-04-28T19:12:55.771Z</time>
      </trkpt>
      <trkpt lat="47.55507" lon="1.15449">
        <ele>123.22413796447</ele>
        <time>2022-04-28T19:12:57.332Z</time>
      </trkpt>
      <trkpt lat="47.55426" lon="1.1521">
        <ele>122.48849347388</ele>
        <time>2022-04-28T19:12:58.930Z</time>
      </trkpt>
      <trkpt lat="47.55361" lon="1.1502">
        <ele>121.5148850561</ele>
        <time>2022-04-28T19:13:00.557Z</time>
      </trkpt>
      <trkpt lat="47.55326" lon="1.14913">
        <ele>120.85136887293</ele>
        <time>2022-04-28T19:13:02.200Z</time>
      </trkpt>
      <trkpt lat="47.55287" lon="1.14806">
        <ele>120.14656914889</ele>
        <time>2022-04-28T19:13:03.859Z</time>
      </trkpt>
      <trkpt lat="47.55286" lon="1.14803">
        <ele>119.49713472294</ele>
        <time>2022-04-28T19:13:05.519Z</time>
      </trkpt>
      <trkpt lat="47.55274" lon="1.14823">
        <ele>118.86552860075</ele>
        <time>2022-04-28T19:13:07.182Z</time>
      </trkpt>
      <trkpt lat="47.5525" lon="1.14864">
        <ele>118.21712708973</ele>
        <time>2022-04-28T19:13:08.852Z</time>
      </trkpt>
      <trkpt lat="47.55234" lon="1.14895">
        <ele>117.7161827173</ele>
        <time>2022-04-28T19:13:10.528Z</time>
      </trkpt>
      <trkpt lat="47.55227" lon="1.14908">
        <ele>116.76259228919</ele>
        <time>2022-04-28T19:13:12.206Z</time>
      </trkpt>
      <trkpt lat="47.55218" lon="1.14932">
        <ele>116.37634265738</ele>
        <time>2022-04-28T19:13:13.888Z</time>
      </trkpt>
      <trkpt lat="47.55213" lon="1.14955">
        <ele>115.96289672439</ele>
        <time>2022-04-28T19:13:15.573Z</time>
      </trkpt>
      <trkpt lat="47.5521" lon="1.15007">
        <ele>115.53345231814</ele>
        <time>2022-04-28T19:13:17.265Z</time>
      </trkpt>
      <trkpt lat="47.55216" lon="1.15059">
        <ele>115.07007029313</ele>
        <time>2022-04-28T19:13:18.964Z</time>
      </trkpt>
      <trkpt lat="47.55219" lon="1.1509">
        <ele>114.64637230383</ele>
        <time>2022-04-28T19:13:20.667Z</time>
      </trkpt>
      <trkpt lat="47.5522" lon="1.15128">
        <ele>114.21539108612</ele>
        <time>2022-04-28T19:13:22.376Z</time>
      </trkpt>
      <trkpt lat="47.55215" lon="1.15194">
        <ele>113.7720487546</ele>
        <time>2022-04-28T19:13:24.094Z</time>
      </trkpt>
      <trkpt lat="47.55195" lon="1.15151">
        <ele>113.30921194188</ele>
        <time>2022-04-28T19:13:25.819Z</time>
      </trkpt>
      <trkpt lat="47.55169" lon="1.15067">
        <ele>113.01590457138</ele>
        <time>2022-04-28T19:13:27.556Z</time>
      </trkpt>
      <trkpt lat="47.55147" lon="1.14978">
        <ele>112.54527626695</ele>
        <time>2022-04-28T19:13:29.306Z</time>
      </trkpt>
      <trkpt lat="47.55136" lon="1.14948">
        <ele>112.01310012534</ele>
        <time>2022-04-28T19:13:31.061Z</time>
      </trkpt>
      <trkpt lat="47.5513" lon="1.14933">
        <ele>110.8687071817</ele>
        <time>2022-04-28T19:13:32.818Z</time>
      </trkpt>
      <trkpt lat="47.55037" lon="1.15158">
        <ele>110.3314785594</ele>
        <time>2022-04-28T19:13:34.611Z</time>
      </trkpt>
      <trkpt lat="47.54853" lon="1.14991">
        <ele>109.32086674746</ele>
        <time>2022-04-28T19:13:36.447Z</time>
      </trkpt>
      <trkpt lat="47.54888" lon="1.14925">
        <ele>108.56385687771</ele>
        <time>2022-04-28T19:13:38.294Z</time>
      </trkpt>
      <trkpt lat="47.54888" lon="1.14925">
        <ele>107.85728924848</ele>
        <time>2022-04-28T19:13:40.141Z</time>
      </trkpt>
      <trkpt lat="47.54911" lon="1.14881">
        <ele>107.2559246432</ele>
        <time>2022-04-28T19:13:41.996Z</time>
      </trkpt>
      <trkpt lat="47.54919" lon="1.14859">
        <ele>106.52255336991</ele>
        <time>2022-04-28T19:13:43.854Z</time>
      </trkpt>
      <trkpt lat="47.54927" lon="1.14833">
        <ele>105.76385717335</ele>
        <time>2022-04-28T19:13:45.716Z</time>
      </trkpt>
      <trkpt lat="47.54942" lon="1.14765">
        <ele>104.79461406075</ele>
        <time>2022-04-28T19:13:47.588Z</time>
      </trkpt>
      <trkpt lat="47.54949" lon="1.1474">
        <ele>104.04217887491</ele>
        <time>2022-04-28T19:13:49.464Z</time>
      </trkpt>
      <trkpt lat="47.5496" lon="1.14714">
        <ele>103.33849584767</ele>
        <time>2022-04-28T19:13:51.344Z</time>
      </trkpt>
      <trkpt lat="47.5496" lon="1.14713">
        <ele>102.26958330335</ele>
        <time>2022-04-28T19:13:53.224Z</time>
      </trkpt>
      <trkpt lat="47.54983" lon="1.14664">
        <ele>101.59395319858</ele>
        <time>2022-04-28T19:13:55.112Z</time>
      </trkpt>
      <trkpt lat="47.55039" lon="1.14571">
        <ele>101.10449066091</ele>
        <time>2022-04-28T19:13:57.017Z</time>
      </trkpt>
      <trkpt lat="47.55049" lon="1.14556">
        <ele>100.92244035287</ele>
        <time>2022-04-28T19:13:58.924Z</time>
      </trkpt>
      <trkpt lat="47.55073" lon="1.1452">
        <ele>100.94352598732</ele>
        <time>2022-04-28T19:14:00.838Z</time>
      </trkpt>
      <trkpt lat="47.55086" lon="1.14505">
        <ele>101.1254337644</ele>
        <time>2022-04-28T19:14:02.756Z</time>
      </trkpt>
      <trkpt lat="47.55086" lon="1.14503">
        <ele>101.40089826646</ele>
        <time>2022-04-28T19:14:04.674Z</time>
      </trkpt>
      <trkpt lat="47.55091" lon="1.14501">
        <ele>101.79268031184</ele>
        <time>2022-04-28T19:14:06.593Z</time>
      </trkpt>
      <trkpt lat="47.55101" lon="1.14492">
        <ele>102.34197224423</ele>
        <time>2022-04-28T19:14:08.514Z</time>
      </trkpt>
      <trkpt lat="47.55122" lon="1.14475">
        <ele>102.99000928212</ele>
        <time>2022-04-28T19:14:10.440Z</time>
      </trkpt>
      <trkpt lat="47.55115" lon="1.14451">
        <ele>103.78343876893</ele>
        <time>2022-04-28T19:14:12.370Z</time>
      </trkpt>
      <trkpt lat="47.55121" lon="1.14423">
        <ele>104.66473873355</ele>
        <time>2022-04-28T19:14:14.304Z</time>
      </trkpt>
      <trkpt lat="47.55137" lon="1.1437">
        <ele>105.65281443889</ele>
        <time>2022-04-28T19:14:16.246Z</time>
      </trkpt>
      <trkpt lat="47.55147" lon="1.14342">
        <ele>106.64510149993</ele>
        <time>2022-04-28T19:14:18.192Z</time>
      </trkpt>
      <trkpt lat="47.55159" lon="1.14305">
        <ele>107.75825164657</ele>
        <time>2022-04-28T19:14:20.143Z</time>
      </trkpt>
      <trkpt lat="47.55169" lon="1.14271">
        <ele>109.77839469889</ele>
        <time>2022-04-28T19:14:22.099Z</time>
      </trkpt>
      <trkpt lat="47.55192" lon="1.1419">
        <ele>110.92716692526</ele>
        <time>2022-04-28T19:14:24.067Z</time>
      </trkpt>
      <trkpt lat="47.55209" lon="1.14137">
        <ele>111.92302213421</ele>
        <time>2022-04-28T19:14:26.043Z</time>
      </trkpt>
      <trkpt lat="47.55223" lon="1.1409">
        <ele>112.88454769877</ele>
        <time>2022-04-28T19:14:28.026Z</time>
      </trkpt>
      <trkpt lat="47.55231" lon="1.14072">
        <ele>113.7695765485</ele>
        <time>2022-04-28T19:14:30.012Z</time>
      </trkpt>
      <trkpt lat="47.55233" lon="1.14045">
        <ele>114.67269974409</ele>
        <time>2022-04-28T19:14:32.002Z</time>
      </trkpt>
      <trkpt lat="47.55231" lon="1.13981">
        <ele>115.49299712716</ele>
        <time>2022-04-28T19:14:34.001Z</time>
      </trkpt>
      <trkpt lat="47.55217" lon="1.13893">
        <ele>116.33416662505</ele>
        <time>2022-04-28T19:14:36.012Z</time>
      </trkpt>
      <trkpt lat="47.55202" lon="1.13796">
        <ele>116.87611657017</ele>
        <time>2022-04-28T19:14:38.036Z</time>
      </trkpt>
      <trkpt lat="47.55199" lon="1.13785">
        <ele>117.47602800002</ele>
        <time>2022-04-28T19:14:40.062Z</time>
      </trkpt>
      <trkpt lat="47.55208" lon="1.1377">
        <ele>117.98027493846</ele>
        <time>2022-04-28T19:14:42.091Z</time>
      </trkpt>
      <trkpt lat="47.55222" lon="1.13745">
        <ele>118.43654186216</ele>
        <time>2022-04-28T19:14:44.124Z</time>
      </trkpt>
      <trkpt lat="47.55229" lon="1.13735">
        <ele>118.94248691866</ele>
        <time>2022-04-28T19:14:46.159Z</time>
      </trkpt>
      <trkpt lat="47.55247" lon="1.1371">
        <ele>119.46087414896</ele>
        <time>2022-04-28T19:14:48.199Z</time>
      </trkpt>
      <trkpt lat="47.55257" lon="1.1369">
        <ele>119.94611900826</ele>
        <time>2022-04-28T19:14:50.242Z</time>
      </trkpt>
      <trkpt lat="47.55272" lon="1.13661">
        <ele>120.80649886864</ele>
        <time>2022-04-28T19:14:52.290Z</time>
      </trkpt>
      <trkpt lat="47.55279" lon="1.13642">
        <ele>121.17746600482</ele>
        <time>2022-04-28T19:14:54.341Z</time>
      </trkpt>
      <trkpt lat="47.55283" lon="1.13619">
        <ele>121.5132619988</ele>
        <time>2022-04-28T19:14:56.395Z</time>
      </trkpt>
      <trkpt lat="47.55284" lon="1.1361">
        <ele>121.79635585262</ele>
        <time>2022-04-28T19:14:58.451Z</time>
      </trkpt>
      <trkpt lat="47.5529" lon="1.13599">
        <ele>122.05698161469</ele>
        <time>2022-04-28T19:15:00.508Z</time>
      </trkpt>
      <trkpt lat="47.55295" lon="1.13594">
        <ele>122.26990356219</ele>
        <time>2022-04-28T19:15:02.567Z</time>
      </trkpt>
      <trkpt lat="47.55307" lon="1.13589">
        <ele>122.47637752322</ele>
        <time>2022-04-28T19:15:04.628Z</time>
      </trkpt>
      <trkpt lat="47.5534" lon="1.13581">
        <ele>122.61754086274</ele>
        <time>2022-04-28T19:15:06.696Z</time>
      </trkpt>
      <trkpt lat="47.55346" lon="1.13579">
        <ele>122.75532969253</ele>
        <time>2022-04-28T19:15:08.765Z</time>
      </trkpt>
      <trkpt lat="47.55362" lon="1.1357">
        <ele>122.91015177593</ele>
        <time>2022-04-28T19:15:10.838Z</time>
      </trkpt>
      <trkpt lat="47.55363" lon="1.1357">
        <ele>122.94585333525</ele>
        <time>2022-04-28T19:15:12.911Z</time>
      </trkpt>
      <trkpt lat="47.55374" lon="1.13561">
        <ele>122.92727719978</ele>
        <time>2022-04-28T19:15:14.986Z</time>
      </trkpt>
      <trkpt lat="47.55382" lon="1.13555">
        <ele>122.84117489995</ele>
        <time>2022-04-28T19:15:17.063Z</time>
      </trkpt>
      <trkpt lat="47.55378" lon="1.13548">
        <ele>122.70064994687</ele>
        <time>2022-04-28T19:15:19.141Z</time>
      </trkpt>
      <trkpt lat="47.55368" lon="1.13534">
        <ele>122.5276441302</ele>
        <time>2022-04-28T19:15:21.222Z</time>
      </trkpt>
      <trkpt lat="47.55366" lon="1.13533">
        <ele>122.23317943214</ele>
        <time>2022-04-28T19:15:23.303Z</time>
      </trkpt>
      <trkpt lat="47.55366" lon="1.13532">
        <ele>121.87107243887</ele>
        <time>2022-04-28T19:15:25.385Z</time>
      </trkpt>
      <trkpt lat="47.55353" lon="1.13526">
        <ele>121.42108000871</ele>
        <time>2022-04-28T19:15:27.469Z</time>
      </trkpt>
      <trkpt lat="47.55341" lon="1.13523">
        <ele>120.88074214754</ele>
        <time>2022-04-28T19:15:29.556Z</time>
      </trkpt>
      <trkpt lat="47.55332" lon="1.13523">
        <ele>120.287152565</ele>
        <time>2022-04-28T19:15:31.645Z</time>
      </trkpt>
      <trkpt lat="47.55318" lon="1.13525">
        <ele>119.59545962086</ele>
        <time>2022-04-28T19:15:33.736Z</time>
      </trkpt>
      <trkpt lat="47.55294" lon="1.13534">
        <ele>118.81837541707</ele>
        <time>2022-04-28T19:15:35.832Z</time>
      </trkpt>
      <trkpt lat="47.55283" lon="1.13538">
        <ele>117.27980790395</ele>
        <time>2022-04-28T19:15:37.931Z</time>
      </trkpt>
      <trkpt lat="47.55263" lon="1.13544">
        <ele>116.44630529478</ele>
        <time>2022-04-28T19:15:40.034Z</time>
      </trkpt>
      <trkpt lat="47.55228" lon="1.13552">
        <ele>115.70992687067</ele>
        <time>2022-04-28T19:15:42.144Z</time>
      </trkpt>
      <trkpt lat="47.55227" lon="1.13545">
        <ele>114.85674987148</ele>
        <time>2022-04-28T19:15:44.255Z</time>
      </trkpt>
      <trkpt lat="47.55227" lon="1.13502">
        <ele>113.87205245899</ele>
        <time>2022-04-28T19:15:46.372Z</time>
      </trkpt>
      <trkpt lat="47.55223" lon="1.13465">
        <ele>112.85788711328</ele>
        <time>2022-04-28T19:15:48.494Z</time>
      </trkpt>
      <trkpt lat="47.5522" lon="1.1343">
        <ele>111.83988842871</ele>
        <time>2022-04-28T19:15:50.620Z</time>
      </trkpt>
      <trkpt lat="47.55216" lon="1.1341">
        <ele>110.91782745049</ele>
        <time>2022-04-28T19:15:52.749Z</time>
      </trkpt>
      <trkpt lat="47.55206" lon="1.13385">
        <ele>109.9466108188</ele>
        <time>2022-04-28T19:15:54.882Z</time>
      </trkpt>
      <trkpt lat="47.55202" lon="1.13377">
        <ele>109.17914711796</ele>
        <time>2022-04-28T19:15:57.016Z</time>
      </trkpt>
      <trkpt lat="47.55202" lon="1.13378">
        <ele>108.55900864342</ele>
        <time>2022-04-28T19:15:59.151Z</time>
      </trkpt>
      <trkpt lat="47.55188" lon="1.13352">
        <ele>107.82044548843</ele>
        <time>2022-04-28T19:16:01.290Z</time>
      </trkpt>
      <trkpt lat="47.5518" lon="1.13328">
        <ele>107.31716471648</ele>
        <time>2022-04-28T19:16:03.433Z</time>
      </trkpt>
      <trkpt lat="47.55173" lon="1.13288">
        <ele>106.98066965359</ele>
        <time>2022-04-28T19:16:05.581Z</time>
      </trkpt>
      <trkpt lat="47.55164" lon="1.13256">
        <ele>106.7977696727</ele>
        <time>2022-04-28T19:16:07.734Z</time>
      </trkpt>
      <trkpt lat="47.55154" lon="1.13206">
        <ele>106.69870325835</ele>
        <time>2022-04-28T19:16:09.894Z</time>
      </trkpt>
      <trkpt lat="47.55148" lon="1.13171">
        <ele>106.71703263642</ele>
        <time>2022-04-28T19:16:12.059Z</time>
      </trkpt>
      <trkpt lat="47.5514" lon="1.13101">
        <ele>106.91138224663</ele>
        <time>2022-04-28T19:16:14.234Z</time>
      </trkpt>
      <trkpt lat="47.55136" lon="1.13075">
        <ele>107.08687191535</ele>
        <time>2022-04-28T19:16:16.412Z</time>
      </trkpt>
      <trkpt lat="47.55125" lon="1.13034">
        <ele>107.26336401697</ele>
        <time>2022-04-28T19:16:18.596Z</time>
      </trkpt>
      <trkpt lat="47.55119" lon="1.13023">
        <ele>107.43353057358</ele>
        <time>2022-04-28T19:16:20.782Z</time>
      </trkpt>
      <trkpt lat="47.55106" lon="1.12999">
        <ele>107.90853820663</ele>
        <time>2022-04-28T19:16:22.972Z</time>
      </trkpt>
      <trkpt lat="47.55083" lon="1.12963">
        <ele>108.14046775679</ele>
        <time>2022-04-28T19:16:25.169Z</time>
      </trkpt>
      <trkpt lat="47.5505" lon="1.12878">
        <ele>108.34111553093</ele>
        <time>2022-04-28T19:16:27.379Z</time>
      </trkpt>
      <trkpt lat="47.5504" lon="1.12853">
        <ele>108.69859444808</ele>
        <time>2022-04-28T19:16:29.593Z</time>
      </trkpt>
      <trkpt lat="47.55033" lon="1.12829">
        <ele>109.08873882074</ele>
        <time>2022-04-28T19:16:31.811Z</time>
      </trkpt>
      <trkpt lat="47.55033" lon="1.12814">
        <ele>109.48234679997</ele>
        <time>2022-04-28T19:16:34.031Z</time>
      </trkpt>
      <trkpt lat="47.55036" lon="1.12802">
        <ele>109.87646103334</ele>
        <time>2022-04-28T19:16:36.253Z</time>
      </trkpt>
      <trkpt lat="47.55029" lon="1.12799">
        <ele>110.22406200763</ele>
        <time>2022-04-28T19:16:38.476Z</time>
      </trkpt>
      <trkpt lat="47.55021" lon="1.12793">
        <ele>110.58438153932</ele>
        <time>2022-04-28T19:16:40.701Z</time>
      </trkpt>
      <trkpt lat="47.54988" lon="1.12768">
        <ele>110.98570140168</ele>
        <time>2022-04-28T19:16:42.933Z</time>
      </trkpt>
      <trkpt lat="47.54941" lon="1.12725">
        <ele>111.40374281848</ele>
        <time>2022-04-28T19:16:45.176Z</time>
      </trkpt>
      <trkpt lat="47.54853" lon="1.1264">
        <ele>111.6971856489</ele>
        <time>2022-04-28T19:16:47.440Z</time>
      </trkpt>
      <trkpt lat="47.54815" lon="1.12603">
        <ele>111.89655690524</ele>
        <time>2022-04-28T19:16:49.713Z</time>
      </trkpt>
      <trkpt lat="47.54809" lon="1.12595">
        <ele>112.07056035548</ele>
        <time>2022-04-28T19:16:51.988Z</time>
      </trkpt>
      <trkpt lat="47.54792" lon="1.12572">
        <ele>112.24789799677</ele>
        <time>2022-04-28T19:16:54.268Z</time>
      </trkpt>
      <trkpt lat="47.54712" lon="1.1244">
        <ele>112.28967173034</ele>
        <time>2022-04-28T19:16:56.572Z</time>
      </trkpt>
      <trkpt lat="47.54706" lon="1.1243">
        <ele>112.28308544973</ele>
        <time>2022-04-28T19:16:58.877Z</time>
      </trkpt>
      <trkpt lat="47.54697" lon="1.12431">
        <ele>112.23204666798</ele>
        <time>2022-04-28T19:17:01.184Z</time>
      </trkpt>
      <trkpt lat="47.54665" lon="1.12436">
        <ele>112.06886667677</ele>
        <time>2022-04-28T19:17:03.498Z</time>
      </trkpt>
      <trkpt lat="47.5461" lon="1.12444">
        <ele>111.8887005899</ele>
        <time>2022-04-28T19:17:05.823Z</time>
      </trkpt>
      <trkpt lat="47.54589" lon="1.12458">
        <ele>111.72339275863</ele>
        <time>2022-04-28T19:17:08.152Z</time>
      </trkpt>
      <trkpt lat="47.54577" lon="1.12469">
        <ele>111.51246848504</ele>
        <time>2022-04-28T19:17:10.484Z</time>
      </trkpt>
      <trkpt lat="47.54564" lon="1.12492">
        <ele>111.29084978768</ele>
        <time>2022-04-28T19:17:12.820Z</time>
      </trkpt>
      <trkpt lat="47.54524" lon="1.12581">
        <ele>111.0030604068</ele>
        <time>2022-04-28T19:17:15.171Z</time>
      </trkpt>
      <trkpt lat="47.54491" lon="1.12665">
        <ele>110.74199914055</ele>
        <time>2022-04-28T19:17:17.535Z</time>
      </trkpt>
      <trkpt lat="47.54467" lon="1.12717">
        <ele>110.47060734867</ele>
        <time>2022-04-28T19:17:19.907Z</time>
      </trkpt>
      <trkpt lat="47.54449" lon="1.12751">
        <ele>110.15305485133</ele>
        <time>2022-04-28T19:17:22.285Z</time>
      </trkpt>
      <trkpt lat="47.54418" lon="1.12802">
        <ele>109.82241834909</ele>
        <time>2022-04-28T19:17:24.673Z</time>
      </trkpt>
      <trkpt lat="47.54388" lon="1.1286">
        <ele>109.47026664053</ele>
        <time>2022-04-28T19:17:27.070Z</time>
      </trkpt>
      <trkpt lat="47.5436" lon="1.12918">
        <ele>109.20677801729</ele>
        <time>2022-04-28T19:17:29.477Z</time>
      </trkpt>
      <trkpt lat="47.54346" lon="1.12943">
        <ele>108.89623889483</ele>
        <time>2022-04-28T19:17:31.888Z</time>
      </trkpt>
      <trkpt lat="47.54325" lon="1.12971">
        <ele>108.58633079788</ele>
        <time>2022-04-28T19:17:34.305Z</time>
      </trkpt>
      <trkpt lat="47.5426" lon="1.13043">
        <ele>108.26006281818</ele>
        <time>2022-04-28T19:17:36.738Z</time>
      </trkpt>
      <trkpt lat="47.54234" lon="1.13067">
        <ele>107.96331556958</ele>
        <time>2022-04-28T19:17:39.178Z</time>
      </trkpt>
      <trkpt lat="47.54207" lon="1.13091">
        <ele>107.49542349635</ele>
        <time>2022-04-28T19:17:41.624Z</time>
      </trkpt>
      <trkpt lat="47.54171" lon="1.13127">
        <ele>107.38433686143</ele>
        <time>2022-04-28T19:17:44.079Z</time>
      </trkpt>
      <trkpt lat="47.54153" lon="1.13151">
        <ele>107.21316702617</ele>
        <time>2022-04-28T19:17:46.538Z</time>
      </trkpt>
      <trkpt lat="47.54135" lon="1.13189">
        <ele>107.07252252479</ele>
        <time>2022-04-28T19:17:49.004Z</time>
      </trkpt>
      <trkpt lat="47.54103" lon="1.1324">
        <ele>107.00691281103</ele>
        <time>2022-04-28T19:17:51.479Z</time>
      </trkpt>
      <trkpt lat="47.54091" lon="1.13255">
        <ele>106.87167165536</ele>
        <time>2022-04-28T19:17:53.957Z</time>
      </trkpt>
      <trkpt lat="47.54088" lon="1.13258">
        <ele>106.69844431841</ele>
        <time>2022-04-28T19:17:56.436Z</time>
      </trkpt>
      <trkpt lat="47.54099" lon="1.13274">
        <ele>106.4750770432</ele>
        <time>2022-04-28T19:17:58.918Z</time>
      </trkpt>
      <trkpt lat="47.54122" lon="1.13313">
        <ele>106.1939466139</ele>
        <time>2022-04-28T19:18:01.407Z</time>
      </trkpt>
      <trkpt lat="47.54125" lon="1.1334">
        <ele>105.91539002127</ele>
        <time>2022-04-28T19:18:03.900Z</time>
      </trkpt>
      <trkpt lat="47.54131" lon="1.13375">
        <ele>105.59184169486</ele>
        <time>2022-04-28T19:18:06.398Z</time>
      </trkpt>
      <trkpt lat="47.54134" lon="1.13384">
        <ele>105.27401929724</ele>
        <time>2022-04-28T19:18:08.897Z</time>
      </trkpt>
      <trkpt lat="47.5415" lon="1.13405">
        <ele>104.92060012872</ele>
        <time>2022-04-28T19:18:11.400Z</time>
      </trkpt>
      <trkpt lat="47.54175" lon="1.13426">
        <ele>104.51987893012</ele>
        <time>2022-04-28T19:18:13.909Z</time>
      </trkpt>
      <trkpt lat="47.54178" lon="1.13433">
        <ele>104.10798959418</ele>
        <time>2022-04-28T19:18:16.419Z</time>
      </trkpt>
      <trkpt lat="47.5419" lon="1.13459">
        <ele>103.57683103531</ele>
        <time>2022-04-28T19:18:18.933Z</time>
      </trkpt>
      <trkpt lat="47.54185" lon="1.1349">
        <ele>103.09388155645</ele>
        <time>2022-04-28T19:18:21.452Z</time>
      </trkpt>
      <trkpt lat="47.54184" lon="1.13503">
        <ele>102.59128541554</ele>
        <time>2022-04-28T19:18:23.973Z</time>
      </trkpt>
      <trkpt lat="47.54176" lon="1.13574">
        <ele>101.59372346771</ele>
        <time>2022-04-28T19:18:26.503Z</time>
      </trkpt>
      <trkpt lat="47.54176" lon="1.13623">
        <ele>101.03574724775</ele>
        <time>2022-04-28T19:18:29.040Z</time>
      </trkpt>
      <trkpt lat="47.5418" lon="1.1369">
        <ele>100.42383030102</ele>
        <time>2022-04-28T19:18:31.586Z</time>
      </trkpt>
      <trkpt lat="47.54189" lon="1.13743">
        <ele>99.95011546392</ele>
        <time>2022-04-28T19:18:34.139Z</time>
      </trkpt>
      <trkpt lat="47.54203" lon="1.13783">
        <ele>99.384703431444</ele>
        <time>2022-04-28T19:18:36.699Z</time>
      </trkpt>
      <trkpt lat="47.54232" lon="1.13858">
        <ele>98.756445741023</ele>
        <time>2022-04-28T19:18:39.270Z</time>
      </trkpt>
      <trkpt lat="47.54241" lon="1.13881">
        <ele>98.172306014345</ele>
        <time>2022-04-28T19:18:41.845Z</time>
      </trkpt>
      <trkpt lat="47.54247" lon="1.13907">
        <ele>97.633298222829</ele>
        <time>2022-04-28T19:18:44.424Z</time>
      </trkpt>
      <trkpt lat="47.54248" lon="1.13946">
        <ele>97.074531030099</ele>
        <time>2022-04-28T19:18:47.008Z</time>
      </trkpt>
      <trkpt lat="47.54246" lon="1.13981">
        <ele>96.541744523331</ele>
        <time>2022-04-28T19:18:49.597Z</time>
      </trkpt>
      <trkpt lat="47.5424" lon="1.14012">
        <ele>96.087006702973</ele>
        <time>2022-04-28T19:18:52.190Z</time>
      </trkpt>
      <trkpt lat="47.54234" lon="1.14066">
        <ele>95.718956182789</ele>
        <time>2022-04-28T19:18:54.790Z</time>
      </trkpt>
      <trkpt lat="47.54232" lon="1.14144">
        <ele>95.380231693657</ele>
        <time>2022-04-28T19:18:57.401Z</time>
      </trkpt>
      <trkpt lat="47.54224" lon="1.142">
        <ele>95.137932377594</ele>
        <time>2022-04-28T19:19:00.020Z</time>
      </trkpt>
      <trkpt lat="47.54224" lon="1.1424">
        <ele>94.779184508529</ele>
        <time>2022-04-28T19:19:02.644Z</time>
      </trkpt>
      <trkpt lat="47.54228" lon="1.14278">
        <ele>94.345287409125</ele>
        <time>2022-04-28T19:19:05.273Z</time>
      </trkpt>
      <trkpt lat="47.54222" lon="1.14328">
        <ele>93.920159020417</ele>
        <time>2022-04-28T19:19:07.909Z</time>
      </trkpt>
      <trkpt lat="47.54221" lon="1.14333">
        <ele>93.91534994946</ele>
        <time>2022-04-28T19:19:10.546Z</time>
      </trkpt>
      <trkpt lat="47.54215" lon="1.14344">
        <ele>94.002679201942</ele>
        <time>2022-04-28T19:19:13.185Z</time>
      </trkpt>
      <trkpt lat="47.54209" lon="1.1435">
        <ele>94.174786282397</ele>
        <time>2022-04-28T19:19:15.825Z</time>
      </trkpt>
      <trkpt lat="47.54193" lon="1.14362">
        <ele>94.519184107397</ele>
        <time>2022-04-28T19:19:18.469Z</time>
      </trkpt>
      <trkpt lat="47.5417" lon="1.14377">
        <ele>95.058336370798</ele>
        <time>2022-04-28T19:19:21.118Z</time>
      </trkpt>
      <trkpt lat="47.5416" lon="1.14383">
        <ele>96.104723610382</ele>
        <time>2022-04-28T19:19:23.769Z</time>
      </trkpt>
      <trkpt lat="47.54135" lon="1.14403">
        <ele>96.88965075006</ele>
        <time>2022-04-28T19:19:26.426Z</time>
      </trkpt>
      <trkpt lat="47.54084" lon="1.14455">
        <ele>98.037075603305</ele>
        <time>2022-04-28T19:19:29.095Z</time>
      </trkpt>
      <trkpt lat="47.54075" lon="1.14464">
        <ele>98.67498385048</ele>
        <time>2022-04-28T19:19:31.766Z</time>
      </trkpt>
      <trkpt lat="47.54069" lon="1.14468">
        <ele>99.280126571007</ele>
        <time>2022-04-28T19:19:34.439Z</time>
      </trkpt>
      <trkpt lat="47.54051" lon="1.14475">
        <ele>99.890093680358</ele>
        <time>2022-04-28T19:19:37.115Z</time>
      </trkpt>
      <trkpt lat="47.54013" lon="1.14492">
        <ele>100.43464475292</ele>
        <time>2022-04-28T19:19:39.799Z</time>
      </trkpt>
      <trkpt lat="47.54" lon="1.14501">
        <ele>100.92565397923</ele>
        <time>2022-04-28T19:19:42.486Z</time>
      </trkpt>
      <trkpt lat="47.54003" lon="1.14506">
        <ele>101.37559513623</ele>
        <time>2022-04-28T19:19:45.174Z</time>
      </trkpt>
      <trkpt lat="47.54023" lon="1.14551">
        <ele>101.76573440119</ele>
        <time>2022-04-28T19:19:47.869Z</time>
      </trkpt>
      <trkpt lat="47.54046" lon="1.14593">
        <ele>102.0590841054</ele>
        <time>2022-04-28T19:19:50.572Z</time>
      </trkpt>
      <trkpt lat="47.54074" lon="1.14641">
        <ele>102.22604041282</ele>
        <time>2022-04-28T19:19:53.283Z</time>
      </trkpt>
      <trkpt lat="47.54095" lon="1.14671">
        <ele>102.44957304774</ele>
        <time>2022-04-28T19:19:56.000Z</time>
      </trkpt>
      <trkpt lat="47.54106" lon="1.14692">
        <ele>102.61393216791</ele>
        <time>2022-04-28T19:19:58.721Z</time>
      </trkpt>
      <trkpt lat="47.54121" lon="1.1473">
        <ele>102.67257380853</ele>
        <time>2022-04-28T19:20:01.448Z</time>
      </trkpt>
      <trkpt lat="47.54149" lon="1.14774">
        <ele>102.69689573916</ele>
        <time>2022-04-28T19:20:04.183Z</time>
      </trkpt>
      <trkpt lat="47.54162" lon="1.14795">
        <ele>102.82221396709</ele>
        <time>2022-04-28T19:20:06.922Z</time>
      </trkpt>
      <trkpt lat="47.54153" lon="1.14795">
        <ele>102.88879250237</ele>
        <time>2022-04-28T19:20:09.663Z</time>
      </trkpt>
      <trkpt lat="47.54137" lon="1.14802">
        <ele>102.97205477661</ele>
        <time>2022-04-28T19:20:12.407Z</time>
      </trkpt>
      <trkpt lat="47.54114" lon="1.14822">
        <ele>103.09147220229</ele>
        <time>2022-04-28T19:20:15.156Z</time>
      </trkpt>
      <trkpt lat="47.54101" lon="1.14839">
        <ele>103.12020312822</ele>
        <time>2022-04-28T19:20:17.909Z</time>
      </trkpt>
      <trkpt lat="47.54067" lon="1.14884">
        <ele>103.2465761495</ele>
        <time>2022-04-28T19:20:20.671Z</time>
      </trkpt>
      <trkpt lat="47.54087" lon="1.14933">
        <ele>103.32760903434</ele>
        <time>2022-04-28T19:20:23.441Z</time>
      </trkpt>
      <trkpt lat="47.54098" lon="1.14963">
        <ele>103.38916999431</ele>
        <time>2022-04-28T19:20:26.215Z</time>
      </trkpt>
      <trkpt lat="47.54197" lon="1.15237">
        <ele>103.51383106544</ele>
        <time>2022-04-28T19:20:29.031Z</time>
      </trkpt>
      <trkpt lat="47.54236" lon="1.15356">
        <ele>103.34242440764</ele>
        <time>2022-04-28T19:20:31.865Z</time>
      </trkpt>
      <trkpt lat="47.54245" lon="1.15391">
        <ele>103.38561453889</ele>
        <time>2022-04-28T19:20:34.704Z</time>
      </trkpt>
      <trkpt lat="47.54255" lon="1.15431">
        <ele>103.5811549099</ele>
        <time>2022-04-28T19:20:37.549Z</time>
      </trkpt>
      <trkpt lat="47.54275" lon="1.15533">
        <ele>103.70690388136</ele>
        <time>2022-04-28T19:20:40.409Z</time>
      </trkpt>
      <trkpt lat="47.54285" lon="1.15601">
        <ele>103.86926122345</ele>
        <time>2022-04-28T19:20:43.278Z</time>
      </trkpt>
      <trkpt lat="47.54286" lon="1.15608">
        <ele>104.14348057081</ele>
        <time>2022-04-28T19:20:46.148Z</time>
      </trkpt>
      <trkpt lat="47.54285" lon="1.1561">
        <ele>104.47211860016</ele>
        <time>2022-04-28T19:20:49.018Z</time>
      </trkpt>
      <trkpt lat="47.54281" lon="1.15611">
        <ele>104.85564805197</ele>
        <time>2022-04-28T19:20:51.889Z</time>
      </trkpt>
      <trkpt lat="47.54288" lon="1.15622">
        <ele>105.32519627397</ele>
        <time>2022-04-28T19:20:54.762Z</time>
      </trkpt>
      <trkpt lat="47.54296" lon="1.15643">
        <ele>105.88778861038</ele>
        <time>2022-04-28T19:20:57.638Z</time>
      </trkpt>
      <trkpt lat="47.54301" lon="1.1566">
        <ele>106.48535428603</ele>
        <time>2022-04-28T19:21:00.517Z</time>
      </trkpt>
      <trkpt lat="47.54311" lon="1.15706">
        <ele>107.0955060095</ele>
        <time>2022-04-28T19:21:03.402Z</time>
      </trkpt>
      <trkpt lat="47.54318" lon="1.1575">
        <ele>107.81365694998</ele>
        <time>2022-04-28T19:21:06.294Z</time>
      </trkpt>
      <trkpt lat="47.54317" lon="1.15795">
        <ele>108.56763867855</ele>
        <time>2022-04-28T19:21:09.192Z</time>
      </trkpt>
      <trkpt lat="47.54321" lon="1.15848">
        <ele>109.41115435977</ele>
        <time>2022-04-28T19:21:12.097Z</time>
      </trkpt>
      <trkpt lat="47.54326" lon="1.159">
        <ele>110.31667277797</ele>
        <time>2022-04-28T19:21:15.009Z</time>
      </trkpt>
      <trkpt lat="47.54342" lon="1.16036">
        <ele>111.55308508073</ele>
        <time>2022-04-28T19:21:17.940Z</time>
      </trkpt>
      <trkpt lat="47.54346" lon="1.16063">
        <ele>112.31492027906</ele>
        <time>2022-04-28T19:21:20.874Z</time>
      </trkpt>
      <trkpt lat="47.54348" lon="1.16074">
        <ele>113.04316033641</ele>
        <time>2022-04-28T19:21:23.810Z</time>
      </trkpt>
      <trkpt lat="47.54352" lon="1.16095">
        <ele>114.42604297096</ele>
        <time>2022-04-28T19:21:26.749Z</time>
      </trkpt>
      <trkpt lat="47.54336" lon="1.16134">
        <ele>115.17024219993</ele>
        <time>2022-04-28T19:21:29.694Z</time>
      </trkpt>
      <trkpt lat="47.54333" lon="1.16145">
        <ele>115.72756256386</ele>
        <time>2022-04-28T19:21:32.641Z</time>
      </trkpt>
      <trkpt lat="47.54329" lon="1.16226">
        <ele>116.27692489932</ele>
        <time>2022-04-28T19:21:35.599Z</time>
      </trkpt>
      <trkpt lat="47.54328" lon="1.16241">
        <ele>117.04986918896</ele>
        <time>2022-04-28T19:21:38.559Z</time>
      </trkpt>
      <trkpt lat="47.54326" lon="1.16284">
        <ele>117.36433718755</ele>
        <time>2022-04-28T19:21:41.525Z</time>
      </trkpt>
      <trkpt lat="47.54324" lon="1.16303">
        <ele>117.60226810982</ele>
        <time>2022-04-28T19:21:44.493Z</time>
      </trkpt>
      <trkpt lat="47.54318" lon="1.16358">
        <ele>117.84131726329</ele>
        <time>2022-04-28T19:21:47.469Z</time>
      </trkpt>
      <trkpt lat="47.54317" lon="1.16358">
        <ele>117.8661707149</ele>
        <time>2022-04-28T19:21:50.445Z</time>
      </trkpt>
      <trkpt lat="47.54308" lon="1.16433">
        <ele>117.78120306053</ele>
        <time>2022-04-28T19:21:53.431Z</time>
      </trkpt>
      <trkpt lat="47.543" lon="1.16447">
        <ele>117.67654591998</ele>
        <time>2022-04-28T19:21:56.420Z</time>
      </trkpt>
      <trkpt lat="47.54274" lon="1.16488">
        <ele>117.37002567363</ele>
        <time>2022-04-28T19:21:59.416Z</time>
      </trkpt>
      <trkpt lat="47.54268" lon="1.16494">
        <ele>117.20271525963</ele>
        <time>2022-04-28T19:22:02.414Z</time>
      </trkpt>
      <trkpt lat="47.54258" lon="1.16506">
        <ele>116.98030777596</ele>
        <time>2022-04-28T19:22:05.414Z</time>
      </trkpt>
      <trkpt lat="47.54263" lon="1.1651">
        <ele>116.89487409392</ele>
        <time>2022-04-28T19:22:08.416Z</time>
      </trkpt>
      <trkpt lat="47.54257" lon="1.16522">
        <ele>116.72594009736</ele>
        <time>2022-04-28T19:22:11.420Z</time>
      </trkpt>
      <trkpt lat="47.54263" lon="1.16554">
        <ele>116.64622527233</ele>
        <time>2022-04-28T19:22:14.428Z</time>
      </trkpt>
      <trkpt lat="47.54283" lon="1.16654">
        <ele>116.71623110328</ele>
        <time>2022-04-28T19:22:17.450Z</time>
      </trkpt>
      <trkpt lat="47.54288" lon="1.1665">
        <ele>116.71001929493</ele>
        <time>2022-04-28T19:22:20.473Z</time>
      </trkpt>
      <trkpt lat="47.54346" lon="1.16604">
        <ele>117.03944949811</ele>
        <time>2022-04-28T19:22:23.510Z</time>
      </trkpt>
      <trkpt lat="47.54358" lon="1.16592">
        <ele>117.10430191506</ele>
        <time>2022-04-28T19:22:26.549Z</time>
      </trkpt>
      <trkpt lat="47.54364" lon="1.16581">
        <ele>117.16217683074</ele>
        <time>2022-04-28T19:22:29.590Z</time>
      </trkpt>
      <trkpt lat="47.54368" lon="1.16574">
        <ele>117.21672921753</ele>
        <time>2022-04-28T19:22:32.633Z</time>
      </trkpt>
      <trkpt lat="47.54367" lon="1.16589">
        <ele>117.27398454838</ele>
        <time>2022-04-28T19:22:35.678Z</time>
      </trkpt>
      <trkpt lat="47.54363" lon="1.16627">
        <ele>117.33237116711</ele>
        <time>2022-04-28T19:22:38.728Z</time>
      </trkpt>
      <trkpt lat="47.54361" lon="1.16653">
        <ele>117.37907060575</ele>
        <time>2022-04-28T19:22:41.781Z</time>
      </trkpt>
      <trkpt lat="47.54359" lon="1.1668">
        <ele>117.41872299954</ele>
        <time>2022-04-28T19:22:44.838Z</time>
      </trkpt>
      <trkpt lat="47.54364" lon="1.16705">
        <ele>117.48404516768</ele>
        <time>2022-04-28T19:22:47.899Z</time>
      </trkpt>
      <trkpt lat="47.54368" lon="1.16725">
        <ele>117.5411432787</ele>
        <time>2022-04-28T19:22:50.962Z</time>
      </trkpt>
      <trkpt lat="47.54376" lon="1.16783">
        <ele>117.60937747892</ele>
        <time>2022-04-28T19:22:54.033Z</time>
      </trkpt>
      <trkpt lat="47.54385" lon="1.16869">
        <ele>117.52467164811</ele>
        <time>2022-04-28T19:22:57.116Z</time>
      </trkpt>
      <trkpt lat="47.54394" lon="1.16917">
        <ele>117.43827331512</ele>
        <time>2022-04-28T19:23:00.206Z</time>
      </trkpt>
      <trkpt lat="47.54398" lon="1.16939">
        <ele>117.31598404261</ele>
        <time>2022-04-28T19:23:03.299Z</time>
      </trkpt>
      <trkpt lat="47.54405" lon="1.16973">
        <ele>117.23849629569</ele>
        <time>2022-04-28T19:23:06.397Z</time>
      </trkpt>
      <trkpt lat="47.54412" lon="1.17016">
        <ele>117.1632968174</ele>
        <time>2022-04-28T19:23:09.501Z</time>
      </trkpt>
      <trkpt lat="47.54412" lon="1.17028">
        <ele>117.081906317</ele>
        <time>2022-04-28T19:23:12.607Z</time>
      </trkpt>
      <trkpt lat="47.54425" lon="1.17047">
        <ele>117.11374906636</ele>
        <time>2022-04-28T19:23:15.716Z</time>
      </trkpt>
      <trkpt lat="47.5444" lon="1.17069">
        <ele>117.08699796481</ele>
        <time>2022-04-28T19:23:18.829Z</time>
      </trkpt>
      <trkpt lat="47.54454" lon="1.17073">
        <ele>117.03121739875</ele>
        <time>2022-04-28T19:23:21.945Z</time>
      </trkpt>
      <trkpt lat="47.54465" lon="1.17069">
        <ele>116.93311190248</ele>
        <time>2022-04-28T19:23:25.064Z</time>
      </trkpt>
      <trkpt lat="47.54484" lon="1.17086">
        <ele>116.78044167595</ele>
        <time>2022-04-28T19:23:28.187Z</time>
      </trkpt>
      <trkpt lat="47.54513" lon="1.17115">
        <ele>116.52680760062</ele>
        <time>2022-04-28T19:23:31.317Z</time>
      </trkpt>
      <trkpt lat="47.54526" lon="1.17128">
        <ele>116.25142463052</ele>
        <time>2022-04-28T19:23:34.450Z</time>
      </trkpt>
      <trkpt lat="47.54571" lon="1.17179">
        <ele>115.87317306612</ele>
        <time>2022-04-28T19:23:37.594Z</time>
      </trkpt>
      <trkpt lat="47.54641" lon="1.17263">
        <ele>115.51598564282</ele>
        <time>2022-04-28T19:23:40.757Z</time>
      </trkpt>
      <trkpt lat="47.54651" lon="1.17277">
        <ele>115.25003897831</ele>
        <time>2022-04-28T19:23:43.922Z</time>
      </trkpt>
      <trkpt lat="47.54663" lon="1.17304">
        <ele>114.96185916087</ele>
        <time>2022-04-28T19:23:47.092Z</time>
      </trkpt>
      <trkpt lat="47.54669" lon="1.17318">
        <ele>114.51972014784</ele>
        <time>2022-04-28T19:23:50.264Z</time>
      </trkpt>
      <trkpt lat="47.54678" lon="1.17332">
        <ele>114.32320248971</ele>
        <time>2022-04-28T19:23:53.439Z</time>
      </trkpt>
      <trkpt lat="47.54687" lon="1.17342">
        <ele>114.14677785142</ele>
        <time>2022-04-28T19:23:56.616Z</time>
      </trkpt>
      <trkpt lat="47.54727" lon="1.17397">
        <ele>114.07193449928</ele>
        <time>2022-04-28T19:23:59.804Z</time>
      </trkpt>
      <trkpt lat="47.54741" lon="1.17415">
        <ele>114.0323137469</ele>
        <time>2022-04-28T19:24:02.995Z</time>
      </trkpt>
      <trkpt lat="47.54745" lon="1.17461">
        <ele>114.02378846082</ele>
        <time>2022-04-28T19:24:06.193Z</time>
      </trkpt>
      <trkpt lat="47.54744" lon="1.17483">
        <ele>113.97338331895</ele>
        <time>2022-04-28T19:24:09.394Z</time>
      </trkpt>
      <trkpt lat="47.54741" lon="1.17494">
        <ele>113.93171489484</ele>
        <time>2022-04-28T19:24:12.596Z</time>
      </trkpt>
      <trkpt lat="47.54745" lon="1.17502">
        <ele>113.95312711106</ele>
        <time>2022-04-28T19:24:15.800Z</time>
      </trkpt>
      <trkpt lat="47.5476" lon="1.17543">
        <ele>113.98501073857</ele>
        <time>2022-04-28T19:24:19.010Z</time>
      </trkpt>
      <trkpt lat="47.54778" lon="1.17581">
        <ele>114.06383565067</ele>
        <time>2022-04-28T19:24:22.226Z</time>
      </trkpt>
      <trkpt lat="47.5479" lon="1.17601">
        <ele>114.24111695216</ele>
        <time>2022-04-28T19:24:25.446Z</time>
      </trkpt>
      <trkpt lat="47.54784" lon="1.17654">
        <ele>114.28989021122</ele>
        <time>2022-04-28T19:24:28.673Z</time>
      </trkpt>
      <trkpt lat="47.54779" lon="1.17725">
        <ele>114.24973313892</ele>
        <time>2022-04-28T19:24:31.910Z</time>
      </trkpt>
      <trkpt lat="47.54778" lon="1.17733">
        <ele>114.63606935689</ele>
        <time>2022-04-28T19:24:35.148Z</time>
      </trkpt>
      <trkpt lat="47.54773" lon="1.17778">
        <ele>114.82394466948</ele>
        <time>2022-04-28T19:24:38.392Z</time>
      </trkpt>
      <trkpt lat="47.54767" lon="1.17818">
        <ele>115.1504068966</ele>
        <time>2022-04-28T19:24:41.642Z</time>
      </trkpt>
      <trkpt lat="47.5478" lon="1.17845">
        <ele>115.60823571912</ele>
        <time>2022-04-28T19:24:44.896Z</time>
      </trkpt>
      <trkpt lat="47.54802" lon="1.17882">
        <ele>116.13818565407</ele>
        <time>2022-04-28T19:24:48.157Z</time>
      </trkpt>
      <trkpt lat="47.5482" lon="1.17917">
        <ele>116.48271609746</ele>
        <time>2022-04-28T19:24:51.424Z</time>
      </trkpt>
      <trkpt lat="47.54842" lon="1.17977">
        <ele>116.55579770224</ele>
        <time>2022-04-28T19:24:54.700Z</time>
      </trkpt>
      <trkpt lat="47.54845" lon="1.17985">
        <ele>116.80156589789</ele>
        <time>2022-04-28T19:24:57.977Z</time>
      </trkpt>
      <trkpt lat="47.54849" lon="1.17998">
        <ele>117.03279720119</ele>
        <time>2022-04-28T19:25:01.256Z</time>
      </trkpt>
      <trkpt lat="47.54857" lon="1.18043">
        <ele>117.31582456487</ele>
        <time>2022-04-28T19:25:04.541Z</time>
      </trkpt>
      <trkpt lat="47.5486" lon="1.18096">
        <ele>117.60439504727</ele>
        <time>2022-04-28T19:25:07.834Z</time>
      </trkpt>
      <trkpt lat="47.54871" lon="1.18147">
        <ele>117.82843002846</ele>
        <time>2022-04-28T19:25:11.134Z</time>
      </trkpt>
      <trkpt lat="47.54877" lon="1.18172">
        <ele>117.95846174662</ele>
        <time>2022-04-28T19:25:14.438Z</time>
      </trkpt>
      <trkpt lat="47.5488" lon="1.18181">
        <ele>118.00836391896</ele>
        <time>2022-04-28T19:25:17.743Z</time>
      </trkpt>
      <trkpt lat="47.54885" lon="1.18196">
        <ele>117.89795813804</ele>
        <time>2022-04-28T19:25:21.050Z</time>
      </trkpt>
      <trkpt lat="47.54898" lon="1.18229">
        <ele>117.77585377079</ele>
        <time>2022-04-28T19:25:24.362Z</time>
      </trkpt>
      <trkpt lat="47.54911" lon="1.18265">
        <ele>117.55475586249</ele>
        <time>2022-04-28T19:25:27.680Z</time>
      </trkpt>
      <trkpt lat="47.5493" lon="1.18326">
        <ele>117.21506193399</ele>
        <time>2022-04-28T19:25:31.007Z</time>
      </trkpt>
      <trkpt lat="47.54964" lon="1.18404">
        <ele>116.60865492487</ele>
        <time>2022-04-28T19:25:34.347Z</time>
      </trkpt>
      <trkpt lat="47.54967" lon="1.18417">
        <ele>116.08143845487</ele>
        <time>2022-04-28T19:25:37.688Z</time>
      </trkpt>
      <trkpt lat="47.54975" lon="1.18432">
        <ele>115.51950643347</ele>
        <time>2022-04-28T19:25:41.032Z</time>
      </trkpt>
      <trkpt lat="47.54978" lon="1.1844">
        <ele>114.91922466829</ele>
        <time>2022-04-28T19:25:44.377Z</time>
      </trkpt>
      <trkpt lat="47.55048" lon="1.18639">
        <ele>114.04882975227</ele>
        <time>2022-04-28T19:25:47.753Z</time>
      </trkpt>
      <trkpt lat="47.55081" lon="1.18733">
        <ele>113.31883428115</ele>
        <time>2022-04-28T19:25:51.143Z</time>
      </trkpt>
      <trkpt lat="47.55094" lon="1.18762">
        <ele>112.57268804397</ele>
        <time>2022-04-28T19:25:54.538Z</time>
      </trkpt>
      <trkpt lat="47.55099" lon="1.18771">
        <ele>111.89191418091</ele>
        <time>2022-04-28T19:25:57.934Z</time>
      </trkpt>
      <trkpt lat="47.55103" lon="1.18772">
        <ele>111.25490096485</ele>
        <time>2022-04-28T19:26:01.331Z</time>
      </trkpt>
      <trkpt lat="47.55103" lon="1.1878">
        <ele>110.62276974001</ele>
        <time>2022-04-28T19:26:04.729Z</time>
      </trkpt>
      <trkpt lat="47.55117" lon="1.18812">
        <ele>109.96683569602</ele>
        <time>2022-04-28T19:26:08.132Z</time>
      </trkpt>
      <trkpt lat="47.5514" lon="1.18862">
        <ele>109.38708629356</ele>
        <time>2022-04-28T19:26:11.543Z</time>
      </trkpt>
      <trkpt lat="47.55163" lon="1.18913">
        <ele>108.82652219513</ele>
        <time>2022-04-28T19:26:14.963Z</time>
      </trkpt>
      <trkpt lat="47.5518" lon="1.18944">
        <ele>108.34879525419</ele>
        <time>2022-04-28T19:26:18.388Z</time>
      </trkpt>
      <trkpt lat="47.55194" lon="1.18962">
        <ele>107.93003446404</ele>
        <time>2022-04-28T19:26:21.817Z</time>
      </trkpt>
      <trkpt lat="47.55214" lon="1.18982">
        <ele>107.5993053522</ele>
        <time>2022-04-28T19:26:25.251Z</time>
      </trkpt>
      <trkpt lat="47.5524" lon="1.19008">
        <ele>107.29936215146</ele>
        <time>2022-04-28T19:26:28.691Z</time>
      </trkpt>
      <trkpt lat="47.5526" lon="1.19053">
        <ele>106.9799388436</ele>
        <time>2022-04-28T19:26:32.138Z</time>
      </trkpt>
      <trkpt lat="47.55279" lon="1.19099">
        <ele>106.85138955896</ele>
        <time>2022-04-28T19:26:35.593Z</time>
      </trkpt>
      <trkpt lat="47.55355" lon="1.19262">
        <ele>106.83845967968</ele>
        <time>2022-04-28T19:26:39.074Z</time>
      </trkpt>
      <trkpt lat="47.5537" lon="1.19303">
        <ele>106.69154139242</ele>
        <time>2022-04-28T19:26:42.562Z</time>
      </trkpt>
      <trkpt lat="47.55442" lon="1.19495">
        <ele>106.23953083727</ele>
        <time>2022-04-28T19:26:46.079Z</time>
      </trkpt>
      <trkpt lat="47.55456" lon="1.19534">
        <ele>106.12954131053</ele>
        <time>2022-04-28T19:26:49.602Z</time>
      </trkpt>
      <trkpt lat="47.5546" lon="1.19542">
        <ele>106.10056677076</ele>
        <time>2022-04-28T19:26:53.127Z</time>
      </trkpt>
      <trkpt lat="47.55468" lon="1.19538">
        <ele>106.12397336255</ele>
        <time>2022-04-28T19:26:56.653Z</time>
      </trkpt>
      <trkpt lat="47.55477" lon="1.19533">
        <ele>106.18684684925</ele>
        <time>2022-04-28T19:27:00.181Z</time>
      </trkpt>
      <trkpt lat="47.55514" lon="1.19511">
        <ele>106.41296400399</ele>
        <time>2022-04-28T19:27:03.717Z</time>
      </trkpt>
      <trkpt lat="47.55548" lon="1.19489">
        <ele>106.60775227621</ele>
        <time>2022-04-28T19:27:07.261Z</time>
      </trkpt>
      <trkpt lat="47.55566" lon="1.19475">
        <ele>106.7685504784</ele>
        <time>2022-04-28T19:27:10.809Z</time>
      </trkpt>
      <trkpt lat="47.55582" lon="1.19468">
        <ele>106.92503964445</ele>
        <time>2022-04-28T19:27:14.360Z</time>
      </trkpt>
      <trkpt lat="47.55611" lon="1.19455">
        <ele>107.02600232739</ele>
        <time>2022-04-28T19:27:17.917Z</time>
      </trkpt>
      <trkpt lat="47.55626" lon="1.19449">
        <ele>107.20166119978</ele>
        <time>2022-04-28T19:27:21.477Z</time>
      </trkpt>
      <trkpt lat="47.55681" lon="1.19428">
        <ele>107.41362285158</ele>
        <time>2022-04-28T19:27:25.049Z</time>
      </trkpt>
      <trkpt lat="47.55705" lon="1.19424">
        <ele>107.5146769756</ele>
        <time>2022-04-28T19:27:28.626Z</time>
      </trkpt>
      <trkpt lat="47.55726" lon="1.19423">
        <ele>107.65788388232</ele>
        <time>2022-04-28T19:27:32.207Z</time>
      </trkpt>
      <trkpt lat="47.55752" lon="1.19423">
        <ele>107.86092487397</ele>
        <time>2022-04-28T19:27:35.793Z</time>
      </trkpt>
      <trkpt lat="47.55757" lon="1.19421">
        <ele>107.9764461043</ele>
        <time>2022-04-28T19:27:39.380Z</time>
      </trkpt>
      <trkpt lat="47.55761" lon="1.19437">
        <ele>108.0710468159</ele>
        <time>2022-04-28T19:27:42.969Z</time>
      </trkpt>
      <trkpt lat="47.55772" lon="1.19481">
        <ele>108.15905935626</ele>
        <time>2022-04-28T19:27:46.565Z</time>
      </trkpt>
      <trkpt lat="47.55778" lon="1.19478">
        <ele>108.21224413578</ele>
        <time>2022-04-28T19:27:50.162Z</time>
      </trkpt>
      <trkpt lat="47.55792" lon="1.19473">
        <ele>108.20252192103</ele>
        <time>2022-04-28T19:27:53.762Z</time>
      </trkpt>
      <trkpt lat="47.55798" lon="1.19472">
        <ele>108.17706116264</ele>
        <time>2022-04-28T19:27:57.363Z</time>
      </trkpt>
      <trkpt lat="47.55817" lon="1.19464">
        <ele>108.09640307294</ele>
        <time>2022-04-28T19:28:00.968Z</time>
      </trkpt>
      <trkpt lat="47.55833" lon="1.19459">
        <ele>108.00099924397</ele>
        <time>2022-04-28T19:28:04.576Z</time>
      </trkpt>
      <trkpt lat="47.55864" lon="1.19442">
        <ele>107.95359111493</ele>
        <time>2022-04-28T19:28:08.191Z</time>
      </trkpt>
      <trkpt lat="47.55885" lon="1.19433">
        <ele>107.83496326844</ele>
        <time>2022-04-28T19:28:11.810Z</time>
      </trkpt>
      <trkpt lat="47.55907" lon="1.19427">
        <ele>107.6514547261</ele>
        <time>2022-04-28T19:28:15.434Z</time>
      </trkpt>
      <trkpt lat="47.5596" lon="1.19416">
        <ele>107.52567647165</ele>
        <time>2022-04-28T19:28:19.068Z</time>
      </trkpt>
      <trkpt lat="47.5598" lon="1.19414">
        <ele>107.36042096679</ele>
        <time>2022-04-28T19:28:22.707Z</time>
      </trkpt>
      <trkpt lat="47.55991" lon="1.19414">
        <ele>107.13715359857</ele>
        <time>2022-04-28T19:28:26.348Z</time>
      </trkpt>
      <trkpt lat="47.56003" lon="1.19415">
        <ele>106.88720809766</ele>
        <time>2022-04-28T19:28:29.991Z</time>
      </trkpt>
      <trkpt lat="47.56025" lon="1.19412">
        <ele>106.5832266579</ele>
        <time>2022-04-28T19:28:33.639Z</time>
      </trkpt>
      <trkpt lat="47.56043" lon="1.19406">
        <ele>106.2756877325</ele>
        <time>2022-04-28T19:28:37.290Z</time>
      </trkpt>
      <trkpt lat="47.56065" lon="1.19396">
        <ele>105.92600309939</ele>
        <time>2022-04-28T19:28:40.946Z</time>
      </trkpt>
      <trkpt lat="47.561" lon="1.19377">
        <ele>105.61807890121</ele>
        <time>2022-04-28T19:28:44.609Z</time>
      </trkpt>
      <trkpt lat="47.56106" lon="1.19372">
        <ele>105.33906933494</ele>
        <time>2022-04-28T19:28:48.274Z</time>
      </trkpt>
      <trkpt lat="47.5611" lon="1.1941">
        <ele>104.98281953571</ele>
        <time>2022-04-28T19:28:51.944Z</time>
      </trkpt>
      <trkpt lat="47.56116" lon="1.19481">
        <ele>104.62659193301</ele>
        <time>2022-04-28T19:28:55.624Z</time>
      </trkpt>
      <trkpt lat="47.56122" lon="1.19547">
        <ele>104.44110591395</ele>
        <time>2022-04-28T19:28:59.313Z</time>
      </trkpt>
      <trkpt lat="47.56122" lon="1.19548">
        <ele>104.03434019052</ele>
        <time>2022-04-28T19:29:03.002Z</time>
      </trkpt>
      <trkpt lat="47.56128" lon="1.19582">
        <ele>103.83790369252</ele>
        <time>2022-04-28T19:29:06.695Z</time>
      </trkpt>
      <trkpt lat="47.56134" lon="1.19608">
        <ele>103.66378849905</ele>
        <time>2022-04-28T19:29:10.392Z</time>
      </trkpt>
      <trkpt lat="47.56142" lon="1.19627">
        <ele>103.54111729513</ele>
        <time>2022-04-28T19:29:14.092Z</time>
      </trkpt>
      <trkpt lat="47.56165" lon="1.19665">
        <ele>103.46563302478</ele>
        <time>2022-04-28T19:29:17.799Z</time>
      </trkpt>
      <trkpt lat="47.56194" lon="1.19708">
        <ele>103.56943358701</ele>
        <time>2022-04-28T19:29:21.514Z</time>
      </trkpt>
      <trkpt lat="47.56198" lon="1.197">
        <ele>103.60826960064</ele>
        <time>2022-04-28T19:29:25.231Z</time>
      </trkpt>
      <trkpt lat="47.56217" lon="1.19669">
        <ele>103.72204304896</ele>
        <time>2022-04-28T19:29:28.953Z</time>
      </trkpt>
      <trkpt lat="47.56231" lon="1.19647">
        <ele>103.86812323179</ele>
        <time>2022-04-28T19:29:32.679Z</time>
      </trkpt>
      <trkpt lat="47.5624" lon="1.19632">
        <ele>104.06470209334</ele>
        <time>2022-04-28T19:29:36.408Z</time>
      </trkpt>
      <trkpt lat="47.5626" lon="1.1959">
        <ele>104.36292532035</ele>
        <time>2022-04-28T19:29:40.144Z</time>
      </trkpt>
      <trkpt lat="47.56279" lon="1.19541">
        <ele>104.5561837715</ele>
        <time>2022-04-28T19:29:43.888Z</time>
      </trkpt>
      <trkpt lat="47.56301" lon="1.19503">
        <ele>104.74153376515</ele>
        <time>2022-04-28T19:29:47.639Z</time>
      </trkpt>
      <trkpt lat="47.56326" lon="1.19458">
        <ele>105.08439044973</ele>
        <time>2022-04-28T19:29:51.397Z</time>
      </trkpt>
      <trkpt lat="47.56337" lon="1.19469">
        <ele>105.43700474157</ele>
        <time>2022-04-28T19:29:55.158Z</time>
      </trkpt>
      <trkpt lat="47.56366" lon="1.19501">
        <ele>105.93767352166</ele>
        <time>2022-04-28T19:29:58.926Z</time>
      </trkpt>
      <trkpt lat="47.56403" lon="1.19528">
        <ele>106.35215479884</ele>
        <time>2022-04-28T19:30:02.703Z</time>
      </trkpt>
      <trkpt lat="47.56453" lon="1.19561">
        <ele>106.77378411408</ele>
        <time>2022-04-28T19:30:06.491Z</time>
      </trkpt>
      <trkpt lat="47.56485" lon="1.19583">
        <ele>107.09247449996</ele>
        <time>2022-04-28T19:30:10.286Z</time>
      </trkpt>
      <trkpt lat="47.56498" lon="1.19589">
        <ele>107.35201786828</ele>
        <time>2022-04-28T19:30:14.083Z</time>
      </trkpt>
      <trkpt lat="47.56507" lon="1.19593">
        <ele>107.56871263528</ele>
        <time>2022-04-28T19:30:17.882Z</time>
      </trkpt>
      <trkpt lat="47.56528" lon="1.19605">
        <ele>107.74083610108</ele>
        <time>2022-04-28T19:30:21.686Z</time>
      </trkpt>
      <trkpt lat="47.56549" lon="1.19618">
        <ele>107.88941334573</ele>
        <time>2022-04-28T19:30:25.494Z</time>
      </trkpt>
      <trkpt lat="47.56555" lon="1.19622">
        <ele>108.14973878914</ele>
        <time>2022-04-28T19:30:29.304Z</time>
      </trkpt>
      <trkpt lat="47.56583" lon="1.19641">
        <ele>108.21832323004</ele>
        <time>2022-04-28T19:30:33.120Z</time>
      </trkpt>
      <trkpt lat="47.56608" lon="1.19648">
        <ele>108.18369742308</ele>
        <time>2022-04-28T19:30:36.941Z</time>
      </trkpt>
      <trkpt lat="47.5662" lon="1.19655">
        <ele>108.22718064952</ele>
        <time>2022-04-28T19:30:40.764Z</time>
      </trkpt>
      <trkpt lat="47.56636" lon="1.19667">
        <ele>108.27525036973</ele>
        <time>2022-04-28T19:30:44.591Z</time>
      </trkpt>
      <trkpt lat="47.56654" lon="1.19685">
        <ele>108.37151949788</ele>
        <time>2022-04-28T19:30:48.423Z</time>
      </trkpt>
      <trkpt lat="47.56657" lon="1.19688">
        <ele>108.75241666133</ele>
        <time>2022-04-28T19:30:52.255Z</time>
      </trkpt>
      <trkpt lat="47.56663" lon="1.19697">
        <ele>108.99000653147</ele>
        <time>2022-04-28T19:30:56.089Z</time>
      </trkpt>
      <trkpt lat="47.56678" lon="1.19709">
        <ele>109.29124139776</ele>
        <time>2022-04-28T19:30:59.926Z</time>
      </trkpt>
      <trkpt lat="47.56699" lon="1.19713">
        <ele>109.68358490088</ele>
        <time>2022-04-28T19:31:03.767Z</time>
      </trkpt>
      <trkpt lat="47.56728" lon="1.19724">
        <ele>110.23859125279</ele>
        <time>2022-04-28T19:31:07.614Z</time>
      </trkpt>
      <trkpt lat="47.56735" lon="1.19727">
        <ele>110.68259876842</ele>
        <time>2022-04-28T19:31:11.463Z</time>
      </trkpt>
      <trkpt lat="47.56742" lon="1.19731">
        <ele>111.15962958286</ele>
        <time>2022-04-28T19:31:15.313Z</time>
      </trkpt>
      <trkpt lat="47.56753" lon="1.19747">
        <ele>111.69649084045</ele>
        <time>2022-04-28T19:31:19.167Z</time>
      </trkpt>
      <trkpt lat="47.56754" lon="1.19756">
        <ele>112.22152555892</ele>
        <time>2022-04-28T19:31:23.022Z</time>
      </trkpt>
      <trkpt lat="47.5676" lon="1.19754">
        <ele>112.77335145739</ele>
        <time>2022-04-28T19:31:26.878Z</time>
      </trkpt>
      <trkpt lat="47.56773" lon="1.19725">
        <ele>113.38421460992</ele>
        <time>2022-04-28T19:31:30.739Z</time>
      </trkpt>
      <trkpt lat="47.56777" lon="1.19705">
        <ele>113.90874337722</ele>
        <time>2022-04-28T19:31:34.603Z</time>
      </trkpt>
      <trkpt lat="47.56794" lon="1.19706">
        <ele>114.55047703058</ele>
        <time>2022-04-28T19:31:38.470Z</time>
      </trkpt>
      <trkpt lat="47.56805" lon="1.19706">
        <ele>115.15049607976</ele>
        <time>2022-04-28T19:31:42.339Z</time>
      </trkpt>
      <trkpt lat="47.56815" lon="1.19702">
        <ele>115.67392758005</ele>
        <time>2022-04-28T19:31:46.210Z</time>
      </trkpt>
      <trkpt lat="47.5682" lon="1.19699">
        <ele>116.16570195394</ele>
        <time>2022-04-28T19:31:50.082Z</time>
      </trkpt>
      <trkpt lat="47.56835" lon="1.19689">
        <ele>116.72522221373</ele>
        <time>2022-04-28T19:31:53.958Z</time>
      </trkpt>
      <trkpt lat="47.56845" lon="1.1968">
        <ele>117.2018504975</ele>
        <time>2022-04-28T19:31:57.836Z</time>
      </trkpt>
      <trkpt lat="47.56857" lon="1.19665">
        <ele>117.64482462669</ele>
        <time>2022-04-28T19:32:01.717Z</time>
      </trkpt>
      <trkpt lat="47.56869" lon="1.19642">
        <ele>118.07580168206</ele>
        <time>2022-04-28T19:32:05.602Z</time>
      </trkpt>
      <trkpt lat="47.56908" lon="1.19595">
        <ele>118.35156636679</ele>
        <time>2022-04-28T19:32:09.497Z</time>
      </trkpt>
      <trkpt lat="47.56921" lon="1.19579">
        <ele>118.58971532416</ele>
        <time>2022-04-28T19:32:13.395Z</time>
      </trkpt>
      <trkpt lat="47.56931" lon="1.19558">
        <ele>118.88380511457</ele>
        <time>2022-04-28T19:32:17.297Z</time>
      </trkpt>
      <trkpt lat="47.56959" lon="1.1951">
        <ele>119.20450318139</ele>
        <time>2022-04-28T19:32:21.208Z</time>
      </trkpt>
      <trkpt lat="47.56978" lon="1.19475">
        <ele>119.52415102136</ele>
        <time>2022-04-28T19:32:25.125Z</time>
      </trkpt>
      <trkpt lat="47.56988" lon="1.19447">
        <ele>119.73569133327</ele>
        <time>2022-04-28T19:32:29.046Z</time>
      </trkpt>
      <trkpt lat="47.56992" lon="1.19432">
        <ele>119.87264431855</ele>
        <time>2022-04-28T19:32:32.969Z</time>
      </trkpt>
      <trkpt lat="47.57019" lon="1.19356">
        <ele>119.90436190917</ele>
        <time>2022-04-28T19:32:36.904Z</time>
      </trkpt>
      <trkpt lat="47.57042" lon="1.19287">
        <ele>119.93390381564</ele>
        <time>2022-04-28T19:32:40.849Z</time>
      </trkpt>
      <trkpt lat="47.57057" lon="1.1925">
        <ele>119.92106033738</ele>
        <time>2022-04-28T19:32:44.800Z</time>
      </trkpt>
      <trkpt lat="47.57057" lon="1.19249">
        <ele>119.93146417673</ele>
        <time>2022-04-28T19:32:48.751Z</time>
      </trkpt>
      <trkpt lat="47.57074" lon="1.19204">
        <ele>119.86428761175</ele>
        <time>2022-04-28T19:32:52.709Z</time>
      </trkpt>
      <trkpt lat="47.57083" lon="1.19191">
        <ele>119.83689018974</ele>
        <time>2022-04-28T19:32:56.670Z</time>
      </trkpt>
      <trkpt lat="47.57087" lon="1.19188">
        <ele>119.8154705398</ele>
        <time>2022-04-28T19:33:00.632Z</time>
      </trkpt>
      <trkpt lat="47.57093" lon="1.19186">
        <ele>119.82115066132</ele>
        <time>2022-04-28T19:33:04.595Z</time>
      </trkpt>
      <trkpt lat="47.571" lon="1.19187">
        <ele>119.83216946232</ele>
        <time>2022-04-28T19:33:08.559Z</time>
      </trkpt>
      <trkpt lat="47.571" lon="1.19179">
        <ele>119.79876418621</ele>
        <time>2022-04-28T19:33:12.524Z</time>
      </trkpt>
      <trkpt lat="47.57103" lon="1.19174">
        <ele>119.78414919784</ele>
        <time>2022-04-28T19:33:16.490Z</time>
      </trkpt>
      <trkpt lat="47.57114" lon="1.19154">
        <ele>119.77521018627</ele>
        <time>2022-04-28T19:33:20.460Z</time>
      </trkpt>
      <trkpt lat="47.57128" lon="1.19139">
        <ele>119.81923023752</ele>
        <time>2022-04-28T19:33:24.433Z</time>
      </trkpt>
      <trkpt lat="47.57131" lon="1.19134">
        <ele>119.81369507118</ele>
        <time>2022-04-28T19:33:28.407Z</time>
      </trkpt>
      <trkpt lat="47.57132" lon="1.19125">
        <ele>119.80319762181</ele>
        <time>2022-04-28T19:33:32.382Z</time>
      </trkpt>
      <trkpt lat="47.5713" lon="1.19106">
        <ele>119.73487508317</ele>
        <time>2022-04-28T19:33:36.360Z</time>
      </trkpt>
      <trkpt lat="47.5713" lon="1.19095">
        <ele>119.73490346354</ele>
        <time>2022-04-28T19:33:40.339Z</time>
      </trkpt>
      <trkpt lat="47.57141" lon="1.191">
        <ele>119.86568640805</ele>
        <time>2022-04-28T19:33:44.321Z</time>
      </trkpt>
      <trkpt lat="47.57146" lon="1.19102">
        <ele>120.01620127928</ele>
        <time>2022-04-28T19:33:48.304Z</time>
      </trkpt>
      <trkpt lat="47.57164" lon="1.19108">
        <ele>120.4310384189</ele>
        <time>2022-04-28T19:33:52.290Z</time>
      </trkpt>
      <trkpt lat="47.57174" lon="1.19109">
        <ele>120.64305989891</ele>
        <time>2022-04-28T19:33:56.278Z</time>
      </trkpt>
      <trkpt lat="47.57207" lon="1.19117">
        <ele>120.90379150451</ele>
        <time>2022-04-28T19:34:00.273Z</time>
      </trkpt>
      <trkpt lat="47.57276" lon="1.19141">
        <ele>121.25360929657</ele>
        <time>2022-04-28T19:34:04.282Z</time>
      </trkpt>
      <trkpt lat="47.57363" lon="1.19171">
        <ele>121.66979126974</ele>
        <time>2022-04-28T19:34:08.309Z</time>
      </trkpt>
      <trkpt lat="47.57486" lon="1.19216">
        <ele>122.11148049533</ele>
        <time>2022-04-28T19:34:12.361Z</time>
      </trkpt>
      <trkpt lat="47.57527" lon="1.1923">
        <ele>122.24888641539</ele>
        <time>2022-04-28T19:34:16.422Z</time>
      </trkpt>
      <trkpt lat="47.57535" lon="1.19233">
        <ele>122.50323175637</ele>
        <time>2022-04-28T19:34:20.485Z</time>
      </trkpt>
      <trkpt lat="47.57545" lon="1.19178">
        <ele>122.72809773079</ele>
        <time>2022-04-28T19:34:24.555Z</time>
      </trkpt>
      <trkpt lat="47.57551" lon="1.19146">
        <ele>122.97806049283</ele>
        <time>2022-04-28T19:34:28.630Z</time>
      </trkpt>
      <trkpt lat="47.57555" lon="1.19118">
        <ele>123.19736177987</ele>
        <time>2022-04-28T19:34:32.709Z</time>
      </trkpt>
      <trkpt lat="47.57556" lon="1.19097">
        <ele>123.4362773969</ele>
        <time>2022-04-28T19:34:36.791Z</time>
      </trkpt>
      <trkpt lat="47.57556" lon="1.19085">
        <ele>123.69997691247</ele>
        <time>2022-04-28T19:34:40.874Z</time>
      </trkpt>
      <trkpt lat="47.5757" lon="1.19084">
        <ele>124.02574817998</ele>
        <time>2022-04-28T19:34:44.960Z</time>
      </trkpt>
      <trkpt lat="47.57601" lon="1.19078">
        <ele>124.39762655864</ele>
        <time>2022-04-28T19:34:49.052Z</time>
      </trkpt>
      <trkpt lat="47.57603" lon="1.19078">
        <ele>124.69776118702</ele>
        <time>2022-04-28T19:34:53.145Z</time>
      </trkpt>
      <trkpt lat="47.57583" lon="1.19082">
        <ele>125.275122147</ele>
        <time>2022-04-28T19:34:57.242Z</time>
      </trkpt>
      <trkpt lat="47.57556" lon="1.19085">
        <ele>123.69997691247</ele>
        <time>2022-04-28T19:35:01.344Z</time>
      </trkpt>
      <trkpt lat="47.57553" lon="1.19132">
        <ele>125.85895465084</ele>
        <time>2022-04-28T19:35:05.452Z</time>
      </trkpt>
      <trkpt lat="47.57524" lon="1.19301">
        <ele>126.28128933752</ele>
        <time>2022-04-28T19:35:09.584Z</time>
      </trkpt>
      <trkpt lat="47.57494" lon="1.195">
        <ele>126.94532698371</ele>
        <time>2022-04-28T19:35:13.744Z</time>
      </trkpt>
      <trkpt lat="47.57491" lon="1.19539">
        <ele>127.15450046803</ele>
        <time>2022-04-28T19:35:17.909Z</time>
      </trkpt>
      <trkpt lat="47.57491" lon="1.19626">
        <ele>127.26123479219</ele>
        <time>2022-04-28T19:35:22.086Z</time>
      </trkpt>
      <trkpt lat="47.57482" lon="1.19847">
        <ele>127.27948549139</ele>
        <time>2022-04-28T19:35:26.293Z</time>
      </trkpt>
      <trkpt lat="47.57477" lon="1.19941">
        <ele>127.0810162367</ele>
        <time>2022-04-28T19:35:30.513Z</time>
      </trkpt>
      <trkpt lat="47.57473" lon="1.19966">
        <ele>127.06572189359</ele>
        <time>2022-04-28T19:35:34.736Z</time>
      </trkpt>
      <trkpt lat="47.57456" lon="1.20033">
        <ele>127.0270846422</ele>
        <time>2022-04-28T19:35:38.969Z</time>
      </trkpt>
      <trkpt lat="47.57453" lon="1.20046">
        <ele>126.97630593562</ele>
        <time>2022-04-28T19:35:43.204Z</time>
      </trkpt>
      <trkpt lat="47.57452" lon="1.20068">
        <ele>126.7909824389</ele>
        <time>2022-04-28T19:35:47.442Z</time>
      </trkpt>
      <trkpt lat="47.57454" lon="1.2009">
        <ele>126.57522921736</ele>
        <time>2022-04-28T19:35:51.683Z</time>
      </trkpt>
      <trkpt lat="47.5746" lon="1.20114">
        <ele>126.30087157782</ele>
        <time>2022-04-28T19:35:55.927Z</time>
      </trkpt>
      <trkpt lat="47.57481" lon="1.20191">
        <ele>126.09086376648</ele>
        <time>2022-04-28T19:36:00.182Z</time>
      </trkpt>
      <trkpt lat="47.57493" lon="1.20259">
        <ele>125.78891635734</ele>
        <time>2022-04-28T19:36:04.447Z</time>
      </trkpt>
      <trkpt lat="47.57504" lon="1.20334">
        <ele>125.33203575067</ele>
        <time>2022-04-28T19:36:08.722Z</time>
      </trkpt>
      <trkpt lat="47.57509" lon="1.20356">
        <ele>124.89006203608</ele>
        <time>2022-04-28T19:36:13.000Z</time>
      </trkpt>
      <trkpt lat="47.57497" lon="1.20359">
        <ele>124.34608344256</ele>
        <time>2022-04-28T19:36:17.281Z</time>
      </trkpt>
      <trkpt lat="47.57427" lon="1.20384">
        <ele>123.63727862695</ele>
        <time>2022-04-28T19:36:21.576Z</time>
      </trkpt>
      <trkpt lat="47.57381" lon="1.204">
        <ele>122.94585482182</ele>
        <time>2022-04-28T19:36:25.881Z</time>
      </trkpt>
      <trkpt lat="47.57375" lon="1.204">
        <ele>122.13873542984</ele>
        <time>2022-04-28T19:36:30.187Z</time>
      </trkpt>
      <trkpt lat="47.57365" lon="1.20423">
        <ele>121.253534855</ele>
        <time>2022-04-28T19:36:34.497Z</time>
      </trkpt>
      <trkpt lat="47.57365" lon="1.20424">
        <ele>120.23104505309</ele>
        <time>2022-04-28T19:36:38.807Z</time>
      </trkpt>
      <trkpt lat="47.57349" lon="1.20479">
        <ele>117.91132225062</ele>
        <time>2022-04-28T19:36:43.125Z</time>
      </trkpt>
      <trkpt lat="47.57327" lon="1.20512">
        <ele>116.39290477615</ele>
        <time>2022-04-28T19:36:47.449Z</time>
      </trkpt>
      <trkpt lat="47.57314" lon="1.20531">
        <ele>114.79454256</ele>
        <time>2022-04-28T19:36:51.777Z</time>
      </trkpt>
      <trkpt lat="47.57287" lon="1.20554">
        <ele>113.0180205654</ele>
        <time>2022-04-28T19:36:56.111Z</time>
      </trkpt>
      <trkpt lat="47.57272" lon="1.2057">
        <ele>111.19844557561</ele>
        <time>2022-04-28T19:37:00.449Z</time>
      </trkpt>
      <trkpt lat="47.57257" lon="1.20604">
        <ele>109.18752524589</ele>
        <time>2022-04-28T19:37:04.792Z</time>
      </trkpt>
      <trkpt lat="47.5722" lon="1.20671">
        <ele>107.03773363175</ele>
        <time>2022-04-28T19:37:09.147Z</time>
      </trkpt>
      <trkpt lat="47.5718" lon="1.20773">
        <ele>104.93278317572</ele>
        <time>2022-04-28T19:37:13.518Z</time>
      </trkpt>
      <trkpt lat="47.57173" lon="1.20791">
        <ele>102.78062738187</ele>
        <time>2022-04-28T19:37:17.892Z</time>
      </trkpt>
      <trkpt lat="47.57168" lon="1.20816">
        <ele>100.50233408697</ele>
        <time>2022-04-28T19:37:22.269Z</time>
      </trkpt>
      <trkpt lat="47.57162" lon="1.20849">
        <ele>98.079388553572</ele>
        <time>2022-04-28T19:37:26.651Z</time>
      </trkpt>
      <trkpt lat="47.57161" lon="1.20858">
        <ele>93.640430821367</ele>
        <time>2022-04-28T19:37:31.034Z</time>
      </trkpt>
      <trkpt lat="47.57155" lon="1.20856">
        <ele>91.501073050709</ele>
        <time>2022-04-28T19:37:35.418Z</time>
      </trkpt>
      <trkpt lat="47.57128" lon="1.20926">
        <ele>88.843388891015</ele>
        <time>2022-04-28T19:37:39.813Z</time>
      </trkpt>
      <trkpt lat="47.57114" lon="1.2097">
        <ele>86.570675598048</ele>
        <time>2022-04-28T19:37:44.215Z</time>
      </trkpt>
      <trkpt lat="47.57101" lon="1.20994">
        <ele>84.44869793652</ele>
        <time>2022-04-28T19:37:48.621Z</time>
      </trkpt>
      <trkpt lat="47.57023" lon="1.21107">
        <ele>82.14566459835</ele>
        <time>2022-04-28T19:37:53.049Z</time>
      </trkpt>
      <trkpt lat="47.56972" lon="1.21177">
        <ele>80.298914088871</ele>
        <time>2022-04-28T19:37:57.491Z</time>
      </trkpt>
      <trkpt lat="47.56952" lon="1.21205">
        <ele>78.745050131267</ele>
        <time>2022-04-28T19:38:01.938Z</time>
      </trkpt>
      <trkpt lat="47.56947" lon="1.21213">
        <ele>77.300345886992</ele>
        <time>2022-04-28T19:38:06.387Z</time>
      </trkpt>
      <trkpt lat="47.56939" lon="1.212">
        <ele>76.037459508431</ele>
        <time>2022-04-28T19:38:10.838Z</time>
      </trkpt>
      <trkpt lat="47.56919" lon="1.21214">
        <ele>74.96086421674</ele>
        <time>2022-04-28T19:38:15.293Z</time>
      </trkpt>
      <trkpt lat="47.5691" lon="1.21211">
        <ele>74.023821925783</ele>
        <time>2022-04-28T19:38:19.750Z</time>
      </trkpt>
      <trkpt lat="47.56894" lon="1.21201">
        <ele>73.268634368953</ele>
        <time>2022-04-28T19:38:24.211Z</time>
      </trkpt>
      <trkpt lat="47.56886" lon="1.212">
        <ele>72.613500400781</ele>
        <time>2022-04-28T19:38:28.673Z</time>
      </trkpt>
      <trkpt lat="47.56871" lon="1.21199">
        <ele>72.091929279881</ele>
        <time>2022-04-28T19:38:33.138Z</time>
      </trkpt>
      <trkpt lat="47.56859" lon="1.21196">
        <ele>71.443936395246</ele>
        <time>2022-04-28T19:38:37.606Z</time>
      </trkpt>
      <trkpt lat="47.56841" lon="1.21187">
        <ele>71.317181661527</ele>
        <time>2022-04-28T19:38:42.078Z</time>
      </trkpt>
      <trkpt lat="47.56791" lon="1.2117">
        <ele>71.282407152974</ele>
        <time>2022-04-28T19:38:46.560Z</time>
      </trkpt>
      <trkpt lat="47.5676" lon="1.21144">
        <ele>71.296025475563</ele>
        <time>2022-04-28T19:38:51.049Z</time>
      </trkpt>
      <trkpt lat="47.56748" lon="1.21139">
        <ele>71.425544118977</ele>
        <time>2022-04-28T19:38:55.541Z</time>
      </trkpt>
      <trkpt lat="47.56732" lon="1.21136">
        <ele>71.648195998451</ele>
        <time>2022-04-28T19:39:00.036Z</time>
      </trkpt>
      <trkpt lat="47.56703" lon="1.21124">
        <ele>71.988897197516</ele>
        <time>2022-04-28T19:39:04.537Z</time>
      </trkpt>
      <trkpt lat="47.56685" lon="1.21112">
        <ele>72.4685841072</ele>
        <time>2022-04-28T19:39:09.042Z</time>
      </trkpt>
      <trkpt lat="47.56668" lon="1.21113">
        <ele>73.009815426875</ele>
        <time>2022-04-28T19:39:13.550Z</time>
      </trkpt>
      <trkpt lat="47.56661" lon="1.21116">
        <ele>73.560524814478</ele>
        <time>2022-04-28T19:39:18.060Z</time>
      </trkpt>
      <trkpt lat="47.56646" lon="1.21121">
        <ele>74.217370541184</ele>
        <time>2022-04-28T19:39:22.573Z</time>
      </trkpt>
      <trkpt lat="47.56638" lon="1.21122">
        <ele>74.875141324213</ele>
        <time>2022-04-28T19:39:27.087Z</time>
      </trkpt>
      <trkpt lat="47.56631" lon="1.21118">
        <ele>75.544084027621</ele>
        <time>2022-04-28T19:39:31.603Z</time>
      </trkpt>
      <trkpt lat="47.56624" lon="1.21108">
        <ele>76.244279237454</ele>
        <time>2022-04-28T19:39:36.121Z</time>
      </trkpt>
      <trkpt lat="47.56613" lon="1.21092">
        <ele>76.956991771295</ele>
        <time>2022-04-28T19:39:40.642Z</time>
      </trkpt>
      <trkpt lat="47.56585" lon="1.2107">
        <ele>77.648518059299</ele>
        <time>2022-04-28T19:39:45.169Z</time>
      </trkpt>
      <trkpt lat="47.56553" lon="1.21048">
        <ele>78.451719767681</ele>
        <time>2022-04-28T19:39:49.703Z</time>
      </trkpt>
      <trkpt lat="47.56552" lon="1.21065">
        <ele>79.314763401015</ele>
        <time>2022-04-28T19:39:54.240Z</time>
      </trkpt>
      <trkpt lat="47.56549" lon="1.21099">
        <ele>80.333270725423</ele>
        <time>2022-04-28T19:39:58.781Z</time>
      </trkpt>
      <trkpt lat="47.56548" lon="1.21112">
        <ele>81.203654056049</ele>
        <time>2022-04-28T19:40:03.324Z</time>
      </trkpt>
      <trkpt lat="47.56546" lon="1.21147">
        <ele>82.965200470175</ele>
        <time>2022-04-28T19:40:07.872Z</time>
      </trkpt>
      <trkpt lat="47.56541" lon="1.21165">
        <ele>83.828032047273</ele>
        <time>2022-04-28T19:40:12.422Z</time>
      </trkpt>
      <trkpt lat="47.56528" lon="1.21186">
        <ele>84.694506635684</ele>
        <time>2022-04-28T19:40:16.976Z</time>
      </trkpt>
      <trkpt lat="47.5652" lon="1.21196">
        <ele>85.625178164034</ele>
        <time>2022-04-28T19:40:21.532Z</time>
      </trkpt>
      <trkpt lat="47.5647" lon="1.21251">
        <ele>86.636585559534</ele>
        <time>2022-04-28T19:40:26.101Z</time>
      </trkpt>
      <trkpt lat="47.56407" lon="1.21303">
        <ele>87.480385196908</ele>
        <time>2022-04-28T19:40:30.684Z</time>
      </trkpt>
      <trkpt lat="47.56441" lon="1.21394">
        <ele>88.669982683643</ele>
        <time>2022-04-28T19:40:35.281Z</time>
      </trkpt>
      <trkpt lat="47.56442" lon="1.21397">
        <ele>89.757777248679</ele>
        <time>2022-04-28T19:40:39.879Z</time>
      </trkpt>
      <trkpt lat="47.56451" lon="1.21422">
        <ele>92.112055412837</ele>
        <time>2022-04-28T19:40:44.481Z</time>
      </trkpt>
      <trkpt lat="47.56473" lon="1.21493">
        <ele>93.322421131899</ele>
        <time>2022-04-28T19:40:49.093Z</time>
      </trkpt>
      <trkpt lat="47.56486" lon="1.21542">
        <ele>94.483362120984</ele>
        <time>2022-04-28T19:40:53.712Z</time>
      </trkpt>
      <trkpt lat="47.56501" lon="1.2162">
        <ele>95.956316804254</ele>
        <time>2022-04-28T19:40:58.342Z</time>
      </trkpt>
      <trkpt lat="47.56511" lon="1.21673">
        <ele>97.51779898784</ele>
        <time>2022-04-28T19:41:02.980Z</time>
      </trkpt>
      <trkpt lat="47.56507" lon="1.21675">
        <ele>98.913994444414</ele>
        <time>2022-04-28T19:41:07.619Z</time>
      </trkpt>
      <trkpt lat="47.56513" lon="1.21708">
        <ele>100.40059926005</ele>
        <time>2022-04-28T19:41:12.262Z</time>
      </trkpt>
      <trkpt lat="47.56516" lon="1.21722">
        <ele>101.85755509611</ele>
        <time>2022-04-28T19:41:16.907Z</time>
      </trkpt>
      <trkpt lat="47.5652" lon="1.21748">
        <ele>103.35075915393</ele>
        <time>2022-04-28T19:41:21.556Z</time>
      </trkpt>
      <trkpt lat="47.56536" lon="1.21863">
        <ele>105.5380810303</ele>
        <time>2022-04-28T19:41:26.221Z</time>
      </trkpt>
      <trkpt lat="47.56543" lon="1.21911">
        <ele>107.220968424</ele>
        <time>2022-04-28T19:41:30.892Z</time>
      </trkpt>
      <trkpt lat="47.56546" lon="1.21927">
        <ele>108.63407922889</ele>
        <time>2022-04-28T19:41:35.566Z</time>
      </trkpt>
      <trkpt lat="47.56529" lon="1.21933">
        <ele>109.93571737916</ele>
        <time>2022-04-28T19:41:40.243Z</time>
      </trkpt>
      <trkpt lat="47.56512" lon="1.2194">
        <ele>111.15606678901</ele>
        <time>2022-04-28T19:41:44.924Z</time>
      </trkpt>
      <trkpt lat="47.56493" lon="1.21948">
        <ele>112.27181092965</ele>
        <time>2022-04-28T19:41:49.609Z</time>
      </trkpt>
      <trkpt lat="47.56461" lon="1.21961">
        <ele>114.20480465443</ele>
        <time>2022-04-28T19:41:54.300Z</time>
      </trkpt>
      <trkpt lat="47.56447" lon="1.21962">
        <ele>115.04327781761</ele>
        <time>2022-04-28T19:41:58.994Z</time>
      </trkpt>
      <trkpt lat="47.56405" lon="1.21969">
        <ele>115.8617014749</ele>
        <time>2022-04-28T19:42:03.697Z</time>
      </trkpt>
      <trkpt lat="47.56371" lon="1.2198">
        <ele>116.55388106413</ele>
        <time>2022-04-28T19:42:08.406Z</time>
      </trkpt>
      <trkpt lat="47.56354" lon="1.21987">
        <ele>117.13073479501</ele>
        <time>2022-04-28T19:42:13.119Z</time>
      </trkpt>
      <trkpt lat="47.56342" lon="1.21998">
        <ele>117.53386662686</ele>
        <time>2022-04-28T19:42:17.835Z</time>
      </trkpt>
      <trkpt lat="47.5634" lon="1.22">
        <ele>117.9285113801</ele>
        <time>2022-04-28T19:42:22.551Z</time>
      </trkpt>
      <trkpt lat="47.5634" lon="1.22">
        <ele>118.26053386207</ele>
        <time>2022-04-28T19:42:27.267Z</time>
      </trkpt>
      <trkpt lat="47.56343" lon="1.22007">
        <ele>118.55806439539</ele>
        <time>2022-04-28T19:42:31.985Z</time>
      </trkpt>
      <trkpt lat="47.56358" lon="1.22033">
        <ele>118.85927856256</ele>
        <time>2022-04-28T19:42:36.707Z</time>
      </trkpt>
      <trkpt lat="47.56359" lon="1.22042">
        <ele>119.02113197592</ele>
        <time>2022-04-28T19:42:41.430Z</time>
      </trkpt>
      <trkpt lat="47.56366" lon="1.22074">
        <ele>119.14897764744</ele>
        <time>2022-04-28T19:42:46.158Z</time>
      </trkpt>
      <trkpt lat="47.56366" lon="1.22074">
        <ele>119.2651501187</ele>
        <time>2022-04-28T19:42:50.886Z</time>
      </trkpt>
      <trkpt lat="47.56371" lon="1.22096">
        <ele>119.3020179651</ele>
        <time>2022-04-28T19:42:55.617Z</time>
      </trkpt>
      <trkpt lat="47.56365" lon="1.22157">
        <ele>119.29444902595</ele>
        <time>2022-04-28T19:43:00.356Z</time>
      </trkpt>
      <trkpt lat="47.56365" lon="1.22157">
        <ele>119.28632887441</ele>
        <time>2022-04-28T19:43:05.095Z</time>
      </trkpt>
      <trkpt lat="47.56352" lon="1.22306">
        <ele>119.21726463912</ele>
        <time>2022-04-28T19:43:09.855Z</time>
      </trkpt>
      <trkpt lat="47.56352" lon="1.22306">
        <ele>119.23353411168</ele>
        <time>2022-04-28T19:43:14.615Z</time>
      </trkpt>
      <trkpt lat="47.56352" lon="1.22312">
        <ele>119.2819228052</ele>
        <time>2022-04-28T19:43:19.376Z</time>
      </trkpt>
      <trkpt lat="47.56352" lon="1.2238">
        <ele>119.39219322729</ele>
        <time>2022-04-28T19:43:24.146Z</time>
      </trkpt>
      <trkpt lat="47.56351" lon="1.22421">
        <ele>119.48373481469</ele>
        <time>2022-04-28T19:43:28.921Z</time>
      </trkpt>
      <trkpt lat="47.56351" lon="1.22421">
        <ele>119.75316558734</ele>
        <time>2022-04-28T19:43:33.696Z</time>
      </trkpt>
      <trkpt lat="47.56351" lon="1.22441">
        <ele>119.9464689233</ele>
        <time>2022-04-28T19:43:38.474Z</time>
      </trkpt>
      <trkpt lat="47.56354" lon="1.22565">
        <ele>120.37100485477</ele>
        <time>2022-04-28T19:43:43.269Z</time>
      </trkpt>
      <trkpt lat="47.56354" lon="1.22565">
        <ele>120.89928125253</ele>
        <time>2022-04-28T19:43:48.064Z</time>
      </trkpt>
      <trkpt lat="47.56357" lon="1.22681">
        <ele>121.24227584896</ele>
        <time>2022-04-28T19:43:52.875Z</time>
      </trkpt>
      <trkpt lat="47.56357" lon="1.22681">
        <ele>121.93779061135</ele>
        <time>2022-04-28T19:43:57.686Z</time>
      </trkpt>
      <trkpt lat="47.56359" lon="1.22749">
        <ele>122.19805139183</ele>
        <time>2022-04-28T19:44:02.506Z</time>
      </trkpt>
      <trkpt lat="47.56359" lon="1.22759">
        <ele>122.63042214634</ele>
        <time>2022-04-28T19:44:07.327Z</time>
      </trkpt>
      <trkpt lat="47.56359" lon="1.22759">
        <ele>123.51540776365</ele>
        <time>2022-04-28T19:44:12.148Z</time>
      </trkpt>
      <trkpt lat="47.56358" lon="1.22808">
        <ele>124.04276586264</ele>
        <time>2022-04-28T19:44:16.976Z</time>
      </trkpt>
      <trkpt lat="47.56361" lon="1.22913">
        <ele>124.55246367273</ele>
        <time>2022-04-28T19:44:21.818Z</time>
      </trkpt>
      <trkpt lat="47.56361" lon="1.22913">
        <ele>125.49765822166</ele>
        <time>2022-04-28T19:44:26.660Z</time>
      </trkpt>
      <trkpt lat="47.56361" lon="1.22925">
        <ele>125.9785925955</ele>
        <time>2022-04-28T19:44:31.504Z</time>
      </trkpt>
      <trkpt lat="47.56366" lon="1.23002">
        <ele>126.63314206757</ele>
        <time>2022-04-28T19:44:36.358Z</time>
      </trkpt>
      <trkpt lat="47.56366" lon="1.23002">
        <ele>127.03074622131</ele>
        <time>2022-04-28T19:44:41.212Z</time>
      </trkpt>
      <trkpt lat="47.56367" lon="1.23011">
        <ele>127.38630297221</ele>
        <time>2022-04-28T19:44:46.067Z</time>
      </trkpt>
      <trkpt lat="47.56385" lon="1.23083">
        <ele>127.75191023783</ele>
        <time>2022-04-28T19:44:50.933Z</time>
      </trkpt>
      <trkpt lat="47.56397" lon="1.2308">
        <ele>128.05254417731</ele>
        <time>2022-04-28T19:44:55.801Z</time>
      </trkpt>
      <trkpt lat="47.56397" lon="1.2308">
        <ele>128.21983661084</ele>
        <time>2022-04-28T19:45:00.669Z</time>
      </trkpt>
      <trkpt lat="47.56437" lon="1.23069">
        <ele>128.43022343797</ele>
        <time>2022-04-28T19:45:05.546Z</time>
      </trkpt>
      <trkpt lat="47.56617" lon="1.23023">
        <ele>128.70009914665</ele>
        <time>2022-04-28T19:45:10.459Z</time>
      </trkpt>
      <trkpt lat="47.56757" lon="1.22989">
        <ele>128.43947838928</ele>
        <time>2022-04-28T19:45:15.400Z</time>
      </trkpt>
      <trkpt lat="47.56754" lon="1.22976">
        <ele>128.29760227232</ele>
        <time>2022-04-28T19:45:20.343Z</time>
      </trkpt>
      <trkpt lat="47.56754" lon="1.22976">
        <ele>128.03447327867</ele>
        <time>2022-04-28T19:45:25.286Z</time>
      </trkpt>
      <trkpt lat="47.5675" lon="1.22955">
        <ele>127.72218675463</ele>
        <time>2022-04-28T19:45:30.232Z</time>
      </trkpt>
      <trkpt lat="47.56773" lon="1.22874">
        <ele>127.45639396863</ele>
        <time>2022-04-28T19:45:35.190Z</time>
      </trkpt>
      <trkpt lat="47.56774" lon="1.22874">
        <ele>126.96107585596</ele>
        <time>2022-04-28T19:45:40.148Z</time>
      </trkpt>
      <trkpt lat="47.56886" lon="1.22541">
        <ele>125.55225340954</ele>
        <time>2022-04-28T19:45:45.157Z</time>
      </trkpt>
      <trkpt lat="47.56904" lon="1.22495">
        <ele>125.00064450029</ele>
        <time>2022-04-28T19:45:50.173Z</time>
      </trkpt>
      <trkpt lat="47.56919" lon="1.22448">
        <ele>124.40021894823</ele>
        <time>2022-04-28T19:45:55.196Z</time>
      </trkpt>
      <trkpt lat="47.5693" lon="1.22416">
        <ele>123.77694393216</ele>
        <time>2022-04-28T19:46:00.224Z</time>
      </trkpt>
      <trkpt lat="47.56991" lon="1.22232">
        <ele>122.37538099462</ele>
        <time>2022-04-28T19:46:05.280Z</time>
      </trkpt>
      <trkpt lat="47.57003" lon="1.22201">
        <ele>121.91568259988</ele>
        <time>2022-04-28T19:46:10.340Z</time>
      </trkpt>
      <trkpt lat="47.57007" lon="1.22191">
        <ele>121.42723877663</ele>
        <time>2022-04-28T19:46:15.402Z</time>
      </trkpt>
      <trkpt lat="47.57011" lon="1.22194">
        <ele>121.02744624389</ele>
        <time>2022-04-28T19:46:20.465Z</time>
      </trkpt>
      <trkpt lat="47.57026" lon="1.2221">
        <ele>120.71341136976</ele>
        <time>2022-04-28T19:46:25.532Z</time>
      </trkpt>
      <trkpt lat="47.57037" lon="1.22235">
        <ele>120.47521004811</ele>
        <time>2022-04-28T19:46:30.603Z</time>
      </trkpt>
      <trkpt lat="47.57059" lon="1.22263">
        <ele>120.17400697417</ele>
        <time>2022-04-28T19:46:35.679Z</time>
      </trkpt>
      <trkpt lat="47.57065" lon="1.22287">
        <ele>120.1574134801</ele>
        <time>2022-04-28T19:46:40.759Z</time>
      </trkpt>
      <trkpt lat="47.57074" lon="1.22308">
        <ele>120.18728840747</ele>
        <time>2022-04-28T19:46:45.842Z</time>
      </trkpt>
      <trkpt lat="47.57079" lon="1.22317">
        <ele>120.28679808273</ele>
        <time>2022-04-28T19:46:50.927Z</time>
      </trkpt>
      <trkpt lat="47.57084" lon="1.22333">
        <ele>120.48206434625</ele>
        <time>2022-04-28T19:46:56.014Z</time>
      </trkpt>
      <trkpt lat="47.57084" lon="1.22344">
        <ele>120.75770105292</ele>
        <time>2022-04-28T19:47:01.103Z</time>
      </trkpt>
      <trkpt lat="47.57077" lon="1.22405">
        <ele>121.16149949124</ele>
        <time>2022-04-28T19:47:06.200Z</time>
      </trkpt>
      <trkpt lat="47.57067" lon="1.2246">
        <ele>121.6775434426</ele>
        <time>2022-04-28T19:47:11.305Z</time>
      </trkpt>
      <trkpt lat="47.5706" lon="1.22496">
        <ele>122.26275177137</ele>
        <time>2022-04-28T19:47:16.415Z</time>
      </trkpt>
      <trkpt lat="47.57057" lon="1.22548">
        <ele>122.78657673949</ele>
        <time>2022-04-28T19:47:21.532Z</time>
      </trkpt>
      <trkpt lat="47.57053" lon="1.22579">
        <ele>123.28979908124</ele>
        <time>2022-04-28T19:47:26.653Z</time>
      </trkpt>
      <trkpt lat="47.57041" lon="1.2262">
        <ele>123.80608660082</ele>
        <time>2022-04-28T19:47:31.780Z</time>
      </trkpt>
      <trkpt lat="47.57022" lon="1.22668">
        <ele>124.36095482013</ele>
        <time>2022-04-28T19:47:36.915Z</time>
      </trkpt>
      <trkpt lat="47.57005" lon="1.22736">
        <ele>124.93207327855</ele>
        <time>2022-04-28T19:47:42.060Z</time>
      </trkpt>
      <trkpt lat="47.56974" lon="1.22843">
        <ele>125.57669537017</ele>
        <time>2022-04-28T19:47:47.220Z</time>
      </trkpt>
      <trkpt lat="47.56985" lon="1.22837">
        <ele>126.27117220885</ele>
        <time>2022-04-28T19:47:52.383Z</time>
      </trkpt>
      <trkpt lat="47.57007" lon="1.22825">
        <ele>127.6624739379</ele>
        <time>2022-04-28T19:47:57.550Z</time>
      </trkpt>
      <trkpt lat="47.57033" lon="1.22801">
        <ele>128.43710810987</ele>
        <time>2022-04-28T19:48:02.724Z</time>
      </trkpt>
      <trkpt lat="47.57058" lon="1.22774">
        <ele>129.1792569963</ele>
        <time>2022-04-28T19:48:07.904Z</time>
      </trkpt>
      <trkpt lat="47.57069" lon="1.22763">
        <ele>129.93443045699</ele>
        <time>2022-04-28T19:48:13.086Z</time>
      </trkpt>
      <trkpt lat="47.57117" lon="1.22747">
        <ele>130.88404128677</ele>
        <time>2022-04-28T19:48:18.278Z</time>
      </trkpt>
      <trkpt lat="47.57153" lon="1.22735">
        <ele>131.7293267883</ele>
        <time>2022-04-28T19:48:23.478Z</time>
      </trkpt>
      <trkpt lat="47.57178" lon="1.22721">
        <ele>132.53308932525</ele>
        <time>2022-04-28T19:48:28.683Z</time>
      </trkpt>
      <trkpt lat="47.5719" lon="1.22718">
        <ele>133.32143498218</ele>
        <time>2022-04-28T19:48:33.890Z</time>
      </trkpt>
      <trkpt lat="47.57222" lon="1.22719">
        <ele>134.1414346073</ele>
        <time>2022-04-28T19:48:39.104Z</time>
      </trkpt>
      <trkpt lat="47.57232" lon="1.22719">
        <ele>134.90746557804</ele>
        <time>2022-04-28T19:48:44.320Z</time>
      </trkpt>
      <trkpt lat="47.57282" lon="1.22707">
        <ele>136.42960659435</ele>
        <time>2022-04-28T19:48:49.546Z</time>
      </trkpt>
      <trkpt lat="47.5732" lon="1.22704">
        <ele>137.08201084068</ele>
        <time>2022-04-28T19:48:54.780Z</time>
      </trkpt>
      <trkpt lat="47.57363" lon="1.22685">
        <ele>137.55806435691</ele>
        <time>2022-04-28T19:49:00.023Z</time>
      </trkpt>
      <trkpt lat="47.57375" lon="1.2268">
        <ele>138.16136772271</ele>
        <time>2022-04-28T19:49:05.268Z</time>
      </trkpt>
      <trkpt lat="47.57381" lon="1.2268">
        <ele>138.73733995913</ele>
        <time>2022-04-28T19:49:10.514Z</time>
      </trkpt>
      <trkpt lat="47.57429" lon="1.22683">
        <ele>139.35650049346</ele>
        <time>2022-04-28T19:49:15.770Z</time>
      </trkpt>
      <trkpt lat="47.57488" lon="1.2271">
        <ele>139.96419500393</ele>
        <time>2022-04-28T19:49:21.038Z</time>
      </trkpt>
      <trkpt lat="47.57517" lon="1.22724">
        <ele>140.4887891785</ele>
        <time>2022-04-28T19:49:26.312Z</time>
      </trkpt>
      <trkpt lat="47.57534" lon="1.22733">
        <ele>141.34848954736</ele>
        <time>2022-04-28T19:49:31.590Z</time>
      </trkpt>
      <trkpt lat="47.57553" lon="1.22754">
        <ele>141.7534180269</ele>
        <time>2022-04-28T19:49:36.873Z</time>
      </trkpt>
      <trkpt lat="47.57584" lon="1.22793">
        <ele>142.17301615367</ele>
        <time>2022-04-28T19:49:42.164Z</time>
      </trkpt>
      <trkpt lat="47.57633" lon="1.22843">
        <ele>142.51570488546</ele>
        <time>2022-04-28T19:49:47.467Z</time>
      </trkpt>
      <trkpt lat="47.57652" lon="1.2285">
        <ele>142.67532813239</ele>
        <time>2022-04-28T19:49:52.774Z</time>
      </trkpt>
      <trkpt lat="47.5767" lon="1.22853">
        <ele>142.76203418849</ele>
        <time>2022-04-28T19:49:58.084Z</time>
      </trkpt>
      <trkpt lat="47.57696" lon="1.22854">
        <ele>142.81597918858</ele>
        <time>2022-04-28T19:50:03.400Z</time>
      </trkpt>
      <trkpt lat="47.57724" lon="1.22847">
        <ele>142.89760384167</ele>
        <time>2022-04-28T19:50:08.721Z</time>
      </trkpt>
      <trkpt lat="47.57751" lon="1.22839">
        <ele>142.83198026201</ele>
        <time>2022-04-28T19:50:14.048Z</time>
      </trkpt>
      <trkpt lat="47.57766" lon="1.22838">
        <ele>142.47880386439</ele>
        <time>2022-04-28T19:50:19.378Z</time>
      </trkpt>
      <trkpt lat="47.57788" lon="1.22835">
        <ele>142.1933329066</ele>
        <time>2022-04-28T19:50:24.712Z</time>
      </trkpt>
      <trkpt lat="47.57806" lon="1.22834">
        <ele>141.86150540792</ele>
        <time>2022-04-28T19:50:30.050Z</time>
      </trkpt>
      <trkpt lat="47.57831" lon="1.22838">
        <ele>141.47842400346</ele>
        <time>2022-04-28T19:50:35.393Z</time>
      </trkpt>
      <trkpt lat="47.57834" lon="1.22838">
        <ele>141.22418416188</ele>
        <time>2022-04-28T19:50:40.736Z</time>
      </trkpt>
      <trkpt lat="47.57834" lon="1.22838">
        <ele>140.99342650642</ele>
        <time>2022-04-28T19:50:46.079Z</time>
      </trkpt>
      <trkpt lat="47.5784" lon="1.22838">
        <ele>140.74602142795</ele>
        <time>2022-04-28T19:50:51.424Z</time>
      </trkpt>
      <trkpt lat="47.57854" lon="1.22831">
        <ele>140.43983331532</ele>
        <time>2022-04-28T19:50:56.772Z</time>
      </trkpt>
      <trkpt lat="47.57854" lon="1.22831">
        <ele>140.26050376975</ele>
        <time>2022-04-28T19:51:02.120Z</time>
      </trkpt>
      <trkpt lat="47.57867" lon="1.22826">
        <ele>140.01827120853</ele>
        <time>2022-04-28T19:51:07.470Z</time>
      </trkpt>
      <trkpt lat="47.57869" lon="1.22872">
        <ele>140.0825505715</ele>
        <time>2022-04-28T19:51:12.826Z</time>
      </trkpt>
      <trkpt lat="47.57869" lon="1.22872">
        <ele>139.8971458001</ele>
        <time>2022-04-28T19:51:18.182Z</time>
      </trkpt>
      <trkpt lat="47.5787" lon="1.22895">
        <ele>139.91389741648</ele>
        <time>2022-04-28T19:51:23.542Z</time>
      </trkpt>
      <trkpt lat="47.5787" lon="1.22897">
        <ele>139.86693666448</ele>
        <time>2022-04-28T19:51:28.902Z</time>
      </trkpt>
      <trkpt lat="47.5789" lon="1.23016">
        <ele>139.79968447543</ele>
        <time>2022-04-28T19:51:34.278Z</time>
      </trkpt>
      <trkpt lat="47.57895" lon="1.23054">
        <ele>139.78627561271</ele>
        <time>2022-04-28T19:51:39.660Z</time>
      </trkpt>
      <trkpt lat="47.57895" lon="1.23054">
        <ele>139.69847327168</ele>
        <time>2022-04-28T19:51:45.042Z</time>
      </trkpt>
      <trkpt lat="47.57902" lon="1.23108">
        <ele>139.69797723687</ele>
        <time>2022-04-28T19:51:50.431Z</time>
      </trkpt>
      <trkpt lat="47.57895" lon="1.23114">
        <ele>139.60711728618</ele>
        <time>2022-04-28T19:51:55.822Z</time>
      </trkpt>
      <trkpt lat="47.57901" lon="1.23149">
        <ele>139.44789551338</ele>
        <time>2022-04-28T19:52:01.217Z</time>
      </trkpt>
      <trkpt lat="47.57902" lon="1.23152">
        <ele>139.22890577085</ele>
        <time>2022-04-28T19:52:06.613Z</time>
      </trkpt>
      <trkpt lat="47.57902" lon="1.23152">
        <ele>138.96980868897</ele>
        <time>2022-04-28T19:52:12.009Z</time>
      </trkpt>
      <trkpt lat="47.57908" lon="1.23175">
        <ele>138.65358962715</ele>
        <time>2022-04-28T19:52:17.408Z</time>
      </trkpt>
      <trkpt lat="47.57916" lon="1.23181">
        <ele>138.24378565967</ele>
        <time>2022-04-28T19:52:22.809Z</time>
      </trkpt>
      <trkpt lat="47.57918" lon="1.23163">
        <ele>137.82539324079</ele>
        <time>2022-04-28T19:52:28.213Z</time>
      </trkpt>
      <trkpt lat="47.57923" lon="1.23165">
        <ele>137.44125354899</ele>
        <time>2022-04-28T19:52:33.618Z</time>
      </trkpt>
      <trkpt lat="47.5796" lon="1.23055">
        <ele>136.87321863546</ele>
        <time>2022-04-28T19:52:39.039Z</time>
      </trkpt>
      <trkpt lat="47.57965" lon="1.23053">
        <ele>136.48783772592</ele>
        <time>2022-04-28T19:52:44.461Z</time>
      </trkpt>
      <trkpt lat="47.57971" lon="1.23055">
        <ele>136.12767980462</ele>
        <time>2022-04-28T19:52:49.884Z</time>
      </trkpt>
      <trkpt lat="47.57977" lon="1.23061">
        <ele>135.79173710335</ele>
        <time>2022-04-28T19:52:55.309Z</time>
      </trkpt>
      <trkpt lat="47.57977" lon="1.23063">
        <ele>135.50707642471</ele>
        <time>2022-04-28T19:53:00.734Z</time>
      </trkpt>
      <trkpt lat="47.58072" lon="1.23141">
        <ele>135.11354806937</ele>
        <time>2022-04-28T19:53:06.181Z</time>
      </trkpt>
      <trkpt lat="47.58166" lon="1.2322">
        <ele>134.70483657348</ele>
        <time>2022-04-28T19:53:11.650Z</time>
      </trkpt>
      <trkpt lat="47.58244" lon="1.23286">
        <ele>134.58807064248</ele>
        <time>2022-04-28T19:53:17.137Z</time>
      </trkpt>
      <trkpt lat="47.58288" lon="1.23323">
        <ele>134.65108343273</ele>
        <time>2022-04-28T19:53:22.634Z</time>
      </trkpt>
      <trkpt lat="47.58292" lon="1.23315">
        <ele>134.64597020608</ele>
        <time>2022-04-28T19:53:28.132Z</time>
      </trkpt>
      <trkpt lat="47.5831" lon="1.2332">
        <ele>134.80999734776</ele>
        <time>2022-04-28T19:53:33.634Z</time>
      </trkpt>
      <trkpt lat="47.58319" lon="1.23329">
        <ele>135.0731837644</ele>
        <time>2022-04-28T19:53:39.138Z</time>
      </trkpt>
      <trkpt lat="47.58324" lon="1.23342">
        <ele>135.40499564866</ele>
        <time>2022-04-28T19:53:44.644Z</time>
      </trkpt>
      <trkpt lat="47.58327" lon="1.23352">
        <ele>135.827877505</ele>
        <time>2022-04-28T19:53:50.151Z</time>
      </trkpt>
      <trkpt lat="47.58338" lon="1.23413">
        <ele>137.00297781836</ele>
        <time>2022-04-28T19:53:55.667Z</time>
      </trkpt>
      <trkpt lat="47.58347" lon="1.23473">
        <ele>137.74452634014</ele>
        <time>2022-04-28T19:54:01.191Z</time>
      </trkpt>
      <trkpt lat="47.58376" lon="1.23461">
        <ele>138.27516022432</ele>
        <time>2022-04-28T19:54:06.721Z</time>
      </trkpt>
      <trkpt lat="47.58425" lon="1.2344">
        <ele>138.91051901483</ele>
        <time>2022-04-28T19:54:12.262Z</time>
      </trkpt>
      <trkpt lat="47.58434" lon="1.23467">
        <ele>139.72134912105</ele>
        <time>2022-04-28T19:54:17.807Z</time>
      </trkpt>
      <trkpt lat="47.58444" lon="1.23469">
        <ele>140.50849115719</ele>
        <time>2022-04-28T19:54:23.354Z</time>
      </trkpt>
      <trkpt lat="47.58483" lon="1.23458">
        <ele>141.34059689104</ele>
        <time>2022-04-28T19:54:28.909Z</time>
      </trkpt>
      <trkpt lat="47.58502" lon="1.23457">
        <ele>142.89635279696</ele>
        <time>2022-04-28T19:54:34.467Z</time>
      </trkpt>
      <trkpt lat="47.58617" lon="1.23489">
        <ele>143.90760915327</ele>
        <time>2022-04-28T19:54:40.049Z</time>
      </trkpt>
      <trkpt lat="47.58696" lon="1.23509">
        <ele>144.7481851971</ele>
        <time>2022-04-28T19:54:45.647Z</time>
      </trkpt>
      <trkpt lat="47.58767" lon="1.23526">
        <ele>145.55116018821</ele>
        <time>2022-04-28T19:54:51.259Z</time>
      </trkpt>
      <trkpt lat="47.58822" lon="1.23539">
        <ele>146.26243775427</ele>
        <time>2022-04-28T19:54:56.882Z</time>
      </trkpt>
      <trkpt lat="47.58827" lon="1.2355">
        <ele>146.74779678869</ele>
        <time>2022-04-28T19:55:02.507Z</time>
      </trkpt>
      <trkpt lat="47.58835" lon="1.23602">
        <ele>147.22476579298</ele>
        <time>2022-04-28T19:55:08.139Z</time>
      </trkpt>
      <trkpt lat="47.58858" lon="1.23592">
        <ele>147.54499974947</ele>
        <time>2022-04-28T19:55:13.776Z</time>
      </trkpt>
      <trkpt lat="47.59074" lon="1.23498">
        <ele>148.31292636761</ele>
        <time>2022-04-28T19:55:19.458Z</time>
      </trkpt>
      <trkpt lat="47.59321" lon="1.23389">
        <ele>147.78904318808</ele>
        <time>2022-04-28T19:55:25.192Z</time>
      </trkpt>
      <trkpt lat="47.59404" lon="1.23356">
        <ele>147.27628678278</ele>
        <time>2022-04-28T19:55:30.943Z</time>
      </trkpt>
      <trkpt lat="47.59474" lon="1.23323">
        <ele>146.72691761896</ele>
        <time>2022-04-28T19:55:36.709Z</time>
      </trkpt>
      <trkpt lat="47.59511" lon="1.23306">
        <ele>146.31608783078</ele>
        <time>2022-04-28T19:55:42.482Z</time>
      </trkpt>
      <trkpt lat="47.59606" lon="1.23264">
        <ele>145.83264357059</ele>
        <time>2022-04-28T19:55:48.275Z</time>
      </trkpt>
      <trkpt lat="47.59648" lon="1.23246">
        <ele>145.27158888248</ele>
        <time>2022-04-28T19:55:54.077Z</time>
      </trkpt>
      <trkpt lat="47.59645" lon="1.23232">
        <ele>144.8079280411</ele>
        <time>2022-04-28T19:55:59.881Z</time>
      </trkpt>
      <trkpt lat="47.59659" lon="1.23159">
        <ele>144.23461170666</ele>
        <time>2022-04-28T19:56:05.695Z</time>
      </trkpt>
      <trkpt lat="47.59683" lon="1.23031">
        <ele>143.41740776968</ele>
        <time>2022-04-28T19:56:11.527Z</time>
      </trkpt>
      <trkpt lat="47.59686" lon="1.23005">
        <ele>142.88472521182</ele>
        <time>2022-04-28T19:56:17.363Z</time>
      </trkpt>
      <trkpt lat="47.59688" lon="1.2298">
        <ele>142.33540040468</ele>
        <time>2022-04-28T19:56:23.202Z</time>
      </trkpt>
      <trkpt lat="47.59688" lon="1.22971">
        <ele>141.81414935108</ele>
        <time>2022-04-28T19:56:29.043Z</time>
      </trkpt>
      <trkpt lat="47.59679" lon="1.22956">
        <ele>141.32259130252</ele>
        <time>2022-04-28T19:56:34.886Z</time>
      </trkpt>
      <trkpt lat="47.59671" lon="1.22953">
        <ele>140.80985819819</ele>
        <time>2022-04-28T19:56:40.731Z</time>
      </trkpt>
      <trkpt lat="47.59664" lon="1.22948">
        <ele>140.26523285352</ele>
        <time>2022-04-28T19:56:46.577Z</time>
      </trkpt>
      <trkpt lat="47.59654" lon="1.22933">
        <ele>139.692977659</ele>
        <time>2022-04-28T19:56:52.426Z</time>
      </trkpt>
      <trkpt lat="47.59613" lon="1.22871">
        <ele>138.49637875393</ele>
        <time>2022-04-28T19:56:58.287Z</time>
      </trkpt>
      <trkpt lat="47.59574" lon="1.22815">
        <ele>137.7709616263</ele>
        <time>2022-04-28T19:57:04.159Z</time>
      </trkpt>
      <trkpt lat="47.5955" lon="1.22776">
        <ele>136.87120817904</ele>
        <time>2022-04-28T19:57:10.038Z</time>
      </trkpt>
      <trkpt lat="47.59544" lon="1.2276">
        <ele>135.81841159997</ele>
        <time>2022-04-28T19:57:15.920Z</time>
      </trkpt>
      <trkpt lat="47.59542" lon="1.22752">
        <ele>134.6251733644</ele>
        <time>2022-04-28T19:57:21.803Z</time>
      </trkpt>
      <trkpt lat="47.59549" lon="1.22758">
        <ele>133.26382123262</ele>
        <time>2022-04-28T19:57:27.687Z</time>
      </trkpt>
      <trkpt lat="47.59559" lon="1.22757">
        <ele>131.72311791497</ele>
        <time>2022-04-28T19:57:33.573Z</time>
      </trkpt>
      <trkpt lat="47.59588" lon="1.22728">
        <ele>129.85491265692</ele>
        <time>2022-04-28T19:57:39.466Z</time>
      </trkpt>
      <trkpt lat="47.5962" lon="1.22698">
        <ele>125.99059279901</ele>
        <time>2022-04-28T19:57:45.367Z</time>
      </trkpt>
      <trkpt lat="47.59636" lon="1.22679">
        <ele>123.8712017964</ele>
        <time>2022-04-28T19:57:51.272Z</time>
      </trkpt>
      <trkpt lat="47.59635" lon="1.22659">
        <ele>121.69974670828</ele>
        <time>2022-04-28T19:57:57.180Z</time>
      </trkpt>
      <trkpt lat="47.59603" lon="1.22563">
        <ele>119.33650994606</ele>
        <time>2022-04-28T19:58:03.102Z</time>
      </trkpt>
      <trkpt lat="47.59584" lon="1.225">
        <ele>116.72868887193</ele>
        <time>2022-04-28T19:58:09.034Z</time>
      </trkpt>
      <trkpt lat="47.59574" lon="1.22479">
        <ele>114.19405970352</ele>
        <time>2022-04-28T19:58:14.969Z</time>
      </trkpt>
      <trkpt lat="47.59553" lon="1.22439">
        <ele>111.48327773918</ele>
        <time>2022-04-28T19:58:20.911Z</time>
      </trkpt>
      <trkpt lat="47.5954" lon="1.22396">
        <ele>108.81695170684</ele>
        <time>2022-04-28T19:58:26.859Z</time>
      </trkpt>
      <trkpt lat="47.59522" lon="1.22343">
        <ele>103.87412401865</ele>
        <time>2022-04-28T19:58:32.815Z</time>
      </trkpt>
      <trkpt lat="47.59498" lon="1.22295">
        <ele>101.43654248873</ele>
        <time>2022-04-28T19:58:38.779Z</time>
      </trkpt>
      <trkpt lat="47.5946" lon="1.22243">
        <ele>99.065793061278</ele>
        <time>2022-04-28T19:58:44.754Z</time>
      </trkpt>
      <trkpt lat="47.59445" lon="1.22211">
        <ele>96.878771378302</ele>
        <time>2022-04-28T19:58:50.734Z</time>
      </trkpt>
      <trkpt lat="47.59439" lon="1.22198">
        <ele>94.865525377401</ele>
        <time>2022-04-28T19:58:56.716Z</time>
      </trkpt>
      <trkpt lat="47.59443" lon="1.22191">
        <ele>92.982395934842</ele>
        <time>2022-04-28T19:59:02.699Z</time>
      </trkpt>
      <trkpt lat="47.59449" lon="1.22162">
        <ele>91.123281412584</ele>
        <time>2022-04-28T19:59:08.686Z</time>
      </trkpt>
      <trkpt lat="47.59455" lon="1.22132">
        <ele>89.555200892265</ele>
        <time>2022-04-28T19:59:14.678Z</time>
      </trkpt>
      <trkpt lat="47.59455" lon="1.22114">
        <ele>88.280190942052</ele>
        <time>2022-04-28T19:59:20.672Z</time>
      </trkpt>
      <trkpt lat="47.59453" lon="1.22099">
        <ele>87.229231689128</ele>
        <time>2022-04-28T19:59:26.668Z</time>
      </trkpt>
      <trkpt lat="47.59444" lon="1.22084">
        <ele>86.427079720973</ele>
        <time>2022-04-28T19:59:32.667Z</time>
      </trkpt>
      <trkpt lat="47.59427" lon="1.22074">
        <ele>85.782561052894</ele>
        <time>2022-04-28T19:59:38.670Z</time>
      </trkpt>
      <trkpt lat="47.59357" lon="1.22036">
        <ele>85.178086036193</ele>
        <time>2022-04-28T19:59:44.688Z</time>
      </trkpt>
      <trkpt lat="47.59324" lon="1.22012">
        <ele>84.983493056197</ele>
        <time>2022-04-28T19:59:50.713Z</time>
      </trkpt>
      <trkpt lat="47.59308" lon="1.21994">
        <ele>84.911406797662</ele>
        <time>2022-04-28T19:59:56.742Z</time>
      </trkpt>
      <trkpt lat="47.59299" lon="1.21991">
        <ele>84.955153240299</ele>
        <time>2022-04-28T20:00:02.773Z</time>
      </trkpt>
      <trkpt lat="47.59283" lon="1.21981">
        <ele>85.11966575034</ele>
        <time>2022-04-28T20:00:08.807Z</time>
      </trkpt>
      <trkpt lat="47.59241" lon="1.21949">
        <ele>85.490310822628</ele>
        <time>2022-04-28T20:00:14.851Z</time>
      </trkpt>
      <trkpt lat="47.59206" lon="1.21914">
        <ele>85.975943936465</ele>
        <time>2022-04-28T20:00:20.903Z</time>
      </trkpt>
      <trkpt lat="47.59179" lon="1.21885">
        <ele>86.524632725086</ele>
        <time>2022-04-28T20:00:26.962Z</time>
      </trkpt>
      <trkpt lat="47.59159" lon="1.21863">
        <ele>87.072963144343</ele>
        <time>2022-04-28T20:00:33.026Z</time>
      </trkpt>
      <trkpt lat="47.59142" lon="1.2184">
        <ele>87.605444217392</ele>
        <time>2022-04-28T20:00:39.094Z</time>
      </trkpt>
      <trkpt lat="47.59104" lon="1.21779">
        <ele>88.762319681678</ele>
        <time>2022-04-28T20:00:45.174Z</time>
      </trkpt>
      <trkpt lat="47.59081" lon="1.21737">
        <ele>89.29525191163</ele>
        <time>2022-04-28T20:00:51.261Z</time>
      </trkpt>
      <trkpt lat="47.59051" lon="1.21673">
        <ele>89.948810197537</ele>
        <time>2022-04-28T20:00:57.358Z</time>
      </trkpt>
      <trkpt lat="47.59026" lon="1.2159">
        <ele>90.516557884726</ele>
        <time>2022-04-28T20:01:03.468Z</time>
      </trkpt>
      <trkpt lat="47.59015" lon="1.21549">
        <ele>91.241236814615</ele>
        <time>2022-04-28T20:01:09.584Z</time>
      </trkpt>
      <trkpt lat="47.59011" lon="1.21523">
        <ele>91.69462063109</ele>
        <time>2022-04-28T20:01:15.703Z</time>
      </trkpt>
      <trkpt lat="47.59009" lon="1.2147">
        <ele>91.955389174181</ele>
        <time>2022-04-28T20:01:21.830Z</time>
      </trkpt>
      <trkpt lat="47.59007" lon="1.21416">
        <ele>92.265416413933</ele>
        <time>2022-04-28T20:01:27.964Z</time>
      </trkpt>
      <trkpt lat="47.59008" lon="1.21364">
        <ele>92.381963317837</ele>
        <time>2022-04-28T20:01:34.105Z</time>
      </trkpt>
      <trkpt lat="47.59016" lon="1.21282">
        <ele>92.381511732134</ele>
        <time>2022-04-28T20:01:40.257Z</time>
      </trkpt>
      <trkpt lat="47.59029" lon="1.21216">
        <ele>92.347112202876</ele>
        <time>2022-04-28T20:01:46.418Z</time>
      </trkpt>
      <trkpt lat="47.59041" lon="1.21175">
        <ele>92.304787059185</ele>
        <time>2022-04-28T20:01:52.586Z</time>
      </trkpt>
      <trkpt lat="47.59058" lon="1.2112">
        <ele>92.064874602708</ele>
        <time>2022-04-28T20:01:58.762Z</time>
      </trkpt>
      <trkpt lat="47.59075" lon="1.21059">
        <ele>91.375529737851</ele>
        <time>2022-04-28T20:02:04.947Z</time>
      </trkpt>
      <trkpt lat="47.59082" lon="1.21022">
        <ele>90.934846709385</ele>
        <time>2022-04-28T20:02:11.137Z</time>
      </trkpt>
      <trkpt lat="47.59082" lon="1.2101">
        <ele>90.454163709854</ele>
        <time>2022-04-28T20:02:17.328Z</time>
      </trkpt>
      <trkpt lat="47.59113" lon="1.20942">
        <ele>89.736652229329</ele>
        <time>2022-04-28T20:02:23.531Z</time>
      </trkpt>
      <trkpt lat="47.59136" lon="1.20892">
        <ele>89.130023696847</ele>
        <time>2022-04-28T20:02:29.742Z</time>
      </trkpt>
      <trkpt lat="47.59147" lon="1.2086">
        <ele>88.58679258842</ele>
        <time>2022-04-28T20:02:35.958Z</time>
      </trkpt>
      <trkpt lat="47.59149" lon="1.20853">
        <ele>87.969385309352</ele>
        <time>2022-04-28T20:02:42.175Z</time>
      </trkpt>
      <trkpt lat="47.59145" lon="1.20847">
        <ele>87.369529143555</ele>
        <time>2022-04-28T20:02:48.393Z</time>
      </trkpt>
      <trkpt lat="47.5914" lon="1.20841">
        <ele>86.756810271538</ele>
        <time>2022-04-28T20:02:54.612Z</time>
      </trkpt>
      <trkpt lat="47.59114" lon="1.20804">
        <ele>86.078100802955</ele>
        <time>2022-04-28T20:03:00.838Z</time>
      </trkpt>
      <trkpt lat="47.59085" lon="1.20771">
        <ele>85.433617602191</ele>
        <time>2022-04-28T20:03:07.072Z</time>
      </trkpt>
      <trkpt lat="47.59073" lon="1.20761">
        <ele>84.833655427601</ele>
        <time>2022-04-28T20:03:13.308Z</time>
      </trkpt>
      <trkpt lat="47.59057" lon="1.20752">
        <ele>83.649896106927</ele>
        <time>2022-04-28T20:03:19.548Z</time>
      </trkpt>
      <trkpt lat="47.59043" lon="1.20745">
        <ele>83.014920410969</ele>
        <time>2022-04-28T20:03:25.791Z</time>
      </trkpt>
      <trkpt lat="47.59018" lon="1.20735">
        <ele>82.373130701813</ele>
        <time>2022-04-28T20:03:32.039Z</time>
      </trkpt>
      <trkpt lat="47.59" lon="1.20731">
        <ele>81.826288695298</ele>
        <time>2022-04-28T20:03:38.291Z</time>
      </trkpt>
      <trkpt lat="47.58979" lon="1.20729">
        <ele>81.398626284634</ele>
        <time>2022-04-28T20:03:44.547Z</time>
      </trkpt>
      <trkpt lat="47.58928" lon="1.20731">
        <ele>80.950435726432</ele>
        <time>2022-04-28T20:03:50.813Z</time>
      </trkpt>
      <trkpt lat="47.58897" lon="1.20731">
        <ele>80.539038513819</ele>
        <time>2022-04-28T20:03:57.085Z</time>
      </trkpt>
      <trkpt lat="47.58822" lon="1.20728">
        <ele>80.158090329994</ele>
        <time>2022-04-28T20:04:03.372Z</time>
      </trkpt>
      <trkpt lat="47.58808" lon="1.20729">
        <ele>79.88503954025</ele>
        <time>2022-04-28T20:04:09.662Z</time>
      </trkpt>
      <trkpt lat="47.58765" lon="1.20742">
        <ele>79.736654660872</ele>
        <time>2022-04-28T20:04:15.961Z</time>
      </trkpt>
      <trkpt lat="47.58745" lon="1.20747">
        <ele>79.643339030064</ele>
        <time>2022-04-28T20:04:22.264Z</time>
      </trkpt>
      <trkpt lat="47.58709" lon="1.20757">
        <ele>79.722970511091</ele>
        <time>2022-04-28T20:04:28.574Z</time>
      </trkpt>
      <trkpt lat="47.58675" lon="1.20769">
        <ele>79.862738096773</ele>
        <time>2022-04-28T20:04:34.891Z</time>
      </trkpt>
      <trkpt lat="47.58619" lon="1.20786">
        <ele>79.747284825047</ele>
        <time>2022-04-28T20:04:41.220Z</time>
      </trkpt>
      <trkpt lat="47.58605" lon="1.20794">
        <ele>79.898203688798</ele>
        <time>2022-04-28T20:04:47.552Z</time>
      </trkpt>
      <trkpt lat="47.58597" lon="1.20804">
        <ele>80.198013779131</ele>
        <time>2022-04-28T20:04:53.886Z</time>
      </trkpt>
      <trkpt lat="47.58589" lon="1.20822">
        <ele>80.586099302445</ele>
        <time>2022-04-28T20:05:00.223Z</time>
      </trkpt>
      <trkpt lat="47.58584" lon="1.20836">
        <ele>81.082409075086</ele>
        <time>2022-04-28T20:05:06.562Z</time>
      </trkpt>
      <trkpt lat="47.58584" lon="1.20824">
        <ele>81.577453311894</ele>
        <time>2022-04-28T20:05:12.902Z</time>
      </trkpt>
      <trkpt lat="47.58584" lon="1.20814">
        <ele>82.174898879498</ele>
        <time>2022-04-28T20:05:19.244Z</time>
      </trkpt>
      <trkpt lat="47.58584" lon="1.20808">
        <ele>82.852596441882</ele>
        <time>2022-04-28T20:05:25.587Z</time>
      </trkpt>
      <trkpt lat="47.58577" lon="1.20794">
        <ele>83.617914547808</ele>
        <time>2022-04-28T20:05:31.932Z</time>
      </trkpt>
      <trkpt lat="47.58562" lon="1.20771">
        <ele>84.498856568445</ele>
        <time>2022-04-28T20:05:38.281Z</time>
      </trkpt>
      <trkpt lat="47.58548" lon="1.20757">
        <ele>85.519575974503</ele>
        <time>2022-04-28T20:05:44.634Z</time>
      </trkpt>
      <trkpt lat="47.5854" lon="1.2074">
        <ele>86.561976634771</ele>
        <time>2022-04-28T20:05:50.989Z</time>
      </trkpt>
      <trkpt lat="47.58538" lon="1.20732">
        <ele>87.545361466922</ele>
        <time>2022-04-28T20:05:57.346Z</time>
      </trkpt>
      <trkpt lat="47.58528" lon="1.20707">
        <ele>89.632882566126</ele>
        <time>2022-04-28T20:06:03.707Z</time>
      </trkpt>
      <trkpt lat="47.5852" lon="1.20691">
        <ele>90.76700606553</ele>
        <time>2022-04-28T20:06:10.070Z</time>
      </trkpt>
      <trkpt lat="47.58515" lon="1.20684">
        <ele>91.755646276262</ele>
        <time>2022-04-28T20:06:16.435Z</time>
      </trkpt>
      <trkpt lat="47.58524" lon="1.20672">
        <ele>92.418124011363</ele>
        <time>2022-04-28T20:06:22.802Z</time>
      </trkpt>
      <trkpt lat="47.58538" lon="1.20651">
        <ele>93.023486911581</ele>
        <time>2022-04-28T20:06:29.173Z</time>
      </trkpt>
      <trkpt lat="47.58544" lon="1.20641">
        <ele>93.623895862895</ele>
        <time>2022-04-28T20:06:35.546Z</time>
      </trkpt>
      <trkpt lat="47.58565" lon="1.206">
        <ele>94.159463987192</ele>
        <time>2022-04-28T20:06:41.926Z</time>
      </trkpt>
      <trkpt lat="47.58624" lon="1.20501">
        <ele>94.736700948379</ele>
        <time>2022-04-28T20:06:48.324Z</time>
      </trkpt>
      <trkpt lat="47.58654" lon="1.20454">
        <ele>95.166652549778</ele>
        <time>2022-04-28T20:06:54.730Z</time>
      </trkpt>
      <trkpt lat="47.58683" lon="1.20417">
        <ele>95.469417473781</ele>
        <time>2022-04-28T20:07:01.144Z</time>
      </trkpt>
      <trkpt lat="47.58735" lon="1.20359">
        <ele>95.845009803388</ele>
        <time>2022-04-28T20:07:07.571Z</time>
      </trkpt>
      <trkpt lat="47.58766" lon="1.20325">
        <ele>95.910154536886</ele>
        <time>2022-04-28T20:07:14.006Z</time>
      </trkpt>
      <trkpt lat="47.58823" lon="1.20276">
        <ele>95.600998929085</ele>
        <time>2022-04-28T20:07:20.454Z</time>
      </trkpt>
      <trkpt lat="47.58839" lon="1.20263">
        <ele>95.367291538589</ele>
        <time>2022-04-28T20:07:26.906Z</time>
      </trkpt>
      <trkpt lat="47.58853" lon="1.20255">
        <ele>95.32752537583</ele>
        <time>2022-04-28T20:07:33.361Z</time>
      </trkpt>
      <trkpt lat="47.58895" lon="1.20241">
        <ele>95.184617126574</ele>
        <time>2022-04-28T20:07:39.824Z</time>
      </trkpt>
      <trkpt lat="47.58901" lon="1.20238">
        <ele>94.968413772386</ele>
        <time>2022-04-28T20:07:46.289Z</time>
      </trkpt>
      <trkpt lat="47.5893" lon="1.20236">
        <ele>94.604624254879</ele>
        <time>2022-04-28T20:07:52.759Z</time>
      </trkpt>
      <trkpt lat="47.58972" lon="1.2024">
        <ele>94.129005286107</ele>
        <time>2022-04-28T20:07:59.238Z</time>
      </trkpt>
      <trkpt lat="47.58985" lon="1.20241">
        <ele>93.779005678501</ele>
        <time>2022-04-28T20:08:05.719Z</time>
      </trkpt>
      <trkpt lat="47.58995" lon="1.20239">
        <ele>93.444517986486</ele>
        <time>2022-04-28T20:08:12.202Z</time>
      </trkpt>
      <trkpt lat="47.59029" lon="1.20227">
        <ele>93.31974891697</ele>
        <time>2022-04-28T20:08:18.692Z</time>
      </trkpt>
      <trkpt lat="47.59037" lon="1.20227">
        <ele>92.917467910493</ele>
        <time>2022-04-28T20:08:25.184Z</time>
      </trkpt>
      <trkpt lat="47.59055" lon="1.20232">
        <ele>92.468599629081</ele>
        <time>2022-04-28T20:08:31.680Z</time>
      </trkpt>
      <trkpt lat="47.59106" lon="1.20256">
        <ele>91.721299525369</ele>
        <time>2022-04-28T20:08:38.186Z</time>
      </trkpt>
      <trkpt lat="47.59144" lon="1.20283">
        <ele>91.059196959419</ele>
        <time>2022-04-28T20:08:44.701Z</time>
      </trkpt>
      <trkpt lat="47.59183" lon="1.20325">
        <ele>89.995502970488</ele>
        <time>2022-04-28T20:08:51.225Z</time>
      </trkpt>
      <trkpt lat="47.59209" lon="1.20354">
        <ele>89.623674669402</ele>
        <time>2022-04-28T20:08:57.756Z</time>
      </trkpt>
      <trkpt lat="47.5923" lon="1.20382">
        <ele>89.144276248196</ele>
        <time>2022-04-28T20:09:04.293Z</time>
      </trkpt>
      <trkpt lat="47.59256" lon="1.2043">
        <ele>88.525201949314</ele>
        <time>2022-04-28T20:09:10.838Z</time>
      </trkpt>
      <trkpt lat="47.59276" lon="1.20477">
        <ele>87.72390754019</ele>
        <time>2022-04-28T20:09:17.391Z</time>
      </trkpt>
      <trkpt lat="47.59285" lon="1.20515">
        <ele>87.027978128581</ele>
        <time>2022-04-28T20:09:23.949Z</time>
      </trkpt>
      <trkpt lat="47.59287" lon="1.20549">
        <ele>86.404046769734</ele>
        <time>2022-04-28T20:09:30.512Z</time>
      </trkpt>
      <trkpt lat="47.59287" lon="1.20566">
        <ele>85.839697590754</ele>
        <time>2022-04-28T20:09:37.077Z</time>
      </trkpt>
      <trkpt lat="47.59291" lon="1.20586">
        <ele>85.343629541967</ele>
        <time>2022-04-28T20:09:43.645Z</time>
      </trkpt>
      <trkpt lat="47.59304" lon="1.20642">
        <ele>84.944895746336</ele>
        <time>2022-04-28T20:09:50.221Z</time>
      </trkpt>
      <trkpt lat="47.59309" lon="1.20694">
        <ele>84.611173214668</ele>
        <time>2022-04-28T20:09:56.804Z</time>
      </trkpt>
      <trkpt lat="47.59309" lon="1.2073">
        <ele>84.217828794178</ele>
        <time>2022-04-28T20:10:03.392Z</time>
      </trkpt>
      <trkpt lat="47.59308" lon="1.20764">
        <ele>83.831076228191</ele>
        <time>2022-04-28T20:10:09.984Z</time>
      </trkpt>
      <trkpt lat="47.59304" lon="1.20799">
        <ele>83.308611416042</ele>
        <time>2022-04-28T20:10:16.581Z</time>
      </trkpt>
      <trkpt lat="47.59304" lon="1.2086">
        <ele>82.904472418685</ele>
        <time>2022-04-28T20:10:23.186Z</time>
      </trkpt>
      <trkpt lat="47.59306" lon="1.20952">
        <ele>82.621160399213</ele>
        <time>2022-04-28T20:10:29.804Z</time>
      </trkpt>
      <trkpt lat="47.59308" lon="1.20972">
        <ele>82.363707799403</ele>
        <time>2022-04-28T20:10:36.425Z</time>
      </trkpt>
      <trkpt lat="47.59312" lon="1.20995">
        <ele>82.191581898367</ele>
        <time>2022-04-28T20:10:43.049Z</time>
      </trkpt>
      <trkpt lat="47.5931" lon="1.21004">
        <ele>82.010184450084</ele>
        <time>2022-04-28T20:10:49.674Z</time>
      </trkpt>
      <trkpt lat="47.59324" lon="1.21056">
        <ele>82.028656964786</ele>
        <time>2022-04-28T20:10:56.307Z</time>
      </trkpt>
      <trkpt lat="47.59329" lon="1.21088">
        <ele>82.049591765853</ele>
        <time>2022-04-28T20:11:02.944Z</time>
      </trkpt>
      <trkpt lat="47.59333" lon="1.21115">
        <ele>82.126098823062</ele>
        <time>2022-04-28T20:11:09.585Z</time>
      </trkpt>
      <trkpt lat="47.59337" lon="1.2114">
        <ele>82.229944831358</ele>
        <time>2022-04-28T20:11:16.229Z</time>
      </trkpt>
      <trkpt lat="47.59334" lon="1.21147">
        <ele>82.352465617935</ele>
        <time>2022-04-28T20:11:22.874Z</time>
      </trkpt>
      <trkpt lat="47.59333" lon="1.21151">
        <ele>82.556801277525</ele>
        <time>2022-04-28T20:11:29.520Z</time>
      </trkpt>
      <trkpt lat="47.59332" lon="1.21199">
        <ele>82.800827980258</ele>
        <time>2022-04-28T20:11:36.173Z</time>
      </trkpt>
      <trkpt lat="47.59335" lon="1.21275">
        <ele>83.042681146759</ele>
        <time>2022-04-28T20:11:42.836Z</time>
      </trkpt>
      <trkpt lat="47.59344" lon="1.21331">
        <ele>83.54778956957</ele>
        <time>2022-04-28T20:11:49.507Z</time>
      </trkpt>
      <trkpt lat="47.59361" lon="1.2139">
        <ele>84.10245104573</ele>
        <time>2022-04-28T20:11:56.186Z</time>
      </trkpt>
      <trkpt lat="47.59384" lon="1.21466">
        <ele>84.90198806992</ele>
        <time>2022-04-28T20:12:02.877Z</time>
      </trkpt>
      <trkpt lat="47.59393" lon="1.21503">
        <ele>86.539082599767</ele>
        <time>2022-04-28T20:12:09.573Z</time>
      </trkpt>
      <trkpt lat="47.59395" lon="1.2153">
        <ele>87.455175716725</ele>
        <time>2022-04-28T20:12:16.273Z</time>
      </trkpt>
      <trkpt lat="47.59394" lon="1.21539">
        <ele>88.510437957534</ele>
        <time>2022-04-28T20:12:22.974Z</time>
      </trkpt>
      <trkpt lat="47.59398" lon="1.21532">
        <ele>89.721798756508</ele>
        <time>2022-04-28T20:12:29.676Z</time>
      </trkpt>
      <trkpt lat="47.59404" lon="1.21523">
        <ele>91.031311167704</ele>
        <time>2022-04-28T20:12:36.380Z</time>
      </trkpt>
      <trkpt lat="47.59414" lon="1.21496">
        <ele>92.485918511454</ele>
        <time>2022-04-28T20:12:43.088Z</time>
      </trkpt>
      <trkpt lat="47.5942" lon="1.21472">
        <ele>94.088015346389</ele>
        <time>2022-04-28T20:12:49.799Z</time>
      </trkpt>
      <trkpt lat="47.59426" lon="1.21457">
        <ele>95.768456384662</ele>
        <time>2022-04-28T20:12:56.513Z</time>
      </trkpt>
      <trkpt lat="47.59435" lon="1.21437">
        <ele>97.60594456942</ele>
        <time>2022-04-28T20:13:03.230Z</time>
      </trkpt>
      <trkpt lat="47.59454" lon="1.21389">
        <ele>99.765261752643</ele>
        <time>2022-04-28T20:13:09.955Z</time>
      </trkpt>
      <trkpt lat="47.59464" lon="1.2136">
        <ele>103.56656357178</ele>
        <time>2022-04-28T20:13:16.684Z</time>
      </trkpt>
      <trkpt lat="47.59475" lon="1.21338">
        <ele>105.56316598816</ele>
        <time>2022-04-28T20:13:23.417Z</time>
      </trkpt>
      <trkpt lat="47.59481" lon="1.21329">
        <ele>107.43872263326</ele>
        <time>2022-04-28T20:13:30.151Z</time>
      </trkpt>
      <trkpt lat="47.59488" lon="1.21323">
        <ele>109.31202202351</ele>
        <time>2022-04-28T20:13:36.887Z</time>
      </trkpt>
      <trkpt lat="47.59512" lon="1.21312">
        <ele>111.23198929709</ele>
        <time>2022-04-28T20:13:43.628Z</time>
      </trkpt>
      <trkpt lat="47.59527" lon="1.21307">
        <ele>113.00941826009</ele>
        <time>2022-04-28T20:13:50.372Z</time>
      </trkpt>
      <trkpt lat="47.59541" lon="1.21297">
        <ele>114.7477190357</ele>
        <time>2022-04-28T20:13:57.119Z</time>
      </trkpt>
      <trkpt lat="47.59562" lon="1.21276">
        <ele>116.4086017673</ele>
        <time>2022-04-28T20:14:03.871Z</time>
      </trkpt>
      <trkpt lat="47.59566" lon="1.21264">
        <ele>117.93350502874</ele>
        <time>2022-04-28T20:14:10.625Z</time>
      </trkpt>
      <trkpt lat="47.59597" lon="1.21237">
        <ele>119.52060445303</ele>
        <time>2022-04-28T20:14:17.386Z</time>
      </trkpt>
      <trkpt lat="47.59653" lon="1.21172">
        <ele>121.01657520795</ele>
        <time>2022-04-28T20:14:24.162Z</time>
      </trkpt>
      <trkpt lat="47.59685" lon="1.21131">
        <ele>122.28401796559</ele>
        <time>2022-04-28T20:14:30.946Z</time>
      </trkpt>
      <trkpt lat="47.59705" lon="1.21093">
        <ele>123.45949463889</ele>
        <time>2022-04-28T20:14:37.737Z</time>
      </trkpt>
      <trkpt lat="47.59709" lon="1.21077">
        <ele>124.52852112264</ele>
        <time>2022-04-28T20:14:44.530Z</time>
      </trkpt>
      <trkpt lat="47.59709" lon="1.21057">
        <ele>125.51767533663</ele>
        <time>2022-04-28T20:14:51.326Z</time>
      </trkpt>
      <trkpt lat="47.59704" lon="1.21011">
        <ele>126.36713888535</ele>
        <time>2022-04-28T20:14:58.128Z</time>
      </trkpt>
      <trkpt lat="47.59698" lon="1.20984">
        <ele>127.13991745338</ele>
        <time>2022-04-28T20:15:04.934Z</time>
      </trkpt>
      <trkpt lat="47.59703" lon="1.20975">
        <ele>127.85079580521</ele>
        <time>2022-04-28T20:15:11.741Z</time>
      </trkpt>
      <trkpt lat="47.5971" lon="1.20938">
        <ele>128.48260435794</ele>
        <time>2022-04-28T20:15:18.553Z</time>
      </trkpt>
      <trkpt lat="47.5971" lon="1.20937">
        <ele>129.00218478541</ele>
        <time>2022-04-28T20:15:25.366Z</time>
      </trkpt>
      <trkpt lat="47.59716" lon="1.20917">
        <ele>129.87260576377</ele>
        <time>2022-04-28T20:15:32.182Z</time>
      </trkpt>
      <trkpt lat="47.59744" lon="1.20857">
        <ele>130.1426450139</ele>
        <time>2022-04-28T20:15:39.007Z</time>
      </trkpt>
      <trkpt lat="47.59757" lon="1.2082">
        <ele>130.32137485403</ele>
        <time>2022-04-28T20:15:45.838Z</time>
      </trkpt>
      <trkpt lat="47.59772" lon="1.20784">
        <ele>130.54856578919</ele>
        <time>2022-04-28T20:15:52.675Z</time>
      </trkpt>
      <trkpt lat="47.59788" lon="1.20745">
        <ele>130.73437026046</ele>
        <time>2022-04-28T20:15:59.518Z</time>
      </trkpt>
      <trkpt lat="47.59804" lon="1.20702">
        <ele>130.89364352475</ele>
        <time>2022-04-28T20:16:06.368Z</time>
      </trkpt>
      <trkpt lat="47.59808" lon="1.20684">
        <ele>130.96014195069</ele>
        <time>2022-04-28T20:16:13.220Z</time>
      </trkpt>
      <trkpt lat="47.59811" lon="1.2067">
        <ele>130.94193716926</ele>
        <time>2022-04-28T20:16:20.074Z</time>
      </trkpt>
      <trkpt lat="47.59813" lon="1.20647">
        <ele>130.87582009123</ele>
        <time>2022-04-28T20:16:26.931Z</time>
      </trkpt>
      <trkpt lat="47.59816" lon="1.20567">
        <ele>130.8820659206</ele>
        <time>2022-04-28T20:16:33.799Z</time>
      </trkpt>
      <trkpt lat="47.59819" lon="1.20534">
        <ele>130.75604353536</ele>
        <time>2022-04-28T20:16:40.672Z</time>
      </trkpt>
      <trkpt lat="47.59824" lon="1.2051">
        <ele>130.57027402296</ele>
        <time>2022-04-28T20:16:47.548Z</time>
      </trkpt>
      <trkpt lat="47.59829" lon="1.20496">
        <ele>130.31622100476</ele>
        <time>2022-04-28T20:16:54.426Z</time>
      </trkpt>
      <trkpt lat="47.59854" lon="1.2045">
        <ele>129.96031071721</ele>
        <time>2022-04-28T20:17:01.312Z</time>
      </trkpt>
      <trkpt lat="47.59864" lon="1.20431">
        <ele>129.61400988271</ele>
        <time>2022-04-28T20:17:08.201Z</time>
      </trkpt>
      <trkpt lat="47.59871" lon="1.20412">
        <ele>129.18312024852</ele>
        <time>2022-04-28T20:17:15.093Z</time>
      </trkpt>
      <trkpt lat="47.59871" lon="1.20395">
        <ele>128.75838054701</ele>
        <time>2022-04-28T20:17:21.988Z</time>
      </trkpt>
      <trkpt lat="47.59867" lon="1.20351">
        <ele>128.32041680649</ele>
        <time>2022-04-28T20:17:28.889Z</time>
      </trkpt>
      <trkpt lat="47.59857" lon="1.20224">
        <ele>127.83610753668</ele>
        <time>2022-04-28T20:17:35.807Z</time>
      </trkpt>
      <trkpt lat="47.59855" lon="1.20193">
        <ele>127.33751731007</ele>
        <time>2022-04-28T20:17:42.729Z</time>
      </trkpt>
      <trkpt lat="47.59857" lon="1.20182">
        <ele>126.86177599175</ele>
        <time>2022-04-28T20:17:49.653Z</time>
      </trkpt>
      <trkpt lat="47.59866" lon="1.20165">
        <ele>126.37782940312</ele>
        <time>2022-04-28T20:17:56.580Z</time>
      </trkpt>
      <trkpt lat="47.59872" lon="1.20156">
        <ele>125.92434154773</ele>
        <time>2022-04-28T20:18:03.508Z</time>
      </trkpt>
      <trkpt lat="47.59892" lon="1.20124">
        <ele>125.40099719044</ele>
        <time>2022-04-28T20:18:10.442Z</time>
      </trkpt>
      <trkpt lat="47.59925" lon="1.20052">
        <ele>124.39766361491</ele>
        <time>2022-04-28T20:18:17.388Z</time>
      </trkpt>
      <trkpt lat="47.59945" lon="1.20004">
        <ele>124.00689517331</ele>
        <time>2022-04-28T20:18:24.342Z</time>
      </trkpt>
      <trkpt lat="47.5995" lon="1.19987">
        <ele>123.67635856905</ele>
        <time>2022-04-28T20:18:31.298Z</time>
      </trkpt>
      <trkpt lat="47.59953" lon="1.1996">
        <ele>123.38758677301</ele>
        <time>2022-04-28T20:18:38.258Z</time>
      </trkpt>
      <trkpt lat="47.59951" lon="1.19915">
        <ele>123.13590785152</ele>
        <time>2022-04-28T20:18:45.224Z</time>
      </trkpt>
      <trkpt lat="47.59937" lon="1.19844">
        <ele>122.82341475985</ele>
        <time>2022-04-28T20:18:52.200Z</time>
      </trkpt>
      <trkpt lat="47.59932" lon="1.19822">
        <ele>122.5630004348</ele>
        <time>2022-04-28T20:18:59.179Z</time>
      </trkpt>
      <trkpt lat="47.59935" lon="1.19815">
        <ele>122.30082164268</ele>
        <time>2022-04-28T20:19:06.159Z</time>
      </trkpt>
      <trkpt lat="47.59942" lon="1.19806">
        <ele>122.04274316115</ele>
        <time>2022-04-28T20:19:13.141Z</time>
      </trkpt>
      <trkpt lat="47.59946" lon="1.19796">
        <ele>121.80601120001</ele>
        <time>2022-04-28T20:19:20.125Z</time>
      </trkpt>
      <trkpt lat="47.59984" lon="1.19734">
        <ele>121.62853038563</ele>
        <time>2022-04-28T20:19:27.120Z</time>
      </trkpt>
      <trkpt lat="47.60008" lon="1.19694">
        <ele>121.1320565751</ele>
        <time>2022-04-28T20:19:34.122Z</time>
      </trkpt>
      <trkpt lat="47.60033" lon="1.19645">
        <ele>120.8326963604</ele>
        <time>2022-04-28T20:19:41.133Z</time>
      </trkpt>
      <trkpt lat="47.60086" lon="1.1954">
        <ele>120.5589422289</ele>
        <time>2022-04-28T20:19:48.161Z</time>
      </trkpt>
      <trkpt lat="47.60103" lon="1.19508">
        <ele>120.3181948091</ele>
        <time>2022-04-28T20:19:55.195Z</time>
      </trkpt>
      <trkpt lat="47.60141" lon="1.19469">
        <ele>120.08712126442</ele>
        <time>2022-04-28T20:20:02.238Z</time>
      </trkpt>
      <trkpt lat="47.60166" lon="1.19443">
        <ele>119.90079215177</ele>
        <time>2022-04-28T20:20:09.287Z</time>
      </trkpt>
      <trkpt lat="47.60182" lon="1.19419">
        <ele>119.63491128486</ele>
        <time>2022-04-28T20:20:16.341Z</time>
      </trkpt>
      <trkpt lat="47.60202" lon="1.19366">
        <ele>119.40509044941</ele>
        <time>2022-04-28T20:20:23.403Z</time>
      </trkpt>
      <trkpt lat="47.60224" lon="1.19301">
        <ele>119.24186162513</ele>
        <time>2022-04-28T20:20:30.475Z</time>
      </trkpt>
      <trkpt lat="47.60235" lon="1.19276">
        <ele>118.85183464541</ele>
        <time>2022-04-28T20:20:37.551Z</time>
      </trkpt>
      <trkpt lat="47.60246" lon="1.19259">
        <ele>118.49908997051</ele>
        <time>2022-04-28T20:20:44.630Z</time>
      </trkpt>
      <trkpt lat="47.6026" lon="1.19236">
        <ele>118.13729938802</ele>
        <time>2022-04-28T20:20:51.713Z</time>
      </trkpt>
      <trkpt lat="47.60272" lon="1.19222">
        <ele>117.78579632018</ele>
        <time>2022-04-28T20:20:58.799Z</time>
      </trkpt>
      <trkpt lat="47.6031" lon="1.1918">
        <ele>117.37329190071</ele>
        <time>2022-04-28T20:21:05.895Z</time>
      </trkpt>
      <trkpt lat="47.60328" lon="1.19157">
        <ele>117.0004403516</ele>
        <time>2022-04-28T20:21:12.996Z</time>
      </trkpt>
      <trkpt lat="47.6034" lon="1.19137">
        <ele>116.59521394873</ele>
        <time>2022-04-28T20:21:20.100Z</time>
      </trkpt>
      <trkpt lat="47.60356" lon="1.19106">
        <ele>116.2171567328</ele>
        <time>2022-04-28T20:21:27.209Z</time>
      </trkpt>
      <trkpt lat="47.6038" lon="1.19046">
        <ele>115.89961838942</ele>
        <time>2022-04-28T20:21:34.328Z</time>
      </trkpt>
      <trkpt lat="47.60387" lon="1.19026">
        <ele>115.61060741231</ele>
        <time>2022-04-28T20:21:41.450Z</time>
      </trkpt>
      <trkpt lat="47.60402" lon="1.18995">
        <ele>115.33817653414</ele>
        <time>2022-04-28T20:21:48.577Z</time>
      </trkpt>
      <trkpt lat="47.60428" lon="1.18942">
        <ele>115.13443229819</ele>
        <time>2022-04-28T20:21:55.713Z</time>
      </trkpt>
      <trkpt lat="47.60442" lon="1.18918">
        <ele>114.81390694921</ele>
        <time>2022-04-28T20:22:02.853Z</time>
      </trkpt>
      <trkpt lat="47.60453" lon="1.18905">
        <ele>114.56399017337</ele>
        <time>2022-04-28T20:22:09.996Z</time>
      </trkpt>
      <trkpt lat="47.60477" lon="1.18883">
        <ele>114.37025280855</ele>
        <time>2022-04-28T20:22:17.145Z</time>
      </trkpt>
      <trkpt lat="47.6049" lon="1.18872">
        <ele>114.200365017</ele>
        <time>2022-04-28T20:22:24.297Z</time>
      </trkpt>
      <trkpt lat="47.60505" lon="1.18855">
        <ele>114.05886676925</ele>
        <time>2022-04-28T20:22:31.452Z</time>
      </trkpt>
      <trkpt lat="47.60518" lon="1.1884">
        <ele>113.87880604571</ele>
        <time>2022-04-28T20:22:38.611Z</time>
      </trkpt>
      <trkpt lat="47.6052" lon="1.18836">
        <ele>113.77582922945</ele>
        <time>2022-04-28T20:22:45.770Z</time>
      </trkpt>
      <trkpt lat="47.60589" lon="1.18781">
        <ele>113.78969625107</ele>
        <time>2022-04-28T20:22:52.945Z</time>
      </trkpt>
      <trkpt lat="47.60624" lon="1.18751">
        <ele>113.72295468711</ele>
        <time>2022-04-28T20:23:00.128Z</time>
      </trkpt>
      <trkpt lat="47.60627" lon="1.18741">
        <ele>113.66425758766</ele>
        <time>2022-04-28T20:23:07.313Z</time>
      </trkpt>
      <trkpt lat="47.60626" lon="1.18731">
        <ele>113.64298358802</ele>
        <time>2022-04-28T20:23:14.499Z</time>
      </trkpt>
      <trkpt lat="47.60616" lon="1.18697">
        <ele>113.71115037237</ele>
        <time>2022-04-28T20:23:21.690Z</time>
      </trkpt>
      <trkpt lat="47.60606" lon="1.18667">
        <ele>113.80507425568</ele>
        <time>2022-04-28T20:23:28.886Z</time>
      </trkpt>
      <trkpt lat="47.6059" lon="1.18624">
        <ele>113.86597835183</ele>
        <time>2022-04-28T20:23:36.088Z</time>
      </trkpt>
      <trkpt lat="47.60581" lon="1.18592">
        <ele>113.83100209242</ele>
        <time>2022-04-28T20:23:43.295Z</time>
      </trkpt>
      <trkpt lat="47.60577" lon="1.18564">
        <ele>113.82805489544</ele>
        <time>2022-04-28T20:23:50.506Z</time>
      </trkpt>
      <trkpt lat="47.60578" lon="1.18554">
        <ele>113.85139490512</ele>
        <time>2022-04-28T20:23:57.718Z</time>
      </trkpt>
      <trkpt lat="47.60581" lon="1.18548">
        <ele>113.89550926902</ele>
        <time>2022-04-28T20:24:04.931Z</time>
      </trkpt>
      <trkpt lat="47.60616" lon="1.18525">
        <ele>113.9175688374</ele>
        <time>2022-04-28T20:24:12.152Z</time>
      </trkpt>
      <trkpt lat="47.60621" lon="1.18516">
        <ele>113.95723491792</ele>
        <time>2022-04-28T20:24:19.374Z</time>
      </trkpt>
      <trkpt lat="47.60621" lon="1.18504">
        <ele>114.04015391193</ele>
        <time>2022-04-28T20:24:26.598Z</time>
      </trkpt>
      <trkpt lat="47.60618" lon="1.1845">
        <ele>114.18468452279</ele>
        <time>2022-04-28T20:24:33.829Z</time>
      </trkpt>
      <trkpt lat="47.60618" lon="1.18424">
        <ele>114.36731349412</ele>
        <time>2022-04-28T20:24:41.064Z</time>
      </trkpt>
      <trkpt lat="47.6062" lon="1.18413">
        <ele>114.53401526453</ele>
        <time>2022-04-28T20:24:48.300Z</time>
      </trkpt>
      <trkpt lat="47.60618" lon="1.18391">
        <ele>114.78033205989</ele>
        <time>2022-04-28T20:24:55.539Z</time>
      </trkpt>
      <trkpt lat="47.60613" lon="1.18363">
        <ele>115.03095159716</ele>
        <time>2022-04-28T20:25:02.782Z</time>
      </trkpt>
      <trkpt lat="47.60627" lon="1.18288">
        <ele>115.23499551555</ele>
        <time>2022-04-28T20:25:10.036Z</time>
      </trkpt>
      <trkpt lat="47.60637" lon="1.18236">
        <ele>115.5012390361</ele>
        <time>2022-04-28T20:25:17.297Z</time>
      </trkpt>
      <trkpt lat="47.60653" lon="1.18179">
        <ele>115.83383518299</ele>
        <time>2022-04-28T20:25:24.567Z</time>
      </trkpt>
      <trkpt lat="47.60655" lon="1.18173">
        <ele>116.10909886301</ele>
        <time>2022-04-28T20:25:31.837Z</time>
      </trkpt>
      <trkpt lat="47.60694" lon="1.18067">
        <ele>116.78893620943</ele>
        <time>2022-04-28T20:25:39.124Z</time>
      </trkpt>
      <trkpt lat="47.60713" lon="1.18006">
        <ele>117.25215285474</ele>
        <time>2022-04-28T20:25:46.420Z</time>
      </trkpt>
      <trkpt lat="47.60727" lon="1.1797">
        <ele>117.51219389183</ele>
        <time>2022-04-28T20:25:53.722Z</time>
      </trkpt>
      <trkpt lat="47.60744" lon="1.17923">
        <ele>117.62251707725</ele>
        <time>2022-04-28T20:26:01.031Z</time>
      </trkpt>
      <trkpt lat="47.60747" lon="1.17904">
        <ele>117.87111096106</ele>
        <time>2022-04-28T20:26:08.342Z</time>
      </trkpt>
      <trkpt lat="47.6075" lon="1.17832">
        <ele>118.25828888506</ele>
        <time>2022-04-28T20:26:15.663Z</time>
      </trkpt>
      <trkpt lat="47.60746" lon="1.17803">
        <ele>118.60489605151</ele>
        <time>2022-04-28T20:26:22.988Z</time>
      </trkpt>
      <trkpt lat="47.60742" lon="1.17784">
        <ele>118.93166855011</ele>
        <time>2022-04-28T20:26:30.316Z</time>
      </trkpt>
      <trkpt lat="47.60736" lon="1.17761">
        <ele>119.27511602912</ele>
        <time>2022-04-28T20:26:37.647Z</time>
      </trkpt>
      <trkpt lat="47.60737" lon="1.17684">
        <ele>119.48856429754</ele>
        <time>2022-04-28T20:26:44.989Z</time>
      </trkpt>
      <trkpt lat="47.60734" lon="1.17635">
        <ele>119.67055122877</ele>
        <time>2022-04-28T20:26:52.337Z</time>
      </trkpt>
      <trkpt lat="47.60736" lon="1.17501">
        <ele>120.15488033202</ele>
        <time>2022-04-28T20:26:59.703Z</time>
      </trkpt>
      <trkpt lat="47.60734" lon="1.1738">
        <ele>120.39427479817</ele>
        <time>2022-04-28T20:27:07.086Z</time>
      </trkpt>
      <trkpt lat="47.60731" lon="1.17364">
        <ele>120.6340379923</ele>
        <time>2022-04-28T20:27:14.471Z</time>
      </trkpt>
      <trkpt lat="47.60716" lon="1.17316">
        <ele>120.89534999266</ele>
        <time>2022-04-28T20:27:21.863Z</time>
      </trkpt>
      <trkpt lat="47.60693" lon="1.17247">
        <ele>121.12928819949</ele>
        <time>2022-04-28T20:27:29.266Z</time>
      </trkpt>
      <trkpt lat="47.60678" lon="1.17122">
        <ele>121.29120744811</ele>
        <time>2022-04-28T20:27:36.686Z</time>
      </trkpt>
      <trkpt lat="47.60676" lon="1.17092">
        <ele>121.56592038114</ele>
        <time>2022-04-28T20:27:44.110Z</time>
      </trkpt>
      <trkpt lat="47.6068" lon="1.17032">
        <ele>121.89627216354</ele>
        <time>2022-04-28T20:27:51.542Z</time>
      </trkpt>
      <trkpt lat="47.60681" lon="1.16983">
        <ele>122.22239677751</ele>
        <time>2022-04-28T20:27:58.981Z</time>
      </trkpt>
      <trkpt lat="47.60687" lon="1.16929">
        <ele>122.52495785998</ele>
        <time>2022-04-28T20:28:06.427Z</time>
      </trkpt>
      <trkpt lat="47.60705" lon="1.16867">
        <ele>122.83522065192</ele>
        <time>2022-04-28T20:28:13.882Z</time>
      </trkpt>
      <trkpt lat="47.60714" lon="1.1684">
        <ele>123.09036580402</ele>
        <time>2022-04-28T20:28:21.341Z</time>
      </trkpt>
      <trkpt lat="47.60726" lon="1.16767">
        <ele>123.3094352162</ele>
        <time>2022-04-28T20:28:28.810Z</time>
      </trkpt>
      <trkpt lat="47.60732" lon="1.16738">
        <ele>123.66998035521</ele>
        <time>2022-04-28T20:28:36.284Z</time>
      </trkpt>
      <trkpt lat="47.60745" lon="1.16691">
        <ele>124.06988101637</ele>
        <time>2022-04-28T20:28:43.764Z</time>
      </trkpt>
      <trkpt lat="47.60763" lon="1.16649">
        <ele>124.36944076682</ele>
        <time>2022-04-28T20:28:51.251Z</time>
      </trkpt>
      <trkpt lat="47.60769" lon="1.16636">
        <ele>124.5289983871</ele>
        <time>2022-04-28T20:28:58.740Z</time>
      </trkpt>
      <trkpt lat="47.60771" lon="1.16622">
        <ele>124.67362120624</ele>
        <time>2022-04-28T20:29:06.231Z</time>
      </trkpt>
      <trkpt lat="47.60772" lon="1.16603">
        <ele>124.99023131692</ele>
        <time>2022-04-28T20:29:13.725Z</time>
      </trkpt>
      <trkpt lat="47.60767" lon="1.1657">
        <ele>125.15564403202</ele>
        <time>2022-04-28T20:29:21.223Z</time>
      </trkpt>
      <trkpt lat="47.60756" lon="1.16492">
        <ele>125.26637407777</ele>
        <time>2022-04-28T20:29:28.732Z</time>
      </trkpt>
      <trkpt lat="47.60737" lon="1.16389">
        <ele>125.14473527908</ele>
        <time>2022-04-28T20:29:36.256Z</time>
      </trkpt>
      <trkpt lat="47.60731" lon="1.16372">
        <ele>125.26366865393</ele>
        <time>2022-04-28T20:29:43.782Z</time>
      </trkpt>
      <trkpt lat="47.60714" lon="1.16357">
        <ele>125.46272461943</ele>
        <time>2022-04-28T20:29:51.312Z</time>
      </trkpt>
      <trkpt lat="47.60665" lon="1.1633">
        <ele>125.6717929657</ele>
        <time>2022-04-28T20:29:58.853Z</time>
      </trkpt>
      <trkpt lat="47.60647" lon="1.1632">
        <ele>125.90982765813</ele>
        <time>2022-04-28T20:30:06.397Z</time>
      </trkpt>
      <trkpt lat="47.60633" lon="1.16318">
        <ele>126.21580182503</ele>
        <time>2022-04-28T20:30:13.944Z</time>
      </trkpt>
      <trkpt lat="47.60607" lon="1.16317">
        <ele>126.59877832074</ele>
        <time>2022-04-28T20:30:21.496Z</time>
      </trkpt>
      <trkpt lat="47.606" lon="1.16314">
        <ele>126.9879116475</ele>
        <time>2022-04-28T20:30:29.050Z</time>
      </trkpt>
      <trkpt lat="47.60594" lon="1.16309">
        <ele>127.42455755019</ele>
        <time>2022-04-28T20:30:36.605Z</time>
      </trkpt>
      <trkpt lat="47.60576" lon="1.16275">
        <ele>127.97237401655</ele>
        <time>2022-04-28T20:30:44.166Z</time>
      </trkpt>
      <trkpt lat="47.60563" lon="1.16244">
        <ele>128.48551597955</ele>
        <time>2022-04-28T20:30:51.732Z</time>
      </trkpt>
      <trkpt lat="47.60558" lon="1.1623">
        <ele>129.02856963447</ele>
        <time>2022-04-28T20:30:59.300Z</time>
      </trkpt>
      <trkpt lat="47.60554" lon="1.16226">
        <ele>129.62110403761</ele>
        <time>2022-04-28T20:31:06.869Z</time>
      </trkpt>
      <trkpt lat="47.605" lon="1.16236">
        <ele>130.4346709457</ele>
        <time>2022-04-28T20:31:14.449Z</time>
      </trkpt>
      <trkpt lat="47.6038" lon="1.16262">
        <ele>131.89539475674</ele>
        <time>2022-04-28T20:31:22.053Z</time>
      </trkpt>
      <trkpt lat="47.60362" lon="1.16265">
        <ele>132.54451793209</ele>
        <time>2022-04-28T20:31:29.661Z</time>
      </trkpt>
      <trkpt lat="47.60347" lon="1.16263">
        <ele>133.28747661539</ele>
        <time>2022-04-28T20:31:37.272Z</time>
      </trkpt>
      <trkpt lat="47.6033" lon="1.16314">
        <ele>134.0311308159</ele>
        <time>2022-04-28T20:31:44.891Z</time>
      </trkpt>
      <trkpt lat="47.60305" lon="1.16393">
        <ele>134.66474472725</ele>
        <time>2022-04-28T20:31:52.522Z</time>
      </trkpt>
      <trkpt lat="47.60289" lon="1.16439">
        <ele>135.46866629869</ele>
        <time>2022-04-28T20:32:00.160Z</time>
      </trkpt>
      <trkpt lat="47.60268" lon="1.165">
        <ele>136.50669591145</ele>
        <time>2022-04-28T20:32:07.807Z</time>
      </trkpt>
      <trkpt lat="47.60264" lon="1.16503">
        <ele>137.24489099393</ele>
        <time>2022-04-28T20:32:15.455Z</time>
      </trkpt>
      <trkpt lat="47.60258" lon="1.16458">
        <ele>137.92981989621</ele>
        <time>2022-04-28T20:32:23.109Z</time>
      </trkpt>
      <trkpt lat="47.60251" lon="1.16413">
        <ele>138.56797017312</ele>
        <time>2022-04-28T20:32:30.769Z</time>
      </trkpt>
      <trkpt lat="47.60239" lon="1.16348">
        <ele>139.82336569828</ele>
        <time>2022-04-28T20:32:38.438Z</time>
      </trkpt>
      <trkpt lat="47.60233" lon="1.16323">
        <ele>140.43351752861</ele>
        <time>2022-04-28T20:32:46.111Z</time>
      </trkpt>
      <trkpt lat="47.60218" lon="1.16275">
        <ele>140.997622159</ele>
        <time>2022-04-28T20:32:53.791Z</time>
      </trkpt>
      <trkpt lat="47.60192" lon="1.16204">
        <ele>141.74451539475</ele>
        <time>2022-04-28T20:33:01.482Z</time>
      </trkpt>
      <trkpt lat="47.60164" lon="1.16123">
        <ele>142.34369296895</ele>
        <time>2022-04-28T20:33:09.185Z</time>
      </trkpt>
      <trkpt lat="47.60146" lon="1.16063">
        <ele>142.8348584349</ele>
        <time>2022-04-28T20:33:16.897Z</time>
      </trkpt>
      <trkpt lat="47.60143" lon="1.16046">
        <ele>143.22739093139</ele>
        <time>2022-04-28T20:33:24.612Z</time>
      </trkpt>
      <trkpt lat="47.60143" lon="1.16005">
        <ele>143.51344874375</ele>
        <time>2022-04-28T20:33:32.332Z</time>
      </trkpt>
      <trkpt lat="47.60146" lon="1.15977">
        <ele>143.76157743767</ele>
        <time>2022-04-28T20:33:40.056Z</time>
      </trkpt>
      <trkpt lat="47.60158" lon="1.15917">
        <ele>144.03149282194</ele>
        <time>2022-04-28T20:33:47.788Z</time>
      </trkpt>
      <trkpt lat="47.60186" lon="1.15829">
        <ele>144.39051479886</ele>
        <time>2022-04-28T20:33:55.534Z</time>
      </trkpt>
      <trkpt lat="47.60216" lon="1.15732">
        <ele>144.50739165554</ele>
        <time>2022-04-28T20:34:03.294Z</time>
      </trkpt>
      <trkpt lat="47.60233" lon="1.1568">
        <ele>144.5067883554</ele>
        <time>2022-04-28T20:34:11.062Z</time>
      </trkpt>
      <trkpt lat="47.60294" lon="1.15493">
        <ele>144.14010149647</ele>
        <time>2022-04-28T20:34:18.858Z</time>
      </trkpt>
      <trkpt lat="47.60346" lon="1.15327">
        <ele>143.83680678999</ele>
        <time>2022-04-28T20:34:26.679Z</time>
      </trkpt>
      <trkpt lat="47.60388" lon="1.1519">
        <ele>143.65696515334</ele>
        <time>2022-04-28T20:34:34.520Z</time>
      </trkpt>
      <trkpt lat="47.60435" lon="1.15037">
        <ele>143.76241114615</ele>
        <time>2022-04-28T20:34:42.384Z</time>
      </trkpt>
      <trkpt lat="47.60479" lon="1.14891">
        <ele>143.13643428787</ele>
        <time>2022-04-28T20:34:50.269Z</time>
      </trkpt>
      <trkpt lat="47.60535" lon="1.1471">
        <ele>143.0646147529</ele>
        <time>2022-04-28T20:34:58.181Z</time>
      </trkpt>
      <trkpt lat="47.60527" lon="1.14707">
        <ele>143.18775004332</ele>
        <time>2022-04-28T20:35:06.095Z</time>
      </trkpt>
      <trkpt lat="47.60459" lon="1.1468">
        <ele>143.55680093046</ele>
        <time>2022-04-28T20:35:14.023Z</time>
      </trkpt>
      <trkpt lat="47.60422" lon="1.14668">
        <ele>144.16516804659</ele>
        <time>2022-04-28T20:35:21.959Z</time>
      </trkpt>
      <trkpt lat="47.60422" lon="1.14665">
        <ele>144.50347575846</ele>
        <time>2022-04-28T20:35:29.895Z</time>
      </trkpt>
      <trkpt lat="47.60418" lon="1.14663">
        <ele>144.94583642151</ele>
        <time>2022-04-28T20:35:37.832Z</time>
      </trkpt>
      <trkpt lat="47.60416" lon="1.14664">
        <ele>145.40510700789</ele>
        <time>2022-04-28T20:35:45.769Z</time>
      </trkpt>
      <trkpt lat="47.6039" lon="1.14674">
        <ele>146.11264031496</ele>
        <time>2022-04-28T20:35:53.712Z</time>
      </trkpt>
      <trkpt lat="47.60365" lon="1.14693">
        <ele>146.79084193759</ele>
        <time>2022-04-28T20:36:01.660Z</time>
      </trkpt>
      <trkpt lat="47.60365" lon="1.14693">
        <ele>147.75314579623</ele>
        <time>2022-04-28T20:36:09.608Z</time>
      </trkpt>
      <trkpt lat="47.60333" lon="1.14717">
        <ele>148.33696744654</ele>
        <time>2022-04-28T20:36:17.564Z</time>
      </trkpt>
      <trkpt lat="47.60325" lon="1.14725">
        <ele>148.84375152324</ele>
        <time>2022-04-28T20:36:25.522Z</time>
      </trkpt>
      <trkpt lat="47.60325" lon="1.14725">
        <ele>149.81363728445</ele>
        <time>2022-04-28T20:36:33.480Z</time>
      </trkpt>
      <trkpt lat="47.60273" lon="1.14774">
        <ele>150.34534406294</ele>
        <time>2022-04-28T20:36:41.450Z</time>
      </trkpt>
      <trkpt lat="47.60268" lon="1.14782">
        <ele>150.81454703908</ele>
        <time>2022-04-28T20:36:49.421Z</time>
      </trkpt>
      <trkpt lat="47.60268" lon="1.14782">
        <ele>151.70041970549</ele>
        <time>2022-04-28T20:36:57.392Z</time>
      </trkpt>
      <trkpt lat="47.60258" lon="1.14796">
        <ele>152.15395753259</ele>
        <time>2022-04-28T20:37:05.366Z</time>
      </trkpt>
      <trkpt lat="47.60245" lon="1.14826">
        <ele>152.56420186712</ele>
        <time>2022-04-28T20:37:13.345Z</time>
      </trkpt>
      <trkpt lat="47.60228" lon="1.14875">
        <ele>153.00276721979</ele>
        <time>2022-04-28T20:37:21.331Z</time>
      </trkpt>
      <trkpt lat="47.60228" lon="1.14875">
        <ele>153.81838229888</ele>
        <time>2022-04-28T20:37:29.317Z</time>
      </trkpt>
      <trkpt lat="47.60225" lon="1.14883">
        <ele>154.23548141863</ele>
        <time>2022-04-28T20:37:37.305Z</time>
      </trkpt>
      <trkpt lat="47.60211" lon="1.14907">
        <ele>154.68917688489</ele>
        <time>2022-04-28T20:37:45.297Z</time>
      </trkpt>
      <trkpt lat="47.60195" lon="1.14921">
        <ele>155.10601163704</ele>
        <time>2022-04-28T20:37:53.293Z</time>
      </trkpt>
      <trkpt lat="47.60183" lon="1.14928">
        <ele>155.50945963402</ele>
        <time>2022-04-28T20:38:01.291Z</time>
      </trkpt>
      <trkpt lat="47.60183" lon="1.14928">
        <ele>156.17969567479</ele>
        <time>2022-04-28T20:38:09.289Z</time>
      </trkpt>
      <trkpt lat="47.60176" lon="1.14933">
        <ele>156.52929349656</ele>
        <time>2022-04-28T20:38:17.289Z</time>
      </trkpt>
      <trkpt lat="47.60159" lon="1.14939">
        <ele>156.85505790669</ele>
        <time>2022-04-28T20:38:25.292Z</time>
      </trkpt>
      <trkpt lat="47.60157" lon="1.14938">
        <ele>157.14042627309</ele>
        <time>2022-04-28T20:38:33.296Z</time>
      </trkpt>
      <trkpt lat="47.60165" lon="1.14882">
        <ele>157.36250536769</ele>
        <time>2022-04-28T20:38:41.307Z</time>
      </trkpt>
      <trkpt lat="47.60189" lon="1.14696">
        <ele>158.01447782222</ele>
        <time>2022-04-28T20:38:49.344Z</time>
      </trkpt>
      <trkpt lat="47.60195" lon="1.14652">
        <ele>158.92081231067</ele>
        <time>2022-04-28T20:38:57.387Z</time>
      </trkpt>
      <trkpt lat="47.60199" lon="1.14654">
        <ele>158.28688331473</ele>
        <time>2022-04-28T20:39:05.431Z</time>
      </trkpt>
      <trkpt lat="47.60209" lon="1.14635">
        <ele>158.27616059244</ele>
        <time>2022-04-28T20:39:13.478Z</time>
      </trkpt>
      <trkpt lat="47.60217" lon="1.14619">
        <ele>158.17268412456</ele>
        <time>2022-04-28T20:39:21.528Z</time>
      </trkpt>
      <trkpt lat="47.60221" lon="1.14615">
        <ele>158.00781060349</ele>
        <time>2022-04-28T20:39:29.579Z</time>
      </trkpt>
      <trkpt lat="47.60239" lon="1.14595">
        <ele>157.41170635733</ele>
        <time>2022-04-28T20:39:37.634Z</time>
      </trkpt>
      <trkpt lat="47.6025" lon="1.14588">
        <ele>156.97802625935</ele>
        <time>2022-04-28T20:39:45.692Z</time>
      </trkpt>
      <trkpt lat="47.60257" lon="1.14587">
        <ele>156.49082600851</ele>
        <time>2022-04-28T20:39:53.751Z</time>
      </trkpt>
      <trkpt lat="47.60256" lon="1.14571">
        <ele>155.93126506781</ele>
        <time>2022-04-28T20:40:01.812Z</time>
      </trkpt>
      <trkpt lat="47.60251" lon="1.14511">
        <ele>155.30467304957</ele>
        <time>2022-04-28T20:40:09.882Z</time>
      </trkpt>
      <trkpt lat="47.60256" lon="1.1446">
        <ele>154.49589347209</ele>
        <time>2022-04-28T20:40:17.959Z</time>
      </trkpt>
      <trkpt lat="47.60263" lon="1.14383">
        <ele>153.30253737478</ele>
        <time>2022-04-28T20:40:26.046Z</time>
      </trkpt>
      <trkpt lat="47.60268" lon="1.14348">
        <ele>152.36520779907</ele>
        <time>2022-04-28T20:40:34.138Z</time>
      </trkpt>
      <trkpt lat="47.60272" lon="1.14324">
        <ele>151.53504199425</ele>
        <time>2022-04-28T20:40:42.233Z</time>
      </trkpt>
      <trkpt lat="47.6028" lon="1.143">
        <ele>150.88217148847</ele>
        <time>2022-04-28T20:40:50.332Z</time>
      </trkpt>
      <trkpt lat="47.60281" lon="1.14298">
        <ele>150.31716303189</ele>
        <time>2022-04-28T20:40:58.431Z</time>
      </trkpt>
      <trkpt lat="47.60294" lon="1.14253">
        <ele>149.1980626744</ele>
        <time>2022-04-28T20:41:06.537Z</time>
      </trkpt>
      <trkpt lat="47.60296" lon="1.14263">
        <ele>148.75084019976</ele>
        <time>2022-04-28T20:41:14.644Z</time>
      </trkpt>
    </trkseg>
  </trk>
</gpx>